Provisional Data: Baldwin Creek near Lowman, NY


Please select a monitoring station.
Please select start date.
Please select start date.

Toggle Unit: C/F Toggle Unit: C/F
Sample Time Temperature (C) Temperature (F) Specific Conductivity (mS/cm) pH   Turbidity (NTU+) DO (mg/L)
5/17/2022 12:00:00 AM 16.59 61.862 0.192 7.38 4.1 8.46
5/17/2022 12:15:00 AM 16.51 61.718 0.192 7.38 4.16 8.49
5/17/2022 12:30:00 AM 16.41 61.538 0.192 7.38 4.06 8.51
5/17/2022 12:45:00 AM 16.32 61.376 0.191 7.37 4.15 8.53
5/17/2022 1:00:00 AM 16.2 61.16 0.192 7.37 4.15 8.56
5/17/2022 1:15:00 AM 16.1 60.98 0.192 7.37 4.2 8.59
5/17/2022 1:30:00 AM 16 60.8 0.192 7.37 4.01 8.61
5/17/2022 1:45:00 AM 15.91 60.638 0.192 7.37 4 8.63
5/17/2022 2:00:00 AM 15.82 60.476 0.191 7.37 4.25 8.65
5/17/2022 2:15:00 AM 15.72 60.296 0.191 7.37 3.98 8.68
5/17/2022 2:30:00 AM 15.63 60.134 0.19 7.37 4.09 8.7
5/17/2022 2:45:00 AM 15.52 59.936 0.189 7.37 3.98 8.72
5/17/2022 3:00:00 AM 15.43 59.774 0.189 7.37 3.98 8.74
5/17/2022 3:15:00 AM 15.34 59.612 0.188 7.37 4.21 8.76
5/17/2022 3:30:00 AM 15.25 59.45 0.188 7.37 3.98 8.78
5/17/2022 3:45:00 AM 15.18 59.324 0.187 7.36 4.03 8.8
5/17/2022 4:00:00 AM 15.11 59.198 0.187 7.36 3.97 8.82
5/17/2022 4:15:00 AM 15.06 59.108 0.186 7.36 3.87 8.82
5/17/2022 4:30:00 AM 15 59 0.186 7.36 4.14 8.84
5/17/2022 4:45:00 AM 14.96 58.928 0.185 7.36 4 8.85
5/17/2022 5:00:00 AM 14.91 58.838 0.185 7.36 3.88 8.86
5/17/2022 5:15:00 AM 14.86 58.748 0.185 7.36 4.05 8.88
5/17/2022 5:30:00 AM 14.82 58.676 0.185 7.36 4.35 8.89
5/17/2022 5:45:00 AM 14.78 58.604 0.185 7.36 4.14 8.89
5/17/2022 6:00:00 AM 14.73 58.514 0.184 7.36 4.18 8.91
5/17/2022 6:15:00 AM 14.67 58.406 0.184 7.36 4.29 8.95
5/17/2022 6:30:00 AM 14.63 58.334 0.184 7.37 4.27 9.01
5/17/2022 6:45:00 AM 14.59 58.262 0.184 7.39 3.92 9.1
5/17/2022 7:00:00 AM 14.55 58.19 0.184 7.41 4.06 9.21
5/17/2022 7:15:00 AM 14.52 58.136 0.184 7.43 4.39 9.3
5/17/2022 7:30:00 AM 14.53 58.154 0.184 7.45 3.9 9.43
5/17/2022 7:45:00 AM 14.54 58.172 0.184 7.48 3.67 9.55
5/17/2022 8:00:00 AM 14.62 58.316 0.184 7.52 3.51 9.7
5/17/2022 8:15:00 AM 14.74 58.532 0.184 7.58 3.59 9.89
5/17/2022 8:30:00 AM 14.85 58.73 0.183 7.63 3.71 10.04
5/17/2022 8:45:00 AM 14.97 58.946 0.183 7.68 3.55 10.18
5/17/2022 9:00:00 AM 15.06 59.108 0.183 7.73 3.54 10.26
5/17/2022 9:15:00 AM 15.14 59.252 0.183 7.78 3.55 10.33
5/17/2022 9:30:00 AM 15.25 59.45 0.182 7.82 3.5 10.4
5/17/2022 9:45:00 AM 15.39 59.702 0.182 7.87 3.51 10.46
5/17/2022 10:00:00 AM 15.59 60.062 0.182 7.92 3.51 10.5
5/17/2022 10:15:00 AM 15.71 60.278 0.182 7.96 4.33 10.52
5/17/2022 10:30:00 AM 15.85 60.53 0.181 7.99 3.58 10.53
5/17/2022 10:45:00 AM 15.95 60.71 0.181 8.01 3.51 10.52
5/17/2022 11:00:00 AM 16.14 61.052 0.181 8.04 3.49 10.53
5/17/2022 11:15:00 AM 16.3 61.34 0.18 8.07 3.42 10.54
5/17/2022 11:30:00 AM 16.47 61.646 0.18 8.1 3.56 10.57
5/17/2022 11:45:00 AM 16.65 61.97 0.18 8.15 3.7 10.59
5/17/2022 12:00:00 PM 16.89 62.402 0.179 8.18 3.55 10.59
5/17/2022 12:15:00 PM 17.07 62.726 0.179 8.21 3.6 10.57
5/17/2022 12:30:00 PM 17.24 63.032 0.179 8.23 3.81 10.56
5/17/2022 12:45:00 PM 17.45 63.41 0.179 8.25 3.63 10.53
5/17/2022 1:00:00 PM 17.72 63.896 0.178 8.28 3.72 10.54
5/17/2022 1:15:00 PM 18.13 64.634 0.178 8.33 3.63 10.56
5/17/2022 1:30:00 PM 18.48 65.264 0.178 8.37 3.47 10.56
5/17/2022 1:45:00 PM 18.83 65.894 0.178 8.41 3.44 10.54
5/17/2022 2:00:00 PM 19.07 66.326 0.178 8.43 3.54 10.52
5/17/2022 2:15:00 PM 19.26 66.668 0.178 8.45 3.48 10.5
5/17/2022 2:30:00 PM 19.36 66.848 0.178 8.47 3.48 10.47
5/17/2022 2:45:00 PM 19.44 66.992 0.178 8.49 3.42 10.44
5/17/2022 3:00:00 PM 19.49 67.082 0.178 8.51 3.37 10.42
5/17/2022 3:15:00 PM 19.42 66.956 0.178 8.52 3.37 10.39
5/17/2022 3:30:00 PM 19.36 66.848 0.178 8.51 3.36 10.35
5/17/2022 3:45:00 PM 19.29 66.722 0.178 8.52 3.33 10.33
5/17/2022 4:00:00 PM 19.15 66.47 0.178 8.51 3.32 10.31
5/17/2022 4:15:00 PM 19.04 66.272 0.178 8.51 3.28 10.3
5/17/2022 4:30:00 PM 18.88 65.984 0.178 8.5 3.27 10.27
5/17/2022 4:45:00 PM 18.78 65.804 0.178 8.5 3.21 10.26
5/17/2022 5:00:00 PM 18.64 65.552 0.178 8.48 3.19 10.22
5/17/2022 5:15:00 PM 18.5 65.3 0.178 8.45 3.18 10.15
5/17/2022 5:30:00 PM 18.36 65.048 0.178 8.41 3.16 10.08
5/17/2022 5:45:00 PM 18.22 64.796 0.178 8.35 3.13 10
5/17/2022 6:00:00 PM 18.11 64.598 0.179 8.3 3.14 9.95
5/17/2022 6:15:00 PM 18 64.4 0.179 8.25 3.12 9.89
5/17/2022 6:30:00 PM 17.89 64.202 0.179 8.19 3.16 9.81
5/17/2022 6:45:00 PM 17.76 63.968 0.179 8.12 3.11 9.73
5/17/2022 7:00:00 PM 17.65 63.77 0.179 8.07 3.04 9.66
5/17/2022 7:15:00 PM 17.55 63.59 0.179 7.99 2.99 9.56
5/17/2022 7:30:00 PM 17.43 63.374 0.18 7.92 2.96 9.45
5/17/2022 7:45:00 PM 17.32 63.176 0.18 7.85 3.03 9.34
5/17/2022 8:00:00 PM 17.19 62.942 0.18 7.79 3.04 9.21
5/17/2022 8:15:00 PM 17.06 62.708 0.18 7.72 2.96 9.08
5/17/2022 8:30:00 PM 16.92 62.456 0.181 7.66 3.02 8.97
5/17/2022 8:45:00 PM 16.8 62.24 0.181 7.61 3.14 8.85
5/17/2022 9:00:00 PM 16.68 62.024 0.181 7.56 3.46 8.76
5/17/2022 9:15:00 PM 16.59 61.862 0.181 7.53 3.23 8.68
5/17/2022 9:30:00 PM 16.51 61.718 0.181 7.5 3.21 8.62
5/17/2022 9:45:00 PM 16.42 61.556 0.181 7.47 3.12 8.57
5/17/2022 10:00:00 PM 16.35 61.43 0.182 7.45 3.09 8.56
5/17/2022 10:15:00 PM 16.27 61.286 0.182 7.44 3.03 8.54
5/17/2022 10:30:00 PM 16.2 61.16 0.182 7.43 3.15 8.54
5/17/2022 10:45:00 PM 16.13 61.034 0.182 7.42 3.06 8.53
5/17/2022 11:00:00 PM 16.07 60.926 0.182 7.41 3.18 8.53
5/17/2022 11:15:00 PM 15.99 60.782 0.182 7.4 3.09 8.54
5/17/2022 11:30:00 PM 15.91 60.638 0.182 7.4 3.14 8.55
5/17/2022 11:45:00 PM 15.83 60.494 0.182 7.39 3.16 8.56
5/18/2022 12:00:00 AM 15.74 60.332 0.182 7.38 3.25 8.57
5/18/2022 12:15:00 AM 15.65 60.17 0.182 7.38 3.1 8.58
5/18/2022 12:30:00 AM 15.54 59.972 0.182 7.38 3.29 8.6
5/18/2022 12:45:00 AM 15.44 59.792 0.182 7.37 3.13 8.62
5/18/2022 1:00:00 AM 15.32 59.576 0.182 7.37 3.17 8.64
5/18/2022 1:15:00 AM 15.22 59.396 0.182 7.36 3.1 8.65
5/18/2022 1:30:00 AM 15.09 59.162 0.182 7.36 3.13 8.69
5/18/2022 1:45:00 AM 14.99 58.982 0.182 7.36 3.1 8.7
5/18/2022 2:00:00 AM 14.88 58.784 0.182 7.37 3.07 8.73
5/18/2022 2:15:00 AM 14.77 58.586 0.182 7.36 3.08 8.74
5/18/2022 2:30:00 AM 14.65 58.37 0.182 7.36 3.17 8.78
5/18/2022 2:45:00 AM 14.56 58.208 0.182 7.36 3.08 8.79
5/18/2022 3:00:00 AM 14.44 57.992 0.182 7.35 2.97 8.82
5/18/2022 3:15:00 AM 14.33 57.794 0.182 7.36 3.03 8.85
5/18/2022 3:30:00 AM 14.24 57.632 0.182 7.36 3.04 8.87
5/18/2022 3:45:00 AM 14.13 57.434 0.182 7.35 3.14 8.89
5/18/2022 4:00:00 AM 14.04 57.272 0.182 7.36 2.94 8.91
5/18/2022 4:15:00 AM 13.93 57.074 0.182 7.35 3 8.95
5/18/2022 4:30:00 AM 13.85 56.93 0.182 7.35 3.06 8.96
5/18/2022 4:45:00 AM 13.75 56.75 0.182 7.35 2.99 8.99
5/18/2022 5:00:00 AM 13.67 56.606 0.182 7.35 2.95 9.01
5/18/2022 5:15:00 AM 13.58 56.444 0.182 7.35 2.98 9.03
5/18/2022 5:30:00 AM 13.49 56.282 0.182 7.35 3.1 9.05
5/18/2022 5:45:00 AM 13.42 56.156 0.182 7.35 3.18 9.06
5/18/2022 6:00:00 AM 13.33 55.994 0.182 7.36 2.94 9.11
5/18/2022 6:15:00 AM 13.25 55.85 0.182 7.36 2.97 9.15
5/18/2022 6:30:00 AM 13.16 55.688 0.182 7.37 3.03 9.23
5/18/2022 6:45:00 AM 13.11 55.598 0.182 7.38 2.97 9.32
5/18/2022 7:00:00 AM 13.05 55.49 0.182 7.4 2.89 9.44
5/18/2022 7:15:00 AM 13.02 55.436 0.182 7.42 2.93 9.56
5/18/2022 7:30:00 AM 13 55.4 0.182 7.44 2.84 9.7
5/18/2022 7:45:00 AM 13 55.4 0.182 7.47 2.85 9.85
5/18/2022 8:00:00 AM 13.04 55.472 0.182 7.5 2.82 9.98
5/18/2022 8:15:00 AM 13.09 55.562 0.182 7.53 2.82 10.11
5/18/2022 8:30:00 AM 13.18 55.724 0.181 7.57 2.79 10.25
5/18/2022 8:45:00 AM 13.28 55.904 0.181 7.61 2.88 10.38
5/18/2022 9:00:00 AM 13.45 56.21 0.181 7.65 2.92 10.5
5/18/2022 9:15:00 AM 13.61 56.498 0.181 7.7 2.79 10.62
5/18/2022 9:30:00 AM 13.79 56.822 0.181 7.76 2.82 10.73
5/18/2022 9:45:00 AM 14 57.2 0.181 7.81 2.84 10.82
5/18/2022 10:00:00 AM 14.23 57.614 0.181 7.88 2.68 10.92
5/18/2022 10:15:00 AM 14.51 58.118 0.181 7.93 2.75 10.98
5/18/2022 10:30:00 AM 14.73 58.514 0.18 8 2.74 11.05
5/18/2022 10:45:00 AM 15.01 59.018 0.18 8.08 2.67 11.12
5/18/2022 11:00:00 AM 15.34 59.612 0.18 8.15 2.65 11.16
5/18/2022 11:15:00 AM 15.67 60.206 0.18 8.22 2.72 11.21
5/18/2022 11:30:00 AM 15.95 60.71 0.18 8.28 2.65 11.23
5/18/2022 11:45:00 AM 16.27 61.286 0.18 8.35 2.63 11.24
5/18/2022 12:00:00 PM 16.61 61.898 0.18 8.42 2.54 11.25
5/18/2022 12:15:00 PM 16.93 62.474 0.18 8.47 2.56 11.25
5/18/2022 12:30:00 PM 17.25 63.05 0.18 8.52 2.59 11.25
5/18/2022 12:45:00 PM 17.59 63.662 0.18 8.55 2.64 11.23
5/18/2022 1:00:00 PM 17.97 64.346 0.18 8.61 2.45 11.19
5/18/2022 1:15:00 PM 18.3 64.94 0.18 8.63 2.7 11.17
5/18/2022 1:30:00 PM 18.56 65.408 0.18 8.66 2.53 11.11
5/18/2022 1:45:00 PM 18.86 65.948 0.18 8.67 2.51 11.07
5/18/2022 2:00:00 PM 19.03 66.254 0.18 8.7 2.53 11.04
5/18/2022 2:15:00 PM 19.23 66.614 0.18 8.71 2.52 11.02
5/18/2022 2:30:00 PM 19.31 66.758 0.18 8.73 2.52 10.98
5/18/2022 2:45:00 PM 19.41 66.938 0.18 8.74 2.48 10.96
5/18/2022 3:00:00 PM 19.41 66.938 0.18 8.76 2.54 10.92
5/18/2022 3:15:00 PM 19.43 66.974 0.18 8.77 2.57 10.91
5/18/2022 3:30:00 PM 19.32 66.776 0.18 8.78 2.72 10.88
5/18/2022 3:45:00 PM 19.16 66.488 0.18 8.78 2.72 10.82
5/18/2022 4:00:00 PM 18.98 66.164 0.18 8.77 2.55 10.73
5/18/2022 4:15:00 PM 18.77 65.786 0.18 8.74 2.79 10.61
5/18/2022 4:30:00 PM 18.54 65.372 0.18 8.67 2.42 10.42
5/18/2022 4:45:00 PM 18.33 64.994 0.18 8.58 2.49 10.21
5/18/2022 5:00:00 PM 18.17 64.706 0.181 8.46 2.54 10.01
5/18/2022 5:15:00 PM 18 64.4 0.181 8.29 2.51 9.78
5/18/2022 5:30:00 PM 17.88 64.184 0.181 8.17 2.51 9.62
5/18/2022 5:45:00 PM 17.76 63.968 0.181 8.04 2.5 9.48
5/18/2022 6:00:00 PM 17.64 63.752 0.182 7.93 2.44 9.36
5/18/2022 6:15:00 PM 17.55 63.59 0.182 7.87 2.48 9.3
5/18/2022 6:30:00 PM 17.47 63.446 0.182 7.83 2.44 9.28
5/18/2022 6:45:00 PM 17.37 63.266 0.182 7.79 2.44 9.26
5/18/2022 7:00:00 PM 17.29 63.122 0.182 7.77 2.48 9.24
5/18/2022 7:15:00 PM 17.21 62.978 0.182 7.74 2.68 9.22
5/18/2022 7:30:00 PM 17.14 62.852 0.182 7.72 2.48 9.2
5/18/2022 7:45:00 PM 17.06 62.708 0.182 7.7 2.48 9.16
5/18/2022 8:00:00 PM 16.98 62.564 0.182 7.67 2.45 9.1
5/18/2022 8:15:00 PM 16.88 62.384 0.182 7.64 2.52 9.03
5/18/2022 8:30:00 PM 16.79 62.222 0.182 7.6 2.66 8.94
5/18/2022 8:45:00 PM 16.72 62.096 0.182 7.57 2.71 8.83
5/18/2022 9:00:00 PM 16.64 61.952 0.183 7.53 3.02 8.74
5/18/2022 9:15:00 PM 16.56 61.808 0.183 7.5 2.58 8.65
5/18/2022 9:30:00 PM 16.48 61.664 0.183 7.47 2.93 8.58
5/18/2022 9:45:00 PM 16.4 61.52 0.183 7.45 2.95 8.52
5/18/2022 10:00:00 PM 16.33 61.394 0.183 7.43 2.77 8.48
5/18/2022 10:15:00 PM 16.26 61.268 0.182 7.42 2.75 8.46
5/18/2022 10:30:00 PM 16.2 61.16 0.182 7.4 2.67 8.44
5/18/2022 10:45:00 PM 16.11 60.998 0.181 7.4 2.85 8.44
5/18/2022 11:00:00 PM 16.05 60.89 0.181 7.39 2.92 8.43
5/18/2022 11:15:00 PM 15.98 60.764 0.18 7.38 2.77 8.44
5/18/2022 11:30:00 PM 15.91 60.638 0.18 7.37 2.86 8.44
5/18/2022 11:45:00 PM 15.85 60.53 0.179 7.36 3.06 8.43
5/19/2022 12:00:00 AM 15.8 60.44 0.179 7.35 3.03 8.43
5/19/2022 12:15:00 AM 15.76 60.368 0.179 7.35 3.02 8.42
5/19/2022 12:30:00 AM 15.71 60.278 0.179 7.34 3.11 8.42
5/19/2022 12:45:00 AM 15.66 60.188 0.18 7.34 3.19 8.42
5/19/2022 1:00:00 AM 15.62 60.116 0.18 7.34 3.11 8.44
5/19/2022 1:15:00 AM 15.57 60.026 0.18 7.34 3.23 8.45
5/19/2022 1:30:00 AM 15.53 59.954 0.18 7.34 3.3 8.46
5/19/2022 1:45:00 AM 15.48 59.864 0.181 7.34 3.34 8.49
5/19/2022 2:00:00 AM 15.43 59.774 0.181 7.34 3.41 8.49
5/19/2022 2:15:00 AM 15.39 59.702 0.181 7.34 3.59 8.51
5/19/2022 2:30:00 AM 15.34 59.612 0.181 7.34 3.34 8.51
5/19/2022 2:45:00 AM 15.3 59.54 0.181 7.33 3.38 8.53
5/19/2022 3:00:00 AM 15.26 59.468 0.181 7.34 3.54 8.54
5/19/2022 3:15:00 AM 15.23 59.414 0.181 7.33 3.48 8.54
5/19/2022 3:30:00 AM 15.19 59.342 0.181 7.34 3.56 8.55
5/19/2022 3:45:00 AM 15.15 59.27 0.182 7.34 3.58 8.56
5/19/2022 4:00:00 AM 15.12 59.216 0.182 7.34 3.39 8.57
5/19/2022 4:15:00 AM 15.08 59.144 0.182 7.34 3.35 8.59
5/19/2022 4:30:00 AM 15.04 59.072 0.182 7.34 3.29 8.6
5/19/2022 4:45:00 AM 15.01 59.018 0.182 7.34 3.31 8.6
5/19/2022 5:00:00 AM 14.98 58.964 0.183 7.34 3.27 8.62
5/19/2022 5:15:00 AM 14.94 58.892 0.183 7.34 3.23 8.64
5/19/2022 5:30:00 AM 14.9 58.82 0.183 7.34 3.26 8.64
5/19/2022 5:45:00 AM 14.87 58.766 0.183 7.34 3.19 8.66
5/19/2022 6:00:00 AM 14.84 58.712 0.183 7.34 3.2 8.68
5/19/2022 6:15:00 AM 14.8 58.64 0.183 7.35 4.23 8.71
5/19/2022 6:30:00 AM 14.77 58.586 0.183 7.35 4.09 8.71
5/19/2022 6:45:00 AM 14.74 58.532 0.183 7.35 7.74 8.76
5/19/2022 7:00:00 AM 14.71 58.478 0.183 7.36 3.72 8.81
5/19/2022 7:15:00 AM 14.68 58.424 0.183 7.37 3.84 8.85
5/19/2022 7:30:00 AM 14.65 58.37 0.183 7.38 3.04 8.93
5/19/2022 7:45:00 AM 14.64 58.352 0.183 7.39 3.09 8.99
5/19/2022 8:00:00 AM 14.63 58.334 0.183 7.41 5.6 9.08
5/19/2022 8:15:00 AM 14.63 58.334 0.183 7.43 4.27 9.21
5/19/2022 8:30:00 AM 14.64 58.352 0.182 7.46 2.98 9.34
5/19/2022 8:45:00 AM 14.66 58.388 0.182 7.5 3.13 9.49
5/19/2022 9:00:00 AM 14.72 58.496 0.182 7.54 3.46 9.65
5/19/2022 9:15:00 AM 14.79 58.622 0.182 7.59 2.85 9.84
5/19/2022 9:30:00 AM 14.87 58.766 0.181 7.65 3.43 10
5/19/2022 9:45:00 AM 14.92 58.856 0.181 7.71 3.1 10.14
5/19/2022 10:00:00 AM 14.96 58.928 0.181 7.75 2.86 10.18
5/19/2022 10:15:00 AM 14.98 58.964 0.181 7.77 2.79 10.16
5/19/2022 10:30:00 AM 15 59 0.181 7.78 2.76 10.12
5/19/2022 10:45:00 AM 15.04 59.072 0.181 7.78 2.99 10.1
5/19/2022 11:00:00 AM 15.14 59.252 0.181 7.8 2.82 10.15
5/19/2022 11:15:00 AM 15.22 59.396 0.181 7.84 2.83 10.24
5/19/2022 11:30:00 AM 15.29 59.522 0.181 7.89 2.79 10.32
5/19/2022 11:45:00 AM 15.39 59.702 0.181 7.95 2.85 10.41
5/19/2022 12:00:00 PM 15.46 59.828 0.181 7.99 3.13 10.43
5/19/2022 12:15:00 PM 15.52 59.936 0.181 8.02 4.2 10.45
5/19/2022 12:30:00 PM 15.59 60.062 0.181 8.05 3.27 10.46
5/19/2022 12:45:00 PM 15.78 60.404 0.181 8.08 3.22 10.49
5/19/2022 1:00:00 PM 16.03 60.854 0.181 8.13 3.11 10.55
5/19/2022 1:15:00 PM 16.25 61.25 0.181 8.17 2.86 10.6
5/19/2022 1:30:00 PM 16.37 61.466 0.181 8.22 3.55 10.6
5/19/2022 1:45:00 PM 16.45 61.61 0.181 8.25 3.28 10.6
5/19/2022 2:00:00 PM 16.51 61.718 0.181 8.27 3.53 10.58
5/19/2022 2:15:00 PM 16.58 61.844 0.181 8.28 5.91 10.54
5/19/2022 2:30:00 PM 16.6 61.88 0.179 8.23 5.14 10.38
5/19/2022 2:45:00 PM 16.62 61.916 0.178 8.19 3.65 10.28
5/19/2022 3:00:00 PM 16.77 62.186 0.176 8.13 4.18 10.18
5/19/2022 3:15:00 PM 16.96 62.528 0.174 8.09 4.89 10.14
5/19/2022 3:30:00 PM 17.08 62.744 0.173 8.08 6.88 10.16
5/19/2022 3:45:00 PM 17.19 62.942 0.174 8.1 6.84 10.19
5/19/2022 4:00:00 PM 17.26 63.068 0.175 8.11 7.46 10.19
5/19/2022 4:15:00 PM 17.33 63.194 0.178 8.12 7.66 10.16
5/19/2022 4:30:00 PM 17.4 63.32 0.18 8.13 7.2 10.14
5/19/2022 4:45:00 PM 17.47 63.446 0.179 8.13 8.51 10.13
5/19/2022 5:00:00 PM 17.49 63.482 0.179 8.13 7.44 10.1
5/19/2022 5:15:00 PM 17.49 63.482 0.179 8.11 7.2 10.04
5/19/2022 5:30:00 PM 17.49 63.482 0.179 8.08 7.04 9.97
5/19/2022 5:45:00 PM 17.49 63.482 0.179 8.04 5.98 9.88
5/19/2022 6:00:00 PM 17.46 63.428 0.179 7.99 5.3 9.8
5/19/2022 6:15:00 PM 17.42 63.356 0.179 7.95 5.06 9.71
5/19/2022 6:30:00 PM 17.4 63.32 0.179 7.89 5.02 9.61
5/19/2022 6:45:00 PM 17.38 63.284 0.179 7.85 4.47 9.51
5/19/2022 7:00:00 PM 17.37 63.266 0.18 7.8 4.07 9.42
5/19/2022 7:15:00 PM 17.34 63.212 0.18 7.76 3.84 9.32
5/19/2022 7:30:00 PM 17.3 63.14 0.181 7.71 4.05 9.22
5/19/2022 7:45:00 PM 17.25 63.05 0.181 7.67 3.93 9.12
5/19/2022 8:00:00 PM 17.2 62.96 0.181 7.64 3.62 9.05
5/19/2022 8:15:00 PM 17.14 62.852 0.182 7.6 3.79 8.96
5/19/2022 8:30:00 PM 17.07 62.726 0.182 7.56 3.75 8.86
5/19/2022 8:45:00 PM 16.99 62.582 0.182 7.53 4.83 8.77
5/19/2022 9:00:00 PM 16.91 62.438 0.183 7.5 5.16 8.69
5/19/2022 9:15:00 PM 16.82 62.276 0.183 7.47 3.71 8.62
5/19/2022 9:30:00 PM 16.74 62.132 0.183 7.44 3.68 8.57
5/19/2022 9:45:00 PM 16.64 61.952 0.184 7.42 3.69 8.54
5/19/2022 10:00:00 PM 16.56 61.808 0.184 7.41 3.58 8.53
5/19/2022 10:15:00 PM 16.47 61.646 0.184 7.4 3.43 8.52
5/19/2022 10:30:00 PM 16.37 61.466 0.184 7.39 3.55 8.53
5/19/2022 10:45:00 PM 16.27 61.286 0.185 7.38 3.52 8.53
5/19/2022 11:00:00 PM 16.18 61.124 0.185 7.38 3.81 8.54
5/19/2022 11:15:00 PM 16.09 60.962 0.185 7.37 3.4 8.54
5/19/2022 11:30:00 PM 16 60.8 0.185 7.37 3.5 8.55
5/19/2022 11:45:00 PM 15.91 60.638 0.185 7.36 3.58 8.57
5/20/2022 12:00:00 AM 15.81 60.458 0.185 7.35 6.33 8.58
5/20/2022 12:15:00 AM 15.72 60.296 0.185 7.35 4.81 8.6
5/20/2022 12:30:00 AM 15.63 60.134 0.185 7.35 3.6 8.61
5/20/2022 12:45:00 AM 15.55 59.99 0.185 7.34 4.04 8.63
5/20/2022 1:00:00 AM 15.46 59.828 0.185 7.34 3.68 8.65
5/20/2022 1:15:00 AM 15.38 59.684 0.185 7.34 3.29 8.67
5/20/2022 1:30:00 AM 15.3 59.54 0.185 7.34 3.88 8.7
5/20/2022 1:45:00 AM 15.24 59.432 0.185 7.34 3.55 8.7
5/20/2022 2:00:00 AM 15.17 59.306 0.185 7.33 11.25 8.72
5/20/2022 2:15:00 AM 15.1 59.18 0.185 7.33 3.33 8.73
5/20/2022 2:30:00 AM 15.05 59.09 0.185 7.33 4.04 8.75
5/20/2022 2:45:00 AM 15.01 59.018 0.185 7.33 3.3 8.76
5/20/2022 3:00:00 AM 14.95 58.91 0.184 7.33 3.38 8.78
5/20/2022 3:15:00 AM 14.9 58.82 0.184 7.33 3.86 8.78
5/20/2022 3:30:00 AM 14.85 58.73 0.184 7.33 3.68 8.79
5/20/2022 3:45:00 AM 14.79 58.622 0.184 7.33 3.15 8.81
5/20/2022 4:00:00 AM 14.71 58.478 0.184 7.33 3.92 8.81
5/20/2022 4:15:00 AM 14.64 58.352 0.184 7.33 3.35 8.84
5/20/2022 4:30:00 AM 14.57 58.226 0.184 7.32 3.3 8.85
5/20/2022 4:45:00 AM 14.49 58.082 0.184 7.32 3.23 8.86
5/20/2022 5:00:00 AM 14.43 57.974 0.184 7.32 4 8.89
5/20/2022 5:15:00 AM 14.36 57.848 0.183 7.32 4.36 8.91
5/20/2022 5:30:00 AM 14.29 57.722 0.183 7.32 4.79 8.91
5/20/2022 5:45:00 AM 14.23 57.614 0.183 7.32 3.08 8.94
5/20/2022 6:00:00 AM 14.16 57.488 0.183 7.32 3.12 8.95
5/20/2022 6:15:00 AM 14.1 57.38 0.183 7.32 3.23 9.03
5/20/2022 6:30:00 AM 14.05 57.29 0.183 7.33 3.13 9.11
5/20/2022 6:45:00 AM 14.01 57.218 0.183 7.35 3.14 9.22
5/20/2022 7:00:00 AM 14 57.2 0.183 7.37 3.15 9.37
5/20/2022 7:15:00 AM 14 57.2 0.182 7.4 2.95 9.51
5/20/2022 7:30:00 AM 14 57.2 0.182 7.44 2.94 9.69
5/20/2022 7:45:00 AM 14.03 57.254 0.182 7.47 67.74 9.84
5/20/2022 8:00:00 AM 14.09 57.362 0.182 7.51 2.92 9.97
5/20/2022 8:15:00 AM 14.14 57.452 0.182 7.54 2.9 10.09
5/20/2022 8:30:00 AM 14.23 57.614 0.181 7.59 2.88 10.2
5/20/2022 8:45:00 AM 14.37 57.866 0.181 7.63 2.89 10.34
5/20/2022 9:00:00 AM 14.49 58.082 0.181 7.69 2.86 10.46
5/20/2022 9:15:00 AM 14.6 58.28 0.181 7.74 2.87 10.55
5/20/2022 9:30:00 AM 14.72 58.496 0.181 7.8 2.77 10.63
5/20/2022 9:45:00 AM 14.85 58.73 0.18 7.85 5.04 10.69
5/20/2022 10:00:00 AM 14.96 58.928 0.18 7.91 2.9 10.74
5/20/2022 10:15:00 AM 15.06 59.108 0.18 7.95 4.53 10.76
5/20/2022 10:30:00 AM 15.17 59.306 0.18 8 2.79 10.77
5/20/2022 10:45:00 AM 15.26 59.468 0.18 8.03 2.86 10.78
5/20/2022 11:00:00 AM 15.36 59.648 0.18 8.06 2.77 10.78
5/20/2022 11:15:00 AM 15.51 59.918 0.18 8.09 5.34 10.79
5/20/2022 11:30:00 AM 15.67 60.206 0.18 8.13 3.85 10.82
5/20/2022 11:45:00 AM 15.77 60.386 0.179 8.16 4.3 10.83
5/20/2022 12:00:00 PM 15.9 60.62 0.179 8.19 3.07 10.84
5/20/2022 12:15:00 PM 16.06 60.908 0.179 8.23 2.9 10.85
5/20/2022 12:30:00 PM 16.18 61.124 0.179 8.25 4.47 10.83
5/20/2022 12:45:00 PM 16.47 61.646 0.179 8.27 4.52 10.84
5/20/2022 1:00:00 PM 16.8 62.24 0.179 8.31 3.46 10.86
5/20/2022 1:15:00 PM 17.16 62.888 0.179 8.35 6.28 10.89
5/20/2022 1:30:00 PM 17.59 63.662 0.179 8.4 4.48 10.89
5/20/2022 1:45:00 PM 17.9 64.22 0.179 8.44 4.98 10.87
5/20/2022 2:00:00 PM 18.06 64.508 0.179 8.44 3.06 10.74
5/20/2022 2:15:00 PM 18.17 64.706 0.179 8.43 2.76 10.62
5/20/2022 2:30:00 PM 18.33 64.994 0.179 8.41 2.78 10.52
5/20/2022 2:45:00 PM 18.49 65.282 0.179 8.38 2.7 10.44
5/20/2022 3:00:00 PM 18.72 65.696 0.179 8.38 2.73 10.44
5/20/2022 3:15:00 PM 18.93 66.074 0.179 8.41 2.71 10.46
5/20/2022 3:30:00 PM 19.16 66.488 0.179 8.43 2.67 10.47
5/20/2022 3:45:00 PM 19.37 66.866 0.179 8.45 2.66 10.44
5/20/2022 4:00:00 PM 19.49 67.082 0.179 8.47 2.71 10.41
5/20/2022 4:15:00 PM 19.49 67.082 0.179 8.47 2.66 10.35
5/20/2022 4:30:00 PM 19.48 67.064 0.179 8.46 2.75 10.28
5/20/2022 4:45:00 PM 19.42 66.956 0.179 8.44 2.66 10.2
5/20/2022 5:00:00 PM 19.33 66.794 0.179 8.42 2.71 10.12
5/20/2022 5:15:00 PM 19.25 66.65 0.179 8.39 2.61 10.06
5/20/2022 5:30:00 PM 19.19 66.542 0.179 8.35 2.66 9.99
5/20/2022 5:45:00 PM 19.16 66.488 0.179 8.32 2.62 9.95
5/20/2022 6:00:00 PM 19.12 66.416 0.179 8.27 2.66 9.87
5/20/2022 6:15:00 PM 19.07 66.326 0.179 8.19 2.78 9.71
5/20/2022 6:30:00 PM 19.04 66.272 0.179 8.11 2.71 9.58
5/20/2022 6:45:00 PM 18.97 66.146 0.18 8.01 2.86 9.43
5/20/2022 7:00:00 PM 18.92 66.056 0.18 7.94 2.58 9.33
5/20/2022 7:15:00 PM 18.85 65.93 0.18 7.87 2.7 9.22
5/20/2022 7:30:00 PM 18.8 65.84 0.18 7.81 2.73 9.14
5/20/2022 7:45:00 PM 18.74 65.732 0.18 7.76 2.68 9.05
5/20/2022 8:00:00 PM 18.69 65.642 0.18 7.7 2.89 8.94
5/20/2022 8:15:00 PM 18.63 65.534 0.18 7.64 2.8 8.81
5/20/2022 8:30:00 PM 18.57 65.426 0.181 7.59 2.71 8.68
5/20/2022 8:45:00 PM 18.51 65.318 0.181 7.54 2.79 8.55
5/20/2022 9:00:00 PM 18.44 65.192 0.181 7.49 2.74 8.43
5/20/2022 9:15:00 PM 18.37 65.066 0.181 7.46 2.77 8.33
5/20/2022 9:30:00 PM 18.3 64.94 0.181 7.43 2.75 8.25
5/20/2022 9:45:00 PM 18.23 64.814 0.181 7.41 2.83 8.19
5/20/2022 10:00:00 PM 18.15 64.67 0.181 7.39 3.08 8.15
5/20/2022 10:15:00 PM 18.09 64.562 0.182 7.38 2.86 8.12
5/20/2022 10:30:00 PM 18.03 64.454 0.182 7.36 2.79 8.1
5/20/2022 10:45:00 PM 17.97 64.346 0.182 7.35 2.85 8.09
5/20/2022 11:00:00 PM 17.92 64.256 0.182 7.35 2.77 8.08
5/20/2022 11:15:00 PM 17.86 64.148 0.182 7.34 2.87 8.09
5/20/2022 11:30:00 PM 17.82 64.076 0.182 7.33 2.88 8.09
5/20/2022 11:45:00 PM 17.77 63.986 0.182 7.33 2.89 8.09
5/21/2022 12:00:00 AM 17.73 63.914 0.182 7.32 3.02 8.09
5/21/2022 12:15:00 AM 17.68 63.824 0.182 7.32 2.86 8.09
5/21/2022 12:30:00 AM 17.63 63.734 0.182 7.32 2.92 8.11
5/21/2022 12:45:00 AM 17.59 63.662 0.182 7.31 3 8.1
5/21/2022 1:00:00 AM 17.54 63.572 0.182 7.31 2.9 8.12
5/21/2022 1:15:00 AM 17.49 63.482 0.182 7.3 2.97 8.12
5/21/2022 1:30:00 AM 17.44 63.392 0.182 7.3 3.04 8.12
5/21/2022 1:45:00 AM 17.38 63.284 0.183 7.29 2.97 8.13
5/21/2022 2:00:00 AM 17.31 63.158 0.183 7.29 2.96 8.16
5/21/2022 2:15:00 AM 17.26 63.068 0.183 7.29 2.93 8.16
5/21/2022 2:30:00 AM 17.2 62.96 0.183 7.28 2.94 8.17
5/21/2022 2:45:00 AM 17.13 62.834 0.183 7.27 2.92 8.19
5/21/2022 3:00:00 AM 17.08 62.744 0.183 7.28 2.9 8.2
5/21/2022 3:15:00 AM 17.01 62.618 0.183 7.27 2.94 8.21
5/21/2022 3:30:00 AM 16.94 62.492 0.183 7.27 3.11 8.23
5/21/2022 3:45:00 AM 16.88 62.384 0.183 7.27 3.01 8.24
5/21/2022 4:00:00 AM 16.81 62.258 0.183 7.26 2.95 8.25
5/21/2022 4:15:00 AM 16.75 62.15 0.183 7.26 2.96 8.27
5/21/2022 4:30:00 AM 16.69 62.042 0.183 7.26 2.89 8.29
5/21/2022 4:45:00 AM 16.62 61.916 0.183 7.26 2.91 8.3
5/21/2022 5:00:00 AM 16.55 61.79 0.183 7.26 3.05 8.32
5/21/2022 5:15:00 AM 16.49 61.682 0.183 7.25 2.98 8.33
5/21/2022 5:30:00 AM 16.42 61.556 0.183 7.25 2.84 8.35
5/21/2022 5:45:00 AM 16.36 61.448 0.183 7.25 2.96 8.36
5/21/2022 6:00:00 AM 16.29 61.322 0.183 7.25 2.91 8.4
5/21/2022 6:15:00 AM 16.23 61.214 0.183 7.25 2.96 8.43
5/21/2022 6:30:00 AM 16.17 61.106 0.183 7.26 2.8 8.49
5/21/2022 6:45:00 AM 16.12 61.016 0.183 7.27 3.6 8.57
5/21/2022 7:00:00 AM 16.09 60.962 0.183 7.29 2.75 8.69
5/21/2022 7:15:00 AM 16.08 60.944 0.183 7.3 2.83 8.81
5/21/2022 7:30:00 AM 16.07 60.926 0.183 7.33 2.77 8.97
5/21/2022 7:45:00 AM 16.1 60.98 0.183 7.35 2.71 9.11
5/21/2022 8:00:00 AM 16.14 61.052 0.183 7.38 4.63 9.26
5/21/2022 8:15:00 AM 16.21 61.178 0.183 7.42 2.74 9.39
5/21/2022 8:30:00 AM 16.31 61.358 0.183 7.46 3.04 9.54
5/21/2022 8:45:00 AM 16.43 61.574 0.183 7.49 2.67 9.66
5/21/2022 9:00:00 AM 16.59 61.862 0.183 7.53 2.96 9.78
5/21/2022 9:15:00 AM 16.76 62.168 0.183 7.58 2.78 9.89
5/21/2022 9:30:00 AM 16.96 62.528 0.183 7.62 3.29 9.98
5/21/2022 9:45:00 AM 17.19 62.942 0.182 7.68 2.68 10.09
5/21/2022 10:00:00 AM 17.45 63.41 0.182 7.74 3.56 10.17
5/21/2022 10:15:00 AM 17.74 63.932 0.182 7.8 2.65 10.23
5/21/2022 10:30:00 AM 18.04 64.472 0.182 7.85 2.69 10.28
5/21/2022 10:45:00 AM 18.36 65.048 0.182 7.91 2.56 10.31
5/21/2022 11:00:00 AM 18.72 65.696 0.182 7.97 2.62 10.34
5/21/2022 11:15:00 AM 19.11 66.398 0.182 8.01 2.52 10.35
5/21/2022 11:30:00 AM 19.46 67.028 0.182 8.07 2.78 10.36
5/21/2022 11:45:00 AM 19.92 67.856 0.182 8.12 2.73 10.32
5/21/2022 12:00:00 PM 20.33 68.594 0.182 8.17 2.64 10.31
5/21/2022 12:15:00 PM 20.77 69.386 0.182 8.21 2.66 10.28
5/21/2022 12:30:00 PM 21.24 70.232 0.182 8.25 5.49 10.24
5/21/2022 12:45:00 PM 21.65 70.97 0.182 8.29 2.56 10.2
5/21/2022 1:00:00 PM 21.94 71.492 0.182 8.31 2.53 10.16
5/21/2022 1:15:00 PM 22.22 71.996 0.182 8.33 2.56 10.08
5/21/2022 1:30:00 PM 22.44 72.392 0.183 8.34 2.54 10.04
5/21/2022 1:45:00 PM 22.69 72.842 0.183 8.35 2.62 9.97
5/21/2022 2:00:00 PM 23.02 73.436 0.183 8.37 2.53 9.96
5/21/2022 2:15:00 PM 23.35 74.03 0.183 8.39 2.57 9.92
5/21/2022 2:30:00 PM 23.56 74.408 0.183 8.41 2.46 9.86
5/21/2022 2:45:00 PM 23.64 74.552 0.183 8.42 2.59 9.81
5/21/2022 3:00:00 PM 23.67 74.606 0.183 8.42 2.53 9.76
5/21/2022 3:15:00 PM 23.68 74.624 0.183 8.43 2.56 9.71
5/21/2022 3:30:00 PM 23.64 74.552 0.183 8.43 2.59 9.67
5/21/2022 3:45:00 PM 23.56 74.408 0.183 8.42 2.53 9.63
5/21/2022 4:00:00 PM 23.5 74.3 0.183 8.41 2.54 9.61
5/21/2022 4:15:00 PM 23.46 74.228 0.183 8.4 2.57 9.58
5/21/2022 4:30:00 PM 23.45 74.21 0.183 8.38 2.52 9.52
5/21/2022 4:45:00 PM 23.4 74.12 0.183 8.36 2.51 9.47
5/21/2022 5:00:00 PM 23.33 73.994 0.183 8.32 2.62 9.38
5/21/2022 5:15:00 PM 23.25 73.85 0.183 8.28 2.59 9.3
5/21/2022 5:30:00 PM 23.14 73.652 0.183 8.22 2.8 9.18
5/21/2022 5:45:00 PM 23.04 73.472 0.184 8.15 2.63 9.09
5/21/2022 6:00:00 PM 22.93 73.274 0.184 8.08 2.51 8.97
5/21/2022 6:15:00 PM 22.81 73.058 0.184 8 2.41 8.84
5/21/2022 6:30:00 PM 22.7 72.86 0.184 7.93 2.51 8.75
5/21/2022 6:45:00 PM 22.58 72.644 0.184 7.87 2.48 8.65
5/21/2022 7:00:00 PM 22.48 72.464 0.184 7.81 2.59 8.55
5/21/2022 7:15:00 PM 22.34 72.212 0.184 7.75 2.55 8.44
5/21/2022 7:30:00 PM 22.22 71.996 0.184 7.69 2.54 8.33
5/21/2022 7:45:00 PM 22.08 71.744 0.184 7.63 2.59 8.2
5/21/2022 8:00:00 PM 21.97 71.546 0.184 7.58 2.57 8.07
5/21/2022 8:15:00 PM 21.87 71.366 0.185 7.53 2.58 7.93
5/21/2022 8:30:00 PM 21.77 71.186 0.185 7.49 2.56 7.82
5/21/2022 8:45:00 PM 21.66 70.988 0.185 7.44 2.81 7.68
5/21/2022 9:00:00 PM 21.56 70.808 0.185 7.41 2.57 7.58
5/21/2022 9:15:00 PM 21.46 70.628 0.185 7.38 2.68 7.49
5/21/2022 9:30:00 PM 21.37 70.466 0.185 7.35 2.73 7.42
5/21/2022 9:45:00 PM 21.26 70.268 0.185 7.33 2.68 7.38
5/21/2022 10:00:00 PM 21.18 70.124 0.185 7.32 2.86 7.33
5/21/2022 10:15:00 PM 21.08 69.944 0.185 7.3 2.82 7.32
5/21/2022 10:30:00 PM 21 69.8 0.185 7.29 2.96 7.31
5/21/2022 10:45:00 PM 20.92 69.656 0.185 7.28 2.88 7.3
5/21/2022 11:00:00 PM 20.85 69.53 0.185 7.27 2.82 7.3
5/21/2022 11:15:00 PM 20.77 69.386 0.185 7.27 2.96 7.32
5/21/2022 11:30:00 PM 20.69 69.242 0.185 7.27 2.89 7.33
5/21/2022 11:45:00 PM 20.63 69.134 0.186 7.27 2.96 7.32
5/22/2022 12:00:00 AM 20.56 69.008 0.186 7.26 2.96 7.34
5/22/2022 12:15:00 AM 20.48 68.864 0.186 7.27 2.95 7.35
5/22/2022 12:30:00 AM 20.41 68.738 0.186 7.27 3.05 7.36
5/22/2022 12:45:00 AM 20.34 68.612 0.186 7.26 3.21 7.37
5/22/2022 1:00:00 AM 20.26 68.468 0.186 7.27 2.95 7.38
5/22/2022 1:15:00 AM 20.18 68.324 0.186 7.26 3.03 7.4
5/22/2022 1:30:00 AM 20.1 68.18 0.186 7.26 2.96 7.41
5/22/2022 1:45:00 AM 20.01 68.018 0.186 7.26 3 7.42
5/22/2022 2:00:00 AM 19.92 67.856 0.186 7.26 2.99 7.45
5/22/2022 2:15:00 AM 19.83 67.694 0.186 7.26 3.26 7.47
5/22/2022 2:30:00 AM 19.75 67.55 0.186 7.26 3.01 7.48
5/22/2022 2:45:00 AM 19.66 67.388 0.186 7.26 2.98 7.5
5/22/2022 3:00:00 AM 19.59 67.262 0.186 7.25 3.32 7.5
5/22/2022 3:15:00 AM 19.5 67.1 0.186 7.25 3.05 7.54
5/22/2022 3:30:00 AM 19.43 66.974 0.187 7.25 3.09 7.54
5/22/2022 3:45:00 AM 19.35 66.83 0.187 7.26 3.01 7.57
5/22/2022 4:00:00 AM 19.28 66.704 0.187 7.26 3.07 7.58
5/22/2022 4:15:00 AM 19.2 66.56 0.187 7.26 3.06 7.6
5/22/2022 4:30:00 AM 19.14 66.452 0.187 7.26 3.03 7.61
5/22/2022 4:45:00 AM 19.07 66.326 0.187 7.25 3.13 7.61
5/22/2022 5:00:00 AM 19 66.2 0.187 7.26 3.22 7.63
5/22/2022 5:15:00 AM 18.92 66.056 0.187 7.26 3.16 7.66
5/22/2022 5:30:00 AM 18.83 65.894 0.187 7.26 3 7.68
5/22/2022 5:45:00 AM 18.75 65.75 0.187 7.26 2.98 7.71
5/22/2022 6:00:00 AM 18.67 65.606 0.187 7.27 2.94 7.73
5/22/2022 6:15:00 AM 18.6 65.48 0.187 7.27 3.23 7.76
5/22/2022 6:30:00 AM 18.53 65.354 0.187 7.28 2.95 7.84
5/22/2022 6:45:00 AM 18.48 65.264 0.188 7.28 2.91 7.91
5/22/2022 7:00:00 AM 18.44 65.192 0.188 7.3 2.83 8.03
5/22/2022 7:15:00 AM 18.41 65.138 0.188 7.31 2.69 8.15
5/22/2022 7:30:00 AM 18.38 65.084 0.188 7.34 2.74 8.26
5/22/2022 7:45:00 AM 18.39 65.102 0.188 7.36 2.91 8.39
5/22/2022 8:00:00 AM 18.4 65.12 0.188 7.38 2.83 8.53
5/22/2022 8:15:00 AM 18.41 65.138 0.188 7.4 2.75 8.64
5/22/2022 8:30:00 AM 18.44 65.192 0.188 7.43 2.87 8.75
5/22/2022 8:45:00 AM 18.5 65.3 0.188 7.46 2.96 8.88
5/22/2022 9:00:00 AM 18.58 65.444 0.187 7.5 2.81 9
5/22/2022 9:15:00 AM 18.69 65.642 0.187 7.53 2.79 9.1
5/22/2022 9:30:00 AM 18.81 65.858 0.187 7.56 2.82 9.21
5/22/2022 9:45:00 AM 18.88 65.984 0.187 7.59 2.73 9.29
5/22/2022 10:00:00 AM 18.96 66.128 0.187 7.62 2.93 9.36
5/22/2022 10:15:00 AM 19.05 66.29 0.187 7.65 2.82 9.41
5/22/2022 10:30:00 AM 19.13 66.434 0.188 7.68 2.64 9.45
5/22/2022 10:45:00 AM 19.26 66.668 0.188 7.7 2.8 9.5
5/22/2022 11:00:00 AM 19.46 67.028 0.188 7.73 2.84 9.54
5/22/2022 11:15:00 AM 19.64 67.352 0.188 7.76 2.69 9.59
5/22/2022 11:30:00 AM 19.85 67.73 0.188 7.79 2.77 9.64
5/22/2022 11:45:00 AM 20.13 68.234 0.188 7.83 2.71 9.69
5/22/2022 12:00:00 PM 20.46 68.828 0.188 7.89 2.81 9.75
5/22/2022 12:15:00 PM 20.78 69.404 0.188 7.92 2.66 9.77
5/22/2022 12:30:00 PM 21.04 69.872 0.188 7.96 2.74 9.78
5/22/2022 12:45:00 PM 21.3 70.34 0.188 7.99 2.65 9.77
5/22/2022 1:00:00 PM 21.6 70.88 0.188 8.04 2.68 9.76
5/22/2022 1:15:00 PM 21.96 71.528 0.188 8.06 2.6 9.72
5/22/2022 1:30:00 PM 22.16 71.888 0.188 8.08 2.52 9.7
5/22/2022 1:45:00 PM 22.43 72.374 0.188 8.1 2.87 9.66
5/22/2022 2:00:00 PM 22.68 72.824 0.188 8.11 2.54 9.63
5/22/2022 2:15:00 PM 22.81 73.058 0.188 8.11 2.6 9.58
5/22/2022 2:30:00 PM 22.99 73.382 0.188 8.11 2.61 9.51
5/22/2022 2:45:00 PM 23.03 73.454 0.188 8.09 2.79 9.39
5/22/2022 3:00:00 PM 23.07 73.526 0.188 8.07 3 9.31
5/22/2022 3:15:00 PM 23.04 73.472 0.187 8.02 3.03 9.19
5/22/2022 3:30:00 PM 23.11 73.598 0.187 7.99 3.05 9.1
5/22/2022 3:45:00 PM 23.15 73.67 0.186 7.97 3.01 9.05
5/22/2022 4:00:00 PM 23.15 73.67 0.186 7.94 3.07 9.04
5/22/2022 4:15:00 PM 23.14 73.652 0.186 7.93 3.14 9.03
5/22/2022 4:30:00 PM 23.11 73.598 0.187 7.91 3.15 8.98
5/22/2022 4:45:00 PM 22.99 73.382 0.187 7.88 3.55 8.91
5/22/2022 5:00:00 PM 22.86 73.148 0.187 7.86 3.05 8.8
5/22/2022 5:15:00 PM 22.66 72.788 0.187 7.82 3.28 8.72
5/22/2022 5:30:00 PM 22.48 72.464 0.187 7.77 2.91 8.62
5/22/2022 5:45:00 PM 22.27 72.086 0.187 7.74 3.28 8.52
5/22/2022 6:00:00 PM 22.07 71.726 0.187 7.69 3.01 8.42
5/22/2022 6:15:00 PM 21.94 71.492 0.187 7.66 3.2 8.38
5/22/2022 6:30:00 PM 21.81 71.258 0.187 7.64 3.16 8.34
5/22/2022 6:45:00 PM 21.69 71.042 0.187 7.62 3.21 8.32
5/22/2022 7:00:00 PM 21.56 70.808 0.187 7.61 3.05 8.32
5/22/2022 7:15:00 PM 21.41 70.538 0.186 7.59 3.29 8.31
5/22/2022 7:30:00 PM 21.25 70.25 0.186 7.57 3.15 8.27
5/22/2022 7:45:00 PM 21.09 69.962 0.186 7.55 3.23 8.2
5/22/2022 8:00:00 PM 20.96 69.728 0.187 7.52 3.13 8.11
5/22/2022 8:15:00 PM 20.78 69.404 0.187 7.49 3.47 8.02
5/22/2022 8:30:00 PM 20.62 69.116 0.187 7.46 3.2 7.91
5/22/2022 8:45:00 PM 20.47 68.846 0.187 7.43 3.11 7.82
5/22/2022 9:00:00 PM 20.31 68.558 0.187 7.41 3.22 7.75
5/22/2022 9:15:00 PM 20.16 68.288 0.187 7.39 3.19 7.69
5/22/2022 9:30:00 PM 19.98 67.964 0.187 7.37 3.21 7.65
5/22/2022 9:45:00 PM 19.83 67.694 0.188 7.34 3.18 7.61
5/22/2022 10:00:00 PM 19.67 67.406 0.188 7.33 3.58 7.6
5/22/2022 10:15:00 PM 19.52 67.136 0.188 7.32 3.16 7.6
5/22/2022 10:30:00 PM 19.36 66.848 0.188 7.32 3.27 7.61
5/22/2022 10:45:00 PM 19.22 66.596 0.188 7.31 3.1 7.63
5/22/2022 11:00:00 PM 19.07 66.326 0.188 7.31 3.25 7.65
5/22/2022 11:15:00 PM 18.93 66.074 0.188 7.3 3.33 7.68
5/22/2022 11:30:00 PM 18.79 65.82201 0.188 7.3 3.3 7.7
5/22/2022 11:45:00 PM 18.66 65.588 0.188 7.3 3.17 7.72
5/23/2022 12:00:00 AM 18.52 65.336 0.188 7.3 3.21 7.76
5/23/2022 12:15:00 AM 18.4 65.12 0.188 7.29 3.26 7.79
5/23/2022 12:30:00 AM 18.26 64.868 0.188 7.3 3.2 7.82
5/23/2022 12:45:00 AM 18.14 64.652 0.188 7.3 3.18 7.85
5/23/2022 1:00:00 AM 18.01 64.418 0.188 7.3 3.24 7.88
5/23/2022 1:15:00 AM 17.89 64.202 0.188 7.29 3.37 7.89
5/23/2022 1:30:00 AM 17.78 64.004 0.188 7.29 3.38 7.9
5/23/2022 1:45:00 AM 17.67 63.806 0.188 7.29 3.38 7.94
5/23/2022 2:00:00 AM 17.53 63.554 0.188 7.29 3.42 7.99
5/23/2022 2:15:00 AM 17.43 63.374 0.188 7.29 3.47 8
5/23/2022 2:30:00 AM 17.31 63.158 0.188 7.29 3.36 8.03
5/23/2022 2:45:00 AM 17.2 62.96 0.188 7.29 3.46 8.06
5/23/2022 3:00:00 AM 17.08 62.744 0.188 7.3 3.36 8.09
5/23/2022 3:15:00 AM 16.98 62.564 0.188 7.3 3.53 8.12
5/23/2022 3:30:00 AM 16.87 62.366 0.188 7.29 3.57 8.14
5/23/2022 3:45:00 AM 16.77 62.186 0.188 7.29 3.31 8.16
5/23/2022 4:00:00 AM 16.65 61.97 0.188 7.3 3.23 8.2
5/23/2022 4:15:00 AM 16.57 61.826 0.188 7.3 3.13 8.22
5/23/2022 4:30:00 AM 16.48 61.664 0.188 7.3 3.11 8.25
5/23/2022 4:45:00 AM 16.41 61.538 0.188 7.3 3.1 8.27
5/23/2022 5:00:00 AM 16.33 61.394 0.188 7.3 3.44 8.29
5/23/2022 5:15:00 AM 16.26 61.268 0.188 7.3 3.14 8.33
5/23/2022 5:30:00 AM 16.2 61.16 0.188 7.3 3.01 8.34
5/23/2022 5:45:00 AM 16.13 61.034 0.188 7.3 3 8.35
5/23/2022 6:00:00 AM 16.06 60.908 0.188 7.3 3.03 8.41
5/23/2022 6:15:00 AM 15.99 60.782 0.188 7.31 3.01 8.44
5/23/2022 6:30:00 AM 15.93 60.674 0.188 7.31 3.01 8.5
5/23/2022 6:45:00 AM 15.85 60.53 0.188 7.32 3.15 8.56
5/23/2022 7:00:00 AM 15.79 60.422 0.188 7.34 5.83 8.64
5/23/2022 7:15:00 AM 15.75 60.35 0.188 7.36 2.99 8.74
5/23/2022 7:30:00 AM 15.74 60.332 0.188 7.36 2.88 8.85
5/23/2022 7:45:00 AM 15.73 60.314 0.188 7.38 2.7 8.97
5/23/2022 8:00:00 AM 15.75 60.35 0.188 7.41 2.67 9.1
5/23/2022 8:15:00 AM 15.79 60.422 0.188 7.44 3.28 9.22
5/23/2022 8:30:00 AM 15.82 60.476 0.188 7.46 2.69 9.32
5/23/2022 8:45:00 AM 15.92 60.656 0.188 7.49 2.88 9.42
5/23/2022 9:00:00 AM 16 60.8 0.188 7.51 2.79 9.52
5/23/2022 9:15:00 AM 16.09 60.962 0.188 7.54 2.61 9.58
5/23/2022 9:30:00 AM 16.19 61.142 0.188 7.56 2.7 9.65
5/23/2022 9:45:00 AM 16.32 61.376 0.188 7.58 2.78 9.71
5/23/2022 10:00:00 AM 16.46 61.628 0.188 7.61 2.81 9.77
5/23/2022 10:15:00 AM 16.61 61.898 0.188 7.63 2.74 9.83
5/23/2022 10:30:00 AM 16.82 62.276 0.188 7.66 2.72 9.88
5/23/2022 10:45:00 AM 17.03 62.654 0.188 7.69 2.75 9.94
5/23/2022 11:00:00 AM 17.27 63.086 0.188 7.71 2.69 9.98
5/23/2022 11:15:00 AM 17.56 63.608 0.189 7.73 2.71 9.99
5/23/2022 11:30:00 AM 17.87 64.166 0.189 7.76 3.01 10.01
5/23/2022 11:45:00 AM 18.12 64.616 0.189 7.77 3.03 10.01
5/23/2022 12:00:00 PM 18.47 65.246 0.189 7.8 2.68 10.01
5/23/2022 12:15:00 PM 18.77 65.786 0.189 7.82 2.63 10.01
5/23/2022 12:30:00 PM 19.1 66.38 0.189 7.85 2.57 9.99
5/23/2022 12:45:00 PM 19.35 66.83 0.189 7.88 2.52 9.97
5/23/2022 1:00:00 PM 19.61 67.298 0.189 7.9 2.55 9.96
5/23/2022 1:15:00 PM 19.84 67.712 0.189 7.92 2.64 9.94
5/23/2022 1:30:00 PM 20.07 68.126 0.19 7.95 2.74 9.92
5/23/2022 1:45:00 PM 20.23 68.414 0.19 7.96 2.63 9.9
5/23/2022 2:00:00 PM 20.39 68.702 0.19 7.98 2.58 9.89
5/23/2022 2:15:00 PM 20.48 68.864 0.19 7.99 2.62 9.85
5/23/2022 2:30:00 PM 20.59 69.062 0.19 8 2.6 9.81
5/23/2022 2:45:00 PM 20.62 69.116 0.19 8 2.65 9.79
5/23/2022 3:00:00 PM 20.61 69.098 0.19 8.01 2.55 9.77
5/23/2022 3:15:00 PM 20.57 69.026 0.19 8.01 2.7 9.75
5/23/2022 3:30:00 PM 20.54 68.972 0.19 8.02 2.56 9.74
5/23/2022 3:45:00 PM 20.45 68.81 0.19 8.02 2.62 9.72
5/23/2022 4:00:00 PM 20.37 68.666 0.191 8.02 2.62 9.7
5/23/2022 4:15:00 PM 20.24 68.432 0.191 8.02 2.52 9.68
5/23/2022 4:30:00 PM 20.14 68.252 0.191 8.01 2.67 9.67
5/23/2022 4:45:00 PM 20.01 68.018 0.191 8 2.56 9.64
5/23/2022 5:00:00 PM 19.92 67.856 0.191 8 2.5 9.62
5/23/2022 5:15:00 PM 19.8 67.64 0.191 7.97 2.44 9.58
5/23/2022 5:30:00 PM 19.68 67.424 0.191 7.96 2.47 9.55
5/23/2022 5:45:00 PM 19.59 67.262 0.191 7.94 2.53 9.52
5/23/2022 6:00:00 PM 19.47 67.046 0.191 7.92 2.57 9.47
5/23/2022 6:15:00 PM 19.37 66.866 0.191 7.9 2.49 9.44
5/23/2022 6:30:00 PM 19.27 66.686 0.191 7.86 2.62 9.37
5/23/2022 6:45:00 PM 19.18 66.524 0.191 7.83 2.61 9.31
5/23/2022 7:00:00 PM 19.09 66.362 0.191 7.8 2.51 9.23
5/23/2022 7:15:00 PM 18.98 66.164 0.191 7.76 2.6 9.14
5/23/2022 7:30:00 PM 18.88 65.984 0.191 7.72 2.68 9.04
5/23/2022 7:45:00 PM 18.77 65.786 0.192 7.68 2.6 8.93
5/23/2022 8:00:00 PM 18.65 65.57 0.192 7.63 2.45 8.8
5/23/2022 8:15:00 PM 18.55 65.39 0.192 7.59 2.51 8.69
5/23/2022 8:30:00 PM 18.43 65.174 0.192 7.55 2.63 8.58
5/23/2022 8:45:00 PM 18.32 64.976 0.192 7.51 2.64 8.48
5/23/2022 9:00:00 PM 18.19 64.742 0.192 7.48 3.06 8.39
5/23/2022 9:15:00 PM 18.07 64.526 0.192 7.45 2.75 8.31
5/23/2022 9:30:00 PM 17.97 64.346 0.193 7.43 2.75 8.25
5/23/2022 9:45:00 PM 17.85 64.13 0.193 7.41 2.95 8.21
5/23/2022 10:00:00 PM 17.73 63.914 0.192 7.39 2.84 8.17
5/23/2022 10:15:00 PM 17.62 63.716 0.192 7.38 2.9 8.16
5/23/2022 10:30:00 PM 17.51 63.518 0.192 7.37 2.98 8.14
5/23/2022 10:45:00 PM 17.4 63.32 0.193 7.36 3.14 8.15
5/23/2022 11:00:00 PM 17.3 63.14 0.193 7.35 2.94 8.16
5/23/2022 11:15:00 PM 17.2 62.96 0.193 7.34 2.9 8.16
5/23/2022 11:30:00 PM 17.1 62.78 0.192 7.34 2.87 8.18
5/23/2022 11:45:00 PM 17 62.6 0.192 7.34 2.83 8.2
5/24/2022 12:00:00 AM 16.9 62.42 0.193 7.33 4.1 8.21
5/24/2022 12:15:00 AM 16.81 62.258 0.193 7.33 3.02 8.24
5/24/2022 12:30:00 AM 16.71 62.078 0.193 7.33 2.91 8.25
5/24/2022 12:45:00 AM 16.63 61.934 0.193 7.32 2.86 8.26
5/24/2022 1:00:00 AM 16.53 61.754 0.193 7.32 3.01 8.28
5/24/2022 1:15:00 AM 16.43 61.574 0.193 7.32 2.93 8.31
5/24/2022 1:30:00 AM 16.33 61.394 0.193 7.32 2.85 8.33
5/24/2022 1:45:00 AM 16.24 61.232 0.193 7.32 2.93 8.35
5/24/2022 2:00:00 AM 16.14 61.052 0.193 7.32 3.03 8.38
5/24/2022 2:15:00 AM 16.05 60.89 0.193 7.32 2.92 8.4
5/24/2022 2:30:00 AM 15.96 60.728 0.193 7.31 2.92 8.41
5/24/2022 2:45:00 AM 15.86 60.548 0.193 7.31 2.89 8.45
5/24/2022 3:00:00 AM 15.77 60.386 0.193 7.32 3.04 8.46
5/24/2022 3:15:00 AM 15.67 60.206 0.193 7.31 2.93 8.49
5/24/2022 3:30:00 AM 15.59 60.062 0.193 7.32 2.84 8.52
5/24/2022 3:45:00 AM 15.49 59.882 0.193 7.32 2.96 8.53
5/24/2022 4:00:00 AM 15.41 59.738 0.193 7.31 2.93 8.55
5/24/2022 4:15:00 AM 15.31 59.558 0.193 7.32 2.96 8.59
5/24/2022 4:30:00 AM 15.23 59.414 0.193 7.32 2.87 8.61
5/24/2022 4:45:00 AM 15.13 59.234 0.193 7.32 2.92 8.63
5/24/2022 5:00:00 AM 15.05 59.09 0.193 7.31 2.97 8.64
5/24/2022 5:15:00 AM 14.95 58.91 0.193 7.32 2.97 8.67
5/24/2022 5:30:00 AM 14.87 58.766 0.193 7.32 3 8.68
5/24/2022 5:45:00 AM 14.78 58.604 0.193 7.32 2.99 8.72
5/24/2022 6:00:00 AM 14.69 58.442 0.193 7.32 3.28 8.74
5/24/2022 6:15:00 AM 14.6 58.28 0.193 7.33 2.76 8.79
5/24/2022 6:30:00 AM 14.53 58.154 0.193 7.33 3.02 8.85
5/24/2022 6:45:00 AM 14.47 58.046 0.193 7.34 3.1 8.92
5/24/2022 7:00:00 AM 14.41 57.938 0.193 7.34 2.98 8.99
5/24/2022 7:15:00 AM 14.36 57.848 0.193 7.36 3.33 9.07
5/24/2022 7:30:00 AM 14.33 57.794 0.193 7.36 2.84 9.16
5/24/2022 7:45:00 AM 14.33 57.794 0.193 7.39 3.2 9.28
5/24/2022 8:00:00 AM 14.36 57.848 0.192 7.41 2.77 9.41
5/24/2022 8:15:00 AM 14.42 57.956 0.192 7.43 2.68 9.5
5/24/2022 8:30:00 AM 14.48 58.064 0.192 7.45 2.82 9.62
5/24/2022 8:45:00 AM 14.56 58.208 0.192 7.47 2.83 9.74
5/24/2022 9:00:00 AM 14.66 58.388 0.192 7.5 2.78 9.85
5/24/2022 9:15:00 AM 14.76 58.568 0.192 7.53 2.91 9.92
5/24/2022 9:30:00 AM 14.9 58.82 0.192 7.56 2.94 10.02
5/24/2022 9:45:00 AM 15.13 59.234 0.192 7.59 2.8 10.08
5/24/2022 10:00:00 AM 15.38 59.684 0.191 7.61 2.73 10.14
5/24/2022 10:15:00 AM 15.65 60.17 0.192 7.63 2.45 10.18
5/24/2022 10:30:00 AM 15.94 60.692 0.191 7.66 2.95 10.21
5/24/2022 10:45:00 AM 16.18 61.124 0.191 7.69 2.7 10.23
5/24/2022 11:00:00 AM 16.43 61.574 0.191 7.71 2.57 10.25
5/24/2022 11:15:00 AM 16.6 61.88 0.191 7.73 3.13 10.26
5/24/2022 11:30:00 AM 16.76 62.168 0.191 7.75 2.98 10.25
5/24/2022 11:45:00 AM 16.89 62.402 0.191 7.78 2.91 10.26
5/24/2022 12:00:00 PM 17.08 62.744 0.191 7.8 2.89 10.26
5/24/2022 12:15:00 PM 17.24 63.032 0.192 7.83 2.71 10.26
5/24/2022 12:30:00 PM 17.46 63.428 0.192 7.85 2.71 10.25
5/24/2022 12:45:00 PM 17.75 63.95 0.192 7.87 2.6 10.26
5/24/2022 1:00:00 PM 17.99 64.382 0.192 7.89 2.61 10.25
5/24/2022 1:15:00 PM 18.26 64.868 0.192 7.91 2.46 10.25
5/24/2022 1:30:00 PM 18.54 65.372 0.192 7.92 2.57 10.22
5/24/2022 1:45:00 PM 18.82 65.876 0.192 7.95 2.44 10.22
5/24/2022 2:00:00 PM 19.05 66.29 0.192 7.96 2.67 10.19
5/24/2022 2:15:00 PM 19.26 66.668 0.192 7.98 2.5 10.15
5/24/2022 2:30:00 PM 19.43 66.974 0.192 7.98 2.62 10.08
5/24/2022 2:45:00 PM 19.56 67.208 0.192 8 2.63 10.04
5/24/2022 3:00:00 PM 19.61 67.298 0.192 8 3.03 10
5/24/2022 3:15:00 PM 19.61 67.298 0.193 8.01 2.45 9.97
5/24/2022 3:30:00 PM 19.62 67.316 0.193 8 2.58 9.92
5/24/2022 3:45:00 PM 19.58 67.244 0.193 8 2.41 9.89
5/24/2022 4:00:00 PM 19.65 67.37 0.193 8 2.94 9.85
5/24/2022 4:15:00 PM 19.64 67.352 0.193 8 2.5 9.82
5/24/2022 4:30:00 PM 19.56 67.208 0.193 7.99 2.54 9.8
5/24/2022 4:45:00 PM 19.47 67.046 0.193 7.98 3.24 9.75
5/24/2022 5:00:00 PM 19.38 66.884 0.193 7.95 2.54 9.7
5/24/2022 5:15:00 PM 19.29 66.722 0.193 7.93 2.76 9.61
5/24/2022 5:30:00 PM 19.19 66.542 0.194 7.9 2.82 9.55
5/24/2022 5:45:00 PM 19.1 66.38 0.194 7.87 2.64 9.48
5/24/2022 6:00:00 PM 19 66.2 0.194 7.84 2.69 9.42
5/24/2022 6:15:00 PM 18.93 66.074 0.194 7.81 2.82 9.37
5/24/2022 6:30:00 PM 18.87 65.966 0.194 7.79 2.72 9.33
5/24/2022 6:45:00 PM 18.78 65.804 0.194 7.77 2.7 9.27
5/24/2022 7:00:00 PM 18.72 65.696 0.194 7.73 2.47 9.21
5/24/2022 7:15:00 PM 18.65 65.57 0.194 7.71 2.89 9.14
5/24/2022 7:30:00 PM 18.58 65.444 0.195 7.68 2.8 9.06
5/24/2022 7:45:00 PM 18.52 65.336 0.195 7.64 2.58 8.96
5/24/2022 8:00:00 PM 18.44 65.192 0.195 7.61 3 8.86
5/24/2022 8:15:00 PM 18.34 65.012 0.195 7.57 2.85 8.74
5/24/2022 8:30:00 PM 18.26 64.868 0.195 7.54 3.7 8.65
5/24/2022 8:45:00 PM 18.18 64.724 0.195 7.51 3.13 8.56
5/24/2022 9:00:00 PM 18.08 64.544 0.196 7.48 3.19 8.47
5/24/2022 9:15:00 PM 17.98 64.364 0.196 7.45 2.99 8.39
5/24/2022 9:30:00 PM 17.9 64.22 0.196 7.43 2.83 8.33
5/24/2022 9:45:00 PM 17.8 64.04 0.196 7.41 2.66 8.27
5/24/2022 10:00:00 PM 17.72 63.896 0.196 7.39 2.61 8.22
5/24/2022 10:15:00 PM 17.62 63.716 0.196 7.38 2.88 8.19
5/24/2022 10:30:00 PM 17.55 63.59 0.196 7.36 3 8.17
5/24/2022 10:45:00 PM 17.47 63.446 0.196 7.35 2.89 8.15
5/24/2022 11:00:00 PM 17.4 63.32 0.196 7.34 2.8 8.14
5/24/2022 11:15:00 PM 17.32 63.176 0.196 7.34 2.84 8.15
5/24/2022 11:30:00 PM 17.25 63.05 0.196 7.32 2.89 8.17
5/24/2022 11:45:00 PM 17.19 62.942 0.196 7.32 2.71 8.16
5/25/2022 12:00:00 AM 17.12 62.816 0.196 7.32 2.66 8.19
5/25/2022 12:15:00 AM 17.07 62.726 0.196 7.31 2.82 8.18
5/25/2022 12:30:00 AM 17.02 62.636 0.196 7.31 2.89 8.19
5/25/2022 12:45:00 AM 16.96 62.528 0.196 7.31 2.73 8.19
5/25/2022 1:00:00 AM 16.91 62.438 0.196 7.3 2.85 8.21
5/25/2022 1:15:00 AM 16.86 62.348 0.196 7.3 2.94 8.23
5/25/2022 1:30:00 AM 16.81 62.258 0.196 7.3 2.87 8.23
5/25/2022 1:45:00 AM 16.77 62.186 0.196 7.3 2.92 8.23
5/25/2022 2:00:00 AM 16.71 62.078 0.196 7.3 2.89 8.25
5/25/2022 2:15:00 AM 16.68 62.024 0.196 7.29 3.03 8.26
5/25/2022 2:30:00 AM 16.63 61.934 0.196 7.3 2.92 8.28
5/25/2022 2:45:00 AM 16.6 61.88 0.196 7.29 2.88 8.27
5/25/2022 3:00:00 AM 16.55 61.79 0.196 7.28 2.91 8.28
5/25/2022 3:15:00 AM 16.52 61.736 0.196 7.29 4.54 8.3
5/25/2022 3:30:00 AM 16.48 61.664 0.196 7.29 2.77 8.3
5/25/2022 3:45:00 AM 16.45 61.61 0.196 7.28 2.91 8.32
5/25/2022 4:00:00 AM 16.41 61.538 0.196 7.29 3.05 8.33
5/25/2022 4:15:00 AM 16.38 61.484 0.196 7.29 2.9 8.33
5/25/2022 4:30:00 AM 16.34 61.412 0.196 7.29 3 8.35
5/25/2022 4:45:00 AM 16.31 61.358 0.196 7.29 2.96 8.35
5/25/2022 5:00:00 AM 16.28 61.304 0.196 7.28 2.81 8.37
5/25/2022 5:15:00 AM 16.25 61.25 0.196 7.28 2.83 8.36
5/25/2022 5:30:00 AM 16.22 61.196 0.196 7.28 2.79 8.38
5/25/2022 5:45:00 AM 16.19 61.142 0.196 7.28 2.97 8.39
5/25/2022 6:00:00 AM 16.16 61.088 0.196 7.29 2.85 8.4
5/25/2022 6:15:00 AM 16.14 61.052 0.196 7.29 3.58 8.41
5/25/2022 6:30:00 AM 16.13 61.034 0.196 7.28 3.55 8.44
5/25/2022 6:45:00 AM 16.11 60.998 0.196 7.29 4.07 8.48
5/25/2022 7:00:00 AM 16.11 60.998 0.196 7.3 3.76 8.55
5/25/2022 7:15:00 AM 16.1 60.98 0.196 7.31 3.69 8.61
5/25/2022 7:30:00 AM 16.1 60.98 0.196 7.32 4.83 8.68
5/25/2022 7:45:00 AM 16.12 61.016 0.196 7.33 3.23 8.77
5/25/2022 8:00:00 AM 16.13 61.034 0.196 7.35 3.38 8.85
5/25/2022 8:15:00 AM 16.16 61.088 0.196 7.37 2.66 8.95
5/25/2022 8:30:00 AM 16.2 61.16 0.196 7.39 2.69 9.05
5/25/2022 8:45:00 AM 16.24 61.232 0.196 7.42 3.49 9.19
5/25/2022 9:00:00 AM 16.29 61.322 0.196 7.44 2.71 9.29
5/25/2022 9:15:00 AM 16.36 61.448 0.195 7.46 2.63 9.39
5/25/2022 9:30:00 AM 16.44 61.592 0.195 7.49 2.6 9.49
5/25/2022 9:45:00 AM 16.54 61.772 0.195 7.51 2.52 9.58
5/25/2022 10:00:00 AM 16.66 61.988 0.195 7.54 2.57 9.67
5/25/2022 10:15:00 AM 16.79 62.222 0.195 7.57 2.59 9.77
5/25/2022 10:30:00 AM 16.94 62.492 0.195 7.61 2.5 9.86
5/25/2022 10:45:00 AM 17.09 62.762 0.195 7.63 2.52 9.93
5/25/2022 11:00:00 AM 17.26 63.068 0.195 7.67 2.56 10
5/25/2022 11:15:00 AM 17.47 63.446 0.195 7.71 2.52 10.06
5/25/2022 11:30:00 AM 17.69 63.842 0.195 7.74 2.57 10.12
5/25/2022 11:45:00 AM 17.9 64.22 0.195 7.79 2.5 10.15
5/25/2022 12:00:00 PM 18.08 64.544 0.195 7.82 2.61 10.18
5/25/2022 12:15:00 PM 18.27 64.886 0.195 7.85 2.48 10.2
5/25/2022 12:30:00 PM 18.48 65.264 0.195 7.88 2.51 10.21
5/25/2022 12:45:00 PM 18.68 65.624 0.195 7.91 2.47 10.22
5/25/2022 1:00:00 PM 18.91 66.038 0.195 7.94 2.52 10.22
5/25/2022 1:15:00 PM 19.19 66.542 0.195 7.96 2.52 10.21
5/25/2022 1:30:00 PM 19.4 66.92 0.195 7.98 2.58 10.19
5/25/2022 1:45:00 PM 19.65 67.37 0.195 8.01 2.54 10.18
5/25/2022 2:00:00 PM 19.98 67.964 0.195 8.02 2.6 10.17
5/25/2022 2:15:00 PM 20.21 68.378 0.195 8.03 2.54 10.12
5/25/2022 2:30:00 PM 20.5 68.9 0.195 8.02 2.52 10.03
5/25/2022 2:45:00 PM 20.78 69.404 0.195 8.02 2.56 9.94
5/25/2022 3:00:00 PM 20.99 69.782 0.196 8.02 2.61 9.85
5/25/2022 3:15:00 PM 21.21 70.17799 0.196 8.01 2.67 9.79
5/25/2022 3:30:00 PM 21.34 70.412 0.196 8 2.61 9.71
5/25/2022 3:45:00 PM 21.44 70.592 0.196 7.98 2.48 9.64
5/25/2022 4:00:00 PM 21.5 70.7 0.196 7.98 2.69 9.56
5/25/2022 4:15:00 PM 21.49 70.682 0.196 7.96 2.53 9.49
5/25/2022 4:30:00 PM 21.45 70.61 0.196 7.95 2.42 9.44
5/25/2022 4:45:00 PM 21.37 70.466 0.196 7.93 2.61 9.4
5/25/2022 5:00:00 PM 21.25 70.25 0.197 7.91 2.45 9.33
5/25/2022 5:15:00 PM 21.12 70.016 0.197 7.89 2.62 9.26
5/25/2022 5:30:00 PM 20.97 69.746 0.197 7.85 2.45 9.19
5/25/2022 5:45:00 PM 20.8 69.44 0.197 7.83 2.44 9.13
5/25/2022 6:00:00 PM 20.64 69.152 0.197 7.8 2.45 9.07
5/25/2022 6:15:00 PM 20.48 68.864 0.197 7.77 2.55 9.01
5/25/2022 6:30:00 PM 20.31 68.558 0.197 7.74 2.42 8.94
5/25/2022 6:45:00 PM 20.15 68.27 0.197 7.72 2.55 8.88
5/25/2022 7:00:00 PM 20.01 68.018 0.197 7.68 2.56 8.81
5/25/2022 7:15:00 PM 19.88 67.784 0.197 7.66 2.49 8.75
5/25/2022 7:30:00 PM 19.76 67.568 0.197 7.64 2.53 8.69
5/25/2022 7:45:00 PM 19.65 67.37 0.198 7.6 2.55 8.61
5/25/2022 8:00:00 PM 19.55 67.19 0.198 7.58 2.44 8.53
5/25/2022 8:15:00 PM 19.46 67.028 0.198 7.55 2.67 8.45
5/25/2022 8:30:00 PM 19.37 66.866 0.198 7.52 2.58 8.36
5/25/2022 8:45:00 PM 19.28 66.704 0.198 7.49 2.68 8.26
5/25/2022 9:00:00 PM 19.19 66.542 0.198 7.47 2.66 8.17
5/25/2022 9:15:00 PM 19.1 66.38 0.198 7.44 2.73 8.08
5/25/2022 9:30:00 PM 19.03 66.254 0.199 7.42 2.69 8
5/25/2022 9:45:00 PM 18.95 66.11 0.199 7.4 3.13 7.93
5/25/2022 10:00:00 PM 18.87 65.966 0.199 7.37 3.24 7.88
5/25/2022 10:15:00 PM 18.79 65.82201 0.199 7.36 2.96 7.83
5/25/2022 10:30:00 PM 18.71 65.67799 0.199 7.35 3 7.8
5/25/2022 10:45:00 PM 18.63 65.534 0.199 7.34 2.91 7.78
5/25/2022 11:00:00 PM 18.54 65.372 0.199 7.32 2.93 7.77
5/25/2022 11:15:00 PM 18.47 65.246 0.199 7.32 2.99 7.77
5/25/2022 11:30:00 PM 18.41 65.138 0.199 7.31 3.02 7.77
5/25/2022 11:45:00 PM 18.34 65.012 0.199 7.3 3.31 7.76
5/26/2022 12:00:00 AM 18.27 64.886 0.199 7.3 3.07 7.77
5/26/2022 12:15:00 AM 18.2 64.76 0.199 7.3 2.97 7.79
5/26/2022 12:30:00 AM 18.13 64.634 0.199 7.32 3.01 7.81
5/26/2022 12:45:00 AM 18.08 64.544 0.199 7.3 2.98 7.82
5/26/2022 1:00:00 AM 18.01 64.418 0.199 7.29 2.9 7.83
5/26/2022 1:15:00 AM 17.94 64.292 0.199 7.29 3.64 7.82
5/26/2022 1:30:00 AM 17.88 64.184 0.199 7.29 3.16 7.85
5/26/2022 1:45:00 AM 17.81 64.058 0.199 7.29 3.14 7.88
5/26/2022 2:00:00 AM 17.73 63.914 0.199 7.29 2.8 7.89
5/26/2022 2:15:00 AM 17.66 63.788 0.199 7.29 3.08 7.91
5/26/2022 2:30:00 AM 17.59 63.662 0.199 7.29 2.9 7.91
5/26/2022 2:45:00 AM 17.52 63.536 0.199 7.29 3.42 7.92
5/26/2022 3:00:00 AM 17.43 63.374 0.199 7.29 2.96 7.95
5/26/2022 3:15:00 AM 17.37 63.266 0.199 7.29 3.05 7.95
5/26/2022 3:30:00 AM 17.28 63.104 0.199 7.29 3.15 7.96
5/26/2022 3:45:00 AM 17.21 62.978 0.199 7.28 3.09 7.96
5/26/2022 4:00:00 AM 17.13 62.834 0.199 7.29 3.34 7.99
5/26/2022 4:15:00 AM 17.06 62.708 0.2 7.28 3.04 8.01
5/26/2022 4:30:00 AM 16.97 62.546 0.2 7.29 3.3 8.04
5/26/2022 4:45:00 AM 16.9 62.42 0.2 7.29 3.18 8.05
5/26/2022 5:00:00 AM 16.82 62.276 0.2 7.29 3.39 8.08
5/26/2022 5:15:00 AM 16.75 62.15 0.2 7.29 3.51 8.08
5/26/2022 5:30:00 AM 16.68 62.024 0.2 7.29 3.13 8.1
5/26/2022 5:45:00 AM 16.6 61.88 0.2 7.28 2.95 8.13
5/26/2022 6:00:00 AM 16.52 61.736 0.2 7.29 3.14 8.15
5/26/2022 6:15:00 AM 16.46 61.628 0.2 7.29 3.05 8.19
5/26/2022 6:30:00 AM 16.4 61.52 0.2 7.3 3.38 8.24
5/26/2022 6:45:00 AM 16.34 61.412 0.2 7.3 3.05 8.3
5/26/2022 7:00:00 AM 16.29 61.322 0.2 7.31 3.03 8.37
5/26/2022 7:15:00 AM 16.28 61.304 0.2 7.32 3.01 8.45
5/26/2022 7:30:00 AM 16.26 61.268 0.2 7.35 3.09 8.58
5/26/2022 7:45:00 AM 16.27 61.286 0.2 7.36 2.91 8.7
5/26/2022 8:00:00 AM 16.3 61.34 0.199 7.38 2.94 8.8
5/26/2022 8:15:00 AM 16.35 61.43 0.199 7.39 3.15 8.9
5/26/2022 8:30:00 AM 16.44 61.592 0.199 7.42 3.06 9
5/26/2022 8:45:00 AM 16.54 61.772 0.199 7.44 2.86 9.11
5/26/2022 9:00:00 AM 16.67 62.006 0.199 7.45 2.88 9.2
5/26/2022 9:15:00 AM 16.81 62.258 0.199 7.48 2.85 9.29
5/26/2022 9:30:00 AM 16.94 62.492 0.199 7.5 2.73 9.38
5/26/2022 9:45:00 AM 17.09 62.762 0.199 7.52 2.82 9.46
5/26/2022 10:00:00 AM 17.31 63.158 0.199 7.55 2.81 9.53
5/26/2022 10:15:00 AM 17.47 63.446 0.199 7.57 3.03 9.61
5/26/2022 10:30:00 AM 17.68 63.824 0.199 7.6 2.86 9.69
5/26/2022 10:45:00 AM 17.87 64.166 0.199 7.64 2.62 9.75
5/26/2022 11:00:00 AM 18.16 64.688 0.199 7.67 2.99 9.8
5/26/2022 11:15:00 AM 18.28 64.904 0.199 7.68 2.72 9.84
5/26/2022 11:30:00 AM 18.48 65.264 0.199 7.72 2.91 9.88
5/26/2022 11:45:00 AM 18.78 65.804 0.199 7.74 2.72 9.88
5/26/2022 12:00:00 PM 19.11 66.398 0.199 7.76 2.7 9.91
5/26/2022 12:15:00 PM 19.43 66.974 0.199 7.79 3.02 9.93
5/26/2022 12:30:00 PM 19.75 67.55 0.199 7.82 2.83 9.93
5/26/2022 12:45:00 PM 20.08 68.144 0.199 7.83 3.17 9.9
5/26/2022 1:00:00 PM 20.48 68.864 0.199 7.85 2.91 9.87
5/26/2022 1:15:00 PM 20.86 69.548 0.199 7.88 3.9 9.84
5/26/2022 1:30:00 PM 21.22 70.196 0.2 7.9 2.68 9.79
5/26/2022 1:45:00 PM 21.58 70.844 0.2 7.91 2.67 9.73
5/26/2022 2:00:00 PM 21.91 71.438 0.2 7.93 2.48 9.67
5/26/2022 2:15:00 PM 22.22 71.996 0.2 7.95 2.38 9.61
5/26/2022 2:30:00 PM 22.47 72.446 0.2 7.96 2.94 9.56
5/26/2022 2:45:00 PM 22.67 72.806 0.2 7.95 2.51 9.47
5/26/2022 3:00:00 PM 22.87 73.166 0.2 7.96 4 9.43
5/26/2022 3:15:00 PM 23 73.4 0.201 7.95 2.57 9.36
5/26/2022 3:30:00 PM 23.1 73.58 0.201 7.94 2.74 9.28
5/26/2022 3:45:00 PM 23.05 73.49 0.201 7.93 3.17 9.19
5/26/2022 4:00:00 PM 23.1 73.58 0.201 7.9 2.35 9.13
5/26/2022 4:15:00 PM 23.03 73.454 0.201 7.91 2.73 9.06
5/26/2022 4:30:00 PM 22.91 73.238 0.201 7.88 2.6 9.01
5/26/2022 4:45:00 PM 22.79 73.022 0.201 7.87 3.21 8.95
5/26/2022 5:00:00 PM 22.55 72.59 0.202 7.84 2.62 8.9
5/26/2022 5:15:00 PM 22.41 72.338 0.202 7.83 2.64 8.88
5/26/2022 5:30:00 PM 22.15 71.87 0.202 7.8 2.7 8.83
5/26/2022 5:45:00 PM 21.96 71.528 0.202 7.79 2.81 8.82
5/26/2022 6:00:00 PM 21.76 71.168 0.202 7.77 2.99 8.76
5/26/2022 6:15:00 PM 21.56 70.808 0.202 7.74 2.53 8.7
5/26/2022 6:30:00 PM 21.34 70.412 0.202 7.72 2.81 8.65
5/26/2022 6:45:00 PM 21.15 70.07 0.202 7.69 2.65 8.58
5/26/2022 7:00:00 PM 20.97 69.746 0.202 7.66 2.48 8.5
5/26/2022 7:15:00 PM 20.81 69.458 0.202 7.63 3.39 8.42
5/26/2022 7:30:00 PM 20.66 69.188 0.202 7.59 3.06 8.31
5/26/2022 7:45:00 PM 20.53 68.954 0.202 7.56 2.5 8.21
5/26/2022 8:00:00 PM 20.4 68.72 0.202 7.53 2.93 8.09
5/26/2022 8:15:00 PM 20.29 68.522 0.202 7.49 3.03 7.98
5/26/2022 8:30:00 PM 20.19 68.342 0.203 7.47 2.77 7.88
5/26/2022 8:45:00 PM 20.1 68.18 0.203 7.44 2.81 7.79
5/26/2022 9:00:00 PM 20 68 0.203 7.41 3.11 7.7
5/26/2022 9:15:00 PM 19.92 67.856 0.203 7.39 2.87 7.62
5/26/2022 9:30:00 PM 19.85 67.73 0.203 7.38 2.82 7.58
5/26/2022 9:45:00 PM 19.78 67.604 0.203 7.35 3.45 7.52
5/26/2022 10:00:00 PM 19.71 67.478 0.203 7.34 2.9 7.49
5/26/2022 10:15:00 PM 19.63 67.334 0.203 7.33 3.06 7.47
5/26/2022 10:30:00 PM 19.56 67.208 0.203 7.32 2.83 7.44
5/26/2022 10:45:00 PM 19.5 67.1 0.203 7.31 3.21 7.43
5/26/2022 11:00:00 PM 19.44 66.992 0.203 7.3 3.07 7.41
5/26/2022 11:15:00 PM 19.39 66.902 0.203 7.3 3.19 7.42
5/26/2022 11:30:00 PM 19.34 66.812 0.203 7.3 2.91 7.42
5/26/2022 11:45:00 PM 19.3 66.74 0.203 7.28 2.93 7.41
5/27/2022 12:00:00 AM 19.25 66.65 0.203 7.29 3.05 7.43
5/27/2022 12:15:00 AM 19.21 66.578 0.203 7.27 3.44 7.43
5/27/2022 12:30:00 AM 19.16 66.488 0.203 7.28 3.07 7.45
5/27/2022 12:45:00 AM 19.12 66.416 0.203 7.27 3.41 7.44
5/27/2022 1:00:00 AM 19.08 66.344 0.203 7.27 3.27 7.45
5/27/2022 1:15:00 AM 19.03 66.254 0.203 7.27 3.18 7.47
5/27/2022 1:30:00 AM 18.99 66.182 0.203 7.26 3.08 7.48
5/27/2022 1:45:00 AM 18.96 66.128 0.203 7.27 2.99 7.48
5/27/2022 2:00:00 AM 18.91 66.038 0.203 7.28 3.06 7.52
5/27/2022 2:15:00 AM 18.88 65.984 0.203 7.26 3.11 7.51
5/27/2022 2:30:00 AM 18.84 65.912 0.203 7.26 3.32 7.52
5/27/2022 2:45:00 AM 18.79 65.82201 0.203 7.27 3.11 7.54
5/27/2022 3:00:00 AM 18.76 65.768 0.203 7.27 3.7 7.55
5/27/2022 3:15:00 AM 18.72 65.696 0.203 7.27 3.33 7.55
5/27/2022 3:30:00 AM 18.68 65.624 0.203 7.27 3.33 7.58
5/27/2022 3:45:00 AM 18.65 65.57 0.203 7.27 4.02 7.57
5/27/2022 4:00:00 AM 18.62 65.516 0.203 7.27 3.17 7.57
5/27/2022 4:15:00 AM 18.58 65.444 0.203 7.26 3.16 7.59
5/27/2022 4:30:00 AM 18.55 65.39 0.203 7.27 3.39 7.59
5/27/2022 4:45:00 AM 18.51 65.318 0.203 7.27 3.32 7.6
5/27/2022 5:00:00 AM 18.49 65.282 0.203 7.26 3.06 7.59
5/27/2022 5:15:00 AM 18.46 65.228 0.203 7.25 3.21 7.59
5/27/2022 5:30:00 AM 18.43 65.174 0.203 7.26 2.94 7.6
5/27/2022 5:45:00 AM 18.4 65.12 0.203 7.25 3.12 7.63
5/27/2022 6:00:00 AM 18.37 65.066 0.203 7.27 3.07 7.64
5/27/2022 6:15:00 AM 18.35 65.03 0.203 7.26 3.15 7.65
5/27/2022 6:30:00 AM 18.33 64.994 0.203 7.27 3.06 7.68
5/27/2022 6:45:00 AM 18.31 64.958 0.203 7.27 2.95 7.71
5/27/2022 7:00:00 AM 18.3 64.94 0.203 7.27 3.02 7.77
5/27/2022 7:15:00 AM 18.29 64.922 0.203 7.29 2.82 7.82
5/27/2022 7:30:00 AM 18.29 64.922 0.203 7.28 2.82 7.87
5/27/2022 7:45:00 AM 18.29 64.922 0.203 7.3 2.96 7.95
5/27/2022 8:00:00 AM 18.31 64.958 0.203 7.32 2.79 8.06
5/27/2022 8:15:00 AM 18.34 65.012 0.203 7.33 2.67 8.15
5/27/2022 8:30:00 AM 18.37 65.066 0.202 7.35 2.83 8.27
5/27/2022 8:45:00 AM 18.42 65.156 0.202 7.36 3.02 8.37
5/27/2022 9:00:00 AM 18.44 65.192 0.202 7.38 2.89 8.44
5/27/2022 9:15:00 AM 18.5 65.3 0.202 7.41 2.82 8.58
5/27/2022 9:30:00 AM 18.56 65.408 0.202 7.42 2.84 8.67
5/27/2022 9:45:00 AM 18.65 65.57 0.202 7.45 2.7 8.78
5/27/2022 10:00:00 AM 18.75 65.75 0.202 7.47 2.68 8.86
5/27/2022 10:15:00 AM 18.85 65.93 0.202 7.5 2.69 8.98
5/27/2022 10:30:00 AM 18.97 66.146 0.202 7.53 2.79 9.07
5/27/2022 10:45:00 AM 19.08 66.344 0.201 7.57 2.63 9.19
5/27/2022 11:00:00 AM 19.2 66.56 0.201 7.59 2.55 9.27
5/27/2022 11:15:00 AM 19.29 66.722 0.201 7.62 2.73 9.32
5/27/2022 11:30:00 AM 19.39 66.902 0.201 7.65 2.88 9.38
5/27/2022 11:45:00 AM 19.45 67.01 0.201 7.69 2.97 9.41
5/27/2022 12:00:00 PM 19.56 67.208 0.201 7.72 2.69 9.46
5/27/2022 12:15:00 PM 19.64 67.352 0.201 7.73 2.71 9.45
5/27/2022 12:30:00 PM 19.71 67.478 0.201 7.74 2.74 9.45
5/27/2022 12:45:00 PM 19.75 67.55 0.201 7.76 2.79 9.44
5/27/2022 1:00:00 PM 19.8 67.64 0.201 7.78 2.61 9.43
5/27/2022 1:15:00 PM 19.87 67.766 0.201 7.77 2.59 9.41
5/27/2022 1:30:00 PM 19.91 67.838 0.201 7.79 2.59 9.4
5/27/2022 1:45:00 PM 19.92 67.856 0.201 7.79 2.65 9.38
5/27/2022 2:00:00 PM 19.91 67.838 0.201 7.79 2.74 9.32
5/27/2022 2:15:00 PM 19.89 67.802 0.201 7.77 2.54 9.23
5/27/2022 2:30:00 PM 19.86 67.748 0.2 7.76 2.55 9.15
5/27/2022 2:45:00 PM 19.84 67.712 0.2 7.74 2.74 9.08
5/27/2022 3:00:00 PM 19.8 67.64 0.2 7.72 2.94 9
5/27/2022 3:15:00 PM 19.76 67.568 0.2 7.68 2.79 8.89
5/27/2022 3:30:00 PM 19.72 67.496 0.2 7.66 2.78 8.81
5/27/2022 3:45:00 PM 19.72 67.496 0.2 7.63 2.79 8.78
5/27/2022 4:00:00 PM 19.73 67.514 0.199 7.62 2.63 8.76
5/27/2022 4:15:00 PM 19.73 67.514 0.199 7.61 2.74 8.77
5/27/2022 4:30:00 PM 19.79 67.622 0.199 7.62 2.67 8.82
5/27/2022 4:45:00 PM 19.85 67.73 0.199 7.62 2.8 8.88
5/27/2022 5:00:00 PM 19.92 67.856 0.199 7.64 2.91 8.94
5/27/2022 5:15:00 PM 19.99 67.982 0.199 7.66 2.81 9.03
5/27/2022 5:30:00 PM 20.05 68.09 0.199 7.68 2.64 9.09
5/27/2022 5:45:00 PM 20.12 68.216 0.199 7.7 3.03 9.16
5/27/2022 6:00:00 PM 20.14 68.252 0.2 7.71 3.09 9.15
5/27/2022 6:15:00 PM 20.16 68.288 0.2 7.73 2.9 9.14
5/27/2022 6:30:00 PM 20.17 68.306 0.2 7.73 2.89 9.11
5/27/2022 6:45:00 PM 20.17 68.306 0.2 7.73 2.82 9.04
5/27/2022 7:00:00 PM 20.14 68.252 0.2 7.72 2.71 8.98
5/27/2022 7:15:00 PM 20.1 68.18 0.201 7.71 2.69 8.9
5/27/2022 7:30:00 PM 20.06 68.108 0.201 7.68 2.82 8.8
5/27/2022 7:45:00 PM 20 68 0.201 7.65 3.05 8.68
5/27/2022 8:00:00 PM 19.93 67.874 0.201 7.61 2.7 8.55
5/27/2022 8:15:00 PM 19.87 67.766 0.202 7.57 2.82 8.43
5/27/2022 8:30:00 PM 19.78 67.604 0.202 7.53 2.72 8.28
5/27/2022 8:45:00 PM 19.69 67.442 0.202 7.5 2.91 8.15
5/27/2022 9:00:00 PM 19.59 67.262 0.202 7.47 3.08 8.01
5/27/2022 9:15:00 PM 19.49 67.082 0.203 7.43 3.46 7.92
5/27/2022 9:30:00 PM 19.39 66.902 0.203 7.43 3.14 7.82
5/27/2022 9:45:00 PM 19.31 66.758 0.203 7.39 3.07 7.74
5/27/2022 10:00:00 PM 19.21 66.578 0.203 7.36 2.81 7.64
5/27/2022 10:15:00 PM 19.12 66.416 0.203 7.34 2.92 7.58
5/27/2022 10:30:00 PM 19.03 66.254 0.203 7.33 3.02 7.55
5/27/2022 10:45:00 PM 18.95 66.11 0.203 7.32 2.89 7.53
5/27/2022 11:00:00 PM 18.86 65.948 0.203 7.3 3.08 7.53
5/27/2022 11:15:00 PM 18.8 65.84 0.203 7.3 2.81 7.53
5/27/2022 11:30:00 PM 18.74 65.732 0.203 7.29 3.07 7.52
5/27/2022 11:45:00 PM 18.68 65.624 0.203 7.29 3.18 7.54
5/28/2022 12:00:00 AM 18.64 65.552 0.203 7.28 3.14 7.53
5/28/2022 12:15:00 AM 18.58 65.444 0.203 7.27 3.38 7.56
5/28/2022 12:30:00 AM 18.52 65.336 0.203 7.28 3.23 7.57
5/28/2022 12:45:00 AM 18.46 65.228 0.203 7.27 3.15 7.58
5/28/2022 1:00:00 AM 18.41 65.138 0.203 7.27 3.22 7.59
5/28/2022 1:15:00 AM 18.36 65.048 0.202 7.27 3.32 7.59
5/28/2022 1:30:00 AM 18.31 64.958 0.202 7.27 3.27 7.6
5/28/2022 1:45:00 AM 18.26 64.868 0.202 7.26 3.07 7.61
5/28/2022 2:00:00 AM 18.22 64.796 0.202 7.26 3.05 7.6
5/28/2022 2:15:00 AM 18.17 64.706 0.202 7.26 4.24 7.6
5/28/2022 2:30:00 AM 18.12 64.616 0.202 7.26 3.18 7.6
5/28/2022 2:45:00 AM 18.06 64.508 0.202 7.26 3.01 7.62
5/28/2022 3:00:00 AM 18.02 64.436 0.202 7.25 3.15 7.62
5/28/2022 3:15:00 AM 17.97 64.346 0.202 7.26 3.18 7.65
5/28/2022 3:30:00 AM 17.93 64.274 0.202 7.26 3.1 7.66
5/28/2022 3:45:00 AM 17.88 64.184 0.202 7.25 3.2 7.64
5/28/2022 4:00:00 AM 17.85 64.13 0.202 7.26 3.19 7.66
5/28/2022 4:15:00 AM 17.79 64.022 0.203 7.26 3.02 7.68
5/28/2022 4:30:00 AM 17.75 63.95 0.202 7.27 3.35 7.68
5/28/2022 4:45:00 AM 17.72 63.896 0.203 7.26 3.34 7.67
5/28/2022 5:00:00 AM 17.67 63.806 0.203 7.26 3.52 7.68
5/28/2022 5:15:00 AM 17.63 63.734 0.203 7.26 4.59 7.7
5/28/2022 5:30:00 AM 17.59 63.662 0.203 7.26 3.52 7.72
5/28/2022 5:45:00 AM 17.55 63.59 0.203 7.26 3.41 7.71
5/28/2022 6:00:00 AM 17.51 63.518 0.203 7.26 3.58 7.74
5/28/2022 6:15:00 AM 17.49 63.482 0.203 7.25 3.87 7.73
5/28/2022 6:30:00 AM 17.46 63.428 0.203 7.26 3.72 7.78
5/28/2022 6:45:00 AM 17.45 63.41 0.203 7.27 12.38 7.85
5/28/2022 7:00:00 AM 17.45 63.41 0.203 7.28 2.91 7.93
5/28/2022 7:15:00 AM 17.45 63.41 0.203 7.3 3.05 8.01
5/28/2022 7:30:00 AM 17.48 63.464 0.203 7.31 2.81 8.1
5/28/2022 7:45:00 AM 17.51 63.518 0.203 7.32 2.71 8.23
5/28/2022 8:00:00 AM 17.53 63.554 0.203 7.36 2.78 8.37
5/28/2022 8:15:00 AM 17.57 63.626 0.202 7.38 2.83 8.53
5/28/2022 8:30:00 AM 17.62 63.716 0.202 7.41 2.81 8.66
5/28/2022 8:45:00 AM 17.72 63.896 0.202 7.42 2.75 8.75
5/28/2022 9:00:00 AM 17.83 64.094 0.202 7.45 2.73 8.86
5/28/2022 9:15:00 AM 17.88 64.184 0.202 7.47 2.64 8.94
5/28/2022 9:30:00 AM 17.93 64.274 0.202 7.5 2.76 9.01
5/28/2022 9:45:00 AM 17.97 64.346 0.202 7.52 2.73 9.06
5/28/2022 10:00:00 AM 17.99 64.382 0.202 7.54 2.66 9.12
5/28/2022 10:15:00 AM 18.02 64.436 0.202 7.58 2.57 9.16
5/28/2022 10:30:00 AM 18.01 64.418 0.201 7.61 2.84 9.14
5/28/2022 10:45:00 AM 17.99 64.382 0.201 7.62 2.96 9.09
5/28/2022 11:00:00 AM 17.97 64.346 0.2 7.62 2.75 9.05
5/28/2022 11:15:00 AM 17.99 64.382 0.2 7.62 2.85 9.04
5/28/2022 11:30:00 AM 17.99 64.382 0.199 7.62 9.41 9.05
5/28/2022 11:45:00 AM 17.99 64.382 0.198 7.62 7.23 9.07
5/28/2022 12:00:00 PM 18.03 64.454 0.197 7.63 7.33 9.14
5/28/2022 12:15:00 PM 18.16 64.688 0.197 7.65 5.7 9.19
5/28/2022 12:30:00 PM 18.31 64.958 0.198 7.66 4.72 9.21
5/28/2022 12:45:00 PM 18.46 65.228 0.199 7.67 3.55 9.21
5/28/2022 1:00:00 PM 18.58 65.444 0.2 7.67 3.52 9.18
5/28/2022 1:15:00 PM 18.63 65.534 0.201 7.66 3.86 9.14
5/28/2022 1:30:00 PM 18.67 65.606 0.203 7.67 3.87 9.11
5/28/2022 1:45:00 PM 18.77 65.786 0.205 7.67 3.76 9.13
5/28/2022 2:00:00 PM 18.87 65.966 0.206 7.68 3.59 9.15
5/28/2022 2:15:00 PM 18.96 66.128 0.207 7.69 3.76 9.14
5/28/2022 2:30:00 PM 19.05 66.29 0.206 7.68 3.75 9.12
5/28/2022 2:45:00 PM 19.12 66.416 0.205 7.69 3.69 9.07
5/28/2022 3:00:00 PM 19.17 66.506 0.205 7.68 3.62 9.03
5/28/2022 3:15:00 PM 19.22 66.596 0.204 7.68 3.71 9.02
5/28/2022 3:30:00 PM 19.26 66.668 0.203 7.69 3.72 9.02
5/28/2022 3:45:00 PM 19.26 66.668 0.202 7.69 3.7 9.02
5/28/2022 4:00:00 PM 19.27 66.686 0.201 7.69 3.69 9
5/28/2022 4:15:00 PM 19.25 66.65 0.201 7.69 5.57 8.97
5/28/2022 4:30:00 PM 19.27 66.686 0.2 7.67 3.66 8.96
5/28/2022 4:45:00 PM 19.29 66.722 0.2 7.68 3.7 8.96
5/28/2022 5:00:00 PM 19.28 66.704 0.2 7.68 3.44 8.96
5/28/2022 5:15:00 PM 19.24 66.632 0.199 7.67 3.49 8.91
5/28/2022 5:30:00 PM 19.21 66.578 0.199 7.65 3.59 8.85
5/28/2022 5:45:00 PM 19.19 66.542 0.199 7.64 3.63 8.82
5/28/2022 6:00:00 PM 19.18 66.524 0.199 7.63 3.79 8.79
5/28/2022 6:15:00 PM 19.16 66.488 0.199 7.63 3.75 8.77
5/28/2022 6:30:00 PM 19.15 66.47 0.2 7.61 3.44 8.76
5/28/2022 6:45:00 PM 19.14 66.452 0.2 7.61 3.63 8.73
5/28/2022 7:00:00 PM 19.12 66.416 0.201 7.59 4.81 8.68
5/28/2022 7:15:00 PM 19.09 66.362 0.201 7.57 3.73 8.64
5/28/2022 7:30:00 PM 19.05 66.29 0.202 7.56 3.95 8.59
5/28/2022 7:45:00 PM 19.01 66.218 0.203 7.55 3.68 8.55
5/28/2022 8:00:00 PM 18.97 66.146 0.203 7.53 3.81 8.49
5/28/2022 8:15:00 PM 18.9 66.02 0.204 7.51 3.78 8.42
5/28/2022 8:30:00 PM 18.83 65.894 0.204 7.49 3.6 8.36
5/28/2022 8:45:00 PM 18.76 65.768 0.205 7.47 3.85 8.3
5/28/2022 9:00:00 PM -99999.99 -179968 -99999.99 -99999.99 -99999.99 -99999.99
5/28/2022 9:15:00 PM 18.62 65.516 0.206 7.44 3.62 8.23
5/28/2022 9:30:00 PM 18.54 65.372 0.206 7.43 4.09 8.22
5/28/2022 9:45:00 PM 18.46 65.228 0.207 7.42 4.19 8.21
5/28/2022 10:00:00 PM 18.38 65.084 0.207 7.4 4.06 8.2
5/28/2022 10:15:00 PM 18.29 64.922 0.207 7.4 4.16 8.19
5/28/2022 10:30:00 PM 18.21 64.778 0.208 7.4 4.18 8.19
5/28/2022 10:45:00 PM 18.12 64.616 0.208 7.39 4.05 8.21
5/28/2022 11:00:00 PM 18.03 64.454 0.208 7.39 4.23 8.22
5/28/2022 11:15:00 PM 17.95 64.31 0.208 7.39 4.19 8.23
5/28/2022 11:30:00 PM 17.87 64.166 0.207 7.39 4.23 8.26
5/28/2022 11:45:00 PM 17.79 64.022 0.207 7.39 4.21 8.28
5/29/2022 12:00:00 AM 17.71 63.878 0.207 7.38 4.11 8.28
5/29/2022 12:15:00 AM 17.64 63.752 0.206 7.37 4.04 8.29
5/29/2022 12:30:00 AM 17.57 63.626 0.206 7.37 4.14 8.32
5/29/2022 12:45:00 AM 17.51 63.518 0.205 7.37 4.12 8.34
5/29/2022 1:00:00 AM 17.51 63.518 0.205 7.37 4.12 8.34
5/29/2022 1:15:00 AM 17.41 63.338 0.204 7.38 4.15 8.36
5/29/2022 1:30:00 AM 17.36 63.248 0.204 7.36 4.17 8.38
5/29/2022 1:45:00 AM 17.32 63.176 0.203 7.38 4.18 8.39
5/29/2022 2:00:00 AM 17.28 63.104 0.203 7.37 4.09 8.4
5/29/2022 2:15:00 AM 17.24 63.032 0.202 7.37 3.98 8.4
5/29/2022 2:30:00 AM 17.19 62.942 0.201 7.37 4.16 8.42
5/29/2022 2:45:00 AM 17.15 62.87 0.201 7.38 4.14 8.43
5/29/2022 3:00:00 AM 17.11 62.798 0.2 7.36 4.34 8.45
5/29/2022 3:15:00 AM 17.06 62.708 0.199 7.37 4.08 8.45
5/29/2022 3:30:00 AM 17.02 62.636 0.199 7.38 4 8.47
5/29/2022 3:45:00 AM 16.97 62.546 0.198 7.38 4.08 8.48
5/29/2022 4:00:00 AM 16.93 62.474 0.198 7.38 4.2 8.49
5/29/2022 4:15:00 AM 16.88 62.384 0.197 7.37 4.34 8.5
5/29/2022 4:30:00 AM 16.84 62.312 0.197 7.38 4.07 8.49
5/29/2022 4:45:00 AM 16.79 62.222 0.197 7.38 4.13 8.51
5/29/2022 5:00:00 AM 16.75 62.15 0.197 7.38 4.29 8.53
5/29/2022 5:15:00 AM 16.71 62.078 0.197 7.38 4.02 8.54
5/29/2022 5:30:00 AM 16.67 62.006 0.196 7.37 4.06 8.55
5/29/2022 5:45:00 AM 16.63 61.934 0.196 7.38 4.13 8.56
5/29/2022 6:00:00 AM 16.6 61.88 0.196 7.38 4.13 8.58
5/29/2022 6:15:00 AM 16.57 61.826 0.196 7.39 3.79 8.6
5/29/2022 6:30:00 AM 16.54 61.772 0.196 7.39 3.81 8.63
5/29/2022 6:45:00 AM 16.52 61.736 0.197 7.39 3.87 8.67
5/29/2022 7:00:00 AM 16.5 61.7 0.197 7.4 3.73 8.73
5/29/2022 7:15:00 AM 16.5 61.7 0.197 7.41 3.8 8.79
5/29/2022 7:30:00 AM 16.5 61.7 0.197 7.42 3.67 8.87
5/29/2022 7:45:00 AM 16.52 61.736 0.197 7.46 3.69 8.98
5/29/2022 8:00:00 AM 16.55 61.79 0.197 7.47 3.52 9.07
5/29/2022 8:15:00 AM 16.58 61.844 0.197 7.49 3.55 9.19
5/29/2022 8:30:00 AM 16.62 61.916 0.197 7.52 3.56 9.28
5/29/2022 8:45:00 AM 16.68 62.024 0.197 7.54 3.48 9.38
5/29/2022 9:00:00 AM 16.73 62.114 0.197 7.58 3.42 9.44
5/29/2022 9:15:00 AM 16.82 62.276 0.197 7.59 3.34 9.49
5/29/2022 9:30:00 AM 16.91 62.438 0.197 7.6 3.42 9.51
5/29/2022 9:45:00 AM 17.11 62.798 0.197 7.62 3.41 9.56
5/29/2022 10:00:00 AM 17.32 63.176 0.197 7.64 3.34 9.58
5/29/2022 10:15:00 AM 17.53 63.554 0.198 7.66 3.22 9.6
5/29/2022 10:30:00 AM 17.75 63.95 0.198 7.66 3.34 9.6
5/29/2022 10:45:00 AM 18.01 64.418 0.198 7.68 3.25 9.61
5/29/2022 11:00:00 AM 18.33 64.994 0.198 7.69 3.33 9.63
5/29/2022 11:15:00 AM 18.68 65.624 0.198 7.72 3.29 9.64
5/29/2022 11:30:00 AM 19.07 66.326 0.198 7.75 3.24 9.65
5/29/2022 11:45:00 AM 19.44 66.992 0.198 7.76 3.21 9.64
5/29/2022 12:00:00 PM 19.83 67.694 0.198 7.78 3.35 9.61
5/29/2022 12:15:00 PM 20.25 68.45 0.198 7.8 3.24 9.62
5/29/2022 12:30:00 PM 20.6 69.08 0.198 7.82 3.26 9.59
5/29/2022 12:45:00 PM 20.91 69.638 0.198 7.83 3.26 9.56
5/29/2022 1:00:00 PM 21.16 70.088 0.199 7.84 3.23 9.53
5/29/2022 1:15:00 PM 21.41 70.538 0.199 7.86 3.25 9.52
5/29/2022 1:30:00 PM 21.48 70.664 0.199 7.86 3.15 9.46
5/29/2022 1:45:00 PM 21.47 70.646 0.199 7.85 3.08 9.39
5/29/2022 2:00:00 PM 21.56 70.808 0.199 7.84 3.2 9.32
5/29/2022 2:15:00 PM 21.58 70.844 0.199 7.84 3.14 9.29
5/29/2022 2:30:00 PM 21.63 70.934 0.199 7.84 3.27 9.27
5/29/2022 2:45:00 PM 21.75 71.15 0.199 7.85 3.08 9.26
5/29/2022 3:00:00 PM 21.85 71.33 0.199 7.84 3.06 9.23
5/29/2022 3:15:00 PM 21.93 71.474 0.199 7.85 3.01 9.2
5/29/2022 3:30:00 PM 21.93 71.474 0.199 7.84 3.29 9.15
5/29/2022 3:45:00 PM 21.9 71.42 0.199 7.84 3 9.12
5/29/2022 4:00:00 PM 21.88 71.384 0.199 7.84 3.09 9.09
5/29/2022 4:15:00 PM 21.8 71.24 0.199 7.83 3.02 9.04
5/29/2022 4:30:00 PM 21.74 71.132 0.199 7.82 3.17 9
5/29/2022 4:45:00 PM 21.65 70.97 0.198 7.81 2.92 8.93
5/29/2022 5:00:00 PM 21.57 70.826 0.198 7.78 3 8.84
5/29/2022 5:15:00 PM 21.5 70.7 0.198 7.74 2.93 8.74
5/29/2022 5:30:00 PM 21.4 70.52 0.198 7.72 2.99 8.65
5/29/2022 5:45:00 PM 21.35 70.43 0.198 7.69 3.01 8.58
5/29/2022 6:00:00 PM 21.28 70.304 0.198 7.66 2.96 8.49
5/29/2022 6:15:00 PM 21.23 70.214 0.198 7.64 3.01 8.43
5/29/2022 6:30:00 PM 21.17 70.106 0.198 7.62 3.09 8.36
5/29/2022 6:45:00 PM 21.11 69.998 0.198 7.6 2.89 8.3
5/29/2022 7:00:00 PM 21.06 69.908 0.198 7.57 3.02 8.23
5/29/2022 7:15:00 PM 21 69.8 0.198 7.56 2.91 8.17
5/29/2022 7:30:00 PM 20.94 69.692 0.198 7.54 3.21 8.12
5/29/2022 7:45:00 PM 20.87 69.566 0.198 7.52 3.21 8.05
5/29/2022 8:00:00 PM 20.81 69.458 0.198 7.5 2.98 8
5/29/2022 8:15:00 PM 20.74 69.332 0.198 7.48 3.1 7.94
5/29/2022 8:30:00 PM 20.67 69.206 0.198 7.47 3.14 7.89
5/29/2022 8:45:00 PM 20.6 69.08 0.197 7.45 3.21 7.83
5/29/2022 9:00:00 PM 20.51 68.918 0.197 7.43 3.2 7.79
5/29/2022 9:15:00 PM 20.42 68.756 0.197 7.43 3.39 7.75
5/29/2022 9:30:00 PM 20.34 68.612 0.197 7.4 3.27 7.71
5/29/2022 9:45:00 PM 20.24 68.432 0.197 7.39 3.54 7.68
5/29/2022 10:00:00 PM 20.13 68.234 0.197 7.38 3.37 7.67
5/29/2022 10:15:00 PM 20.03 68.054 0.197 7.37 3.55 7.66
5/29/2022 10:30:00 PM 19.93 67.874 0.197 7.37 3.57 7.67
5/29/2022 10:45:00 PM 19.82 67.676 0.197 7.37 3.44 7.67
5/29/2022 11:00:00 PM 19.72 67.496 0.197 7.36 3.49 7.69
5/29/2022 11:15:00 PM 19.62 67.316 0.197 7.35 3.41 7.69
5/29/2022 11:30:00 PM 19.53 67.154 0.197 7.35 3.59 7.71
5/29/2022 11:45:00 PM 19.42 66.956 0.196 7.35 3.6 7.72
5/30/2022 12:00:00 AM 19.33 66.794 0.196 7.35 3.62 7.73
5/30/2022 12:15:00 AM 19.23 66.614 0.196 7.35 3.55 7.76
5/30/2022 12:30:00 AM 19.14 66.452 0.196 7.34 3.67 7.78
5/30/2022 12:45:00 AM 19.04 66.272 0.196 7.34 3.61 7.8
5/30/2022 1:00:00 AM 18.95 66.11 0.196 7.34 3.54 7.81
5/30/2022 1:15:00 AM 18.85 65.93 0.196 7.33 3.54 7.84
5/30/2022 1:30:00 AM 18.76 65.768 0.196 7.33 3.64 7.85
5/30/2022 1:45:00 AM 18.66 65.588 0.196 7.33 3.53 7.87
5/30/2022 2:00:00 AM 18.57 65.426 0.196 7.33 3.9 7.9
5/30/2022 2:15:00 AM 18.49 65.282 0.196 7.33 3.59 7.91
5/30/2022 2:30:00 AM 18.39 65.102 0.196 7.33 3.58 7.93
5/30/2022 2:45:00 AM 18.3 64.94 0.196 7.33 3.7 7.96
5/30/2022 3:00:00 AM 18.22 64.796 0.196 7.32 3.68 7.96
5/30/2022 3:15:00 AM 18.13 64.634 0.196 7.33 3.74 7.99
5/30/2022 3:30:00 AM 18.04 64.472 0.196 7.33 3.55 8
5/30/2022 3:45:00 AM 17.95 64.31 0.196 7.32 3.54 8.03
5/30/2022 4:00:00 AM 17.87 64.166 0.196 7.32 3.66 8.03
5/30/2022 4:15:00 AM 17.78 64.004 0.196 7.33 3.56 8.06
5/30/2022 4:30:00 AM 17.7 63.86 0.196 7.31 3.48 8.08
5/30/2022 4:45:00 AM 17.62 63.716 0.196 7.35 3.34 8.08
5/30/2022 5:00:00 AM 17.53 63.554 0.196 7.31 3.6 8.1
5/30/2022 5:15:00 AM 17.45 63.41 0.196 7.32 3.65 8.1
5/30/2022 5:30:00 AM 17.36 63.248 0.196 7.32 3.6 8.11
5/30/2022 5:45:00 AM 17.28 63.104 0.196 7.33 3.81 8.15
5/30/2022 6:00:00 AM 17.22 62.996 0.196 7.32 3.75 8.15
5/30/2022 6:15:00 AM 17.22 62.996 0.196 7.32 3.75 8.15
5/30/2022 6:30:00 AM 17.07 62.726 0.195 7.34 3.45 8.25
5/30/2022 6:45:00 AM 17.07 62.726 0.195 7.34 3.45 8.25
5/30/2022 7:00:00 AM 16.98 62.564 0.195 7.38 3.23 8.4
5/30/2022 7:15:00 AM -99999.99 -179968 -99999.99 -99999.99 -99999.99 -99999.99
5/30/2022 7:30:00 AM -99999.99 -179968 -99999.99 -99999.99 -99999.99 -99999.99
5/30/2022 7:45:00 AM 16.93 62.474 0.195 7.39 3.49 8.71
5/30/2022 8:00:00 AM 16.95 62.51 0.195 7.41 3.36 8.8
5/30/2022 8:15:00 AM -99999.99 -179968 -99999.99 -99999.99 -99999.99 -99999.99
5/30/2022 8:30:00 AM -99999.99 -179968 -99999.99 -99999.99 -99999.99 -99999.99
5/30/2022 8:45:00 AM -99999.99 -179968 -99999.99 -99999.99 -99999.99 -99999.99
5/30/2022 9:00:00 AM -99999.99 -179968 -99999.99 -99999.99 -99999.99 -99999.99
5/30/2022 9:15:00 AM -99999.99 -179968 -99999.99 -99999.99 -99999.99 -99999.99
5/30/2022 9:30:00 AM -99999.99 -179968 -99999.99 -99999.99 -99999.99 -99999.99
5/30/2022 9:45:00 AM -99999.99 -179968 -99999.99 -99999.99 -99999.99 -99999.99
5/30/2022 10:00:00 AM -99999.99 -179968 -99999.99 -99999.99 -99999.99 -99999.99
5/30/2022 10:15:00 AM -99999.99 -179968 -99999.99 -99999.99 -99999.99 -99999.99
5/30/2022 10:30:00 AM -99999.99 -179968 -99999.99 -99999.99 -99999.99 -99999.99
5/30/2022 10:45:00 AM -99999.99 -179968 -99999.99 -99999.99 -99999.99 -99999.99
5/30/2022 11:00:00 AM -99999.99 -179968 -99999.99 -99999.99 -99999.99 -99999.99
5/30/2022 11:15:00 AM -99999.99 -179968 -99999.99 -99999.99 -99999.99 -99999.99
5/30/2022 11:30:00 AM -99999.99 -179968 -99999.99 -99999.99 -99999.99 -99999.99
5/30/2022 11:45:00 AM -99999.99 -179968 -99999.99 -99999.99 -99999.99 -99999.99
5/30/2022 12:00:00 PM -99999.99 -179968 -99999.99 -99999.99 -99999.99 -99999.99
5/30/2022 12:15:00 PM -99999.99 -179968 -99999.99 -99999.99 -99999.99 -99999.99
5/30/2022 12:30:00 PM -99999.99 -179968 -99999.99 -99999.99 -99999.99 -99999.99
5/30/2022 12:45:00 PM -99999.99 -179968 -99999.99 -99999.99 -99999.99 -99999.99
5/30/2022 1:00:00 PM -99999.99 -179968 -99999.99 -99999.99 -99999.99 -99999.99
5/30/2022 1:15:00 PM -99999.99 -179968 -99999.99 -99999.99 -99999.99 -99999.99
5/30/2022 1:30:00 PM -99999.99 -179968 -99999.99 -99999.99 -99999.99 -99999.99
5/30/2022 1:45:00 PM -99999.99 -179968 -99999.99 -99999.99 -99999.99 -99999.99
5/30/2022 2:00:00 PM -99999.99 -179968 -99999.99 -99999.99 -99999.99 -99999.99
5/30/2022 2:15:00 PM -99999.99 -179968 -99999.99 -99999.99 -99999.99 -99999.99
5/30/2022 2:30:00 PM -99999.99 -179968 -99999.99 -99999.99 -99999.99 -99999.99
5/30/2022 2:45:00 PM -99999.99 -179968 -99999.99 -99999.99 -99999.99 -99999.99
5/30/2022 3:00:00 PM -99999.99 -179968 -99999.99 -99999.99 -99999.99 -99999.99
5/30/2022 3:15:00 PM -99999.99 -179968 -99999.99 -99999.99 -99999.99 -99999.99
5/30/2022 3:30:00 PM -99999.99 -179968 -99999.99 -99999.99 -99999.99 -99999.99
5/30/2022 3:45:00 PM -99999.99 -179968 -99999.99 -99999.99 -99999.99 -99999.99
5/30/2022 4:00:00 PM -99999.99 -179968 -99999.99 -99999.99 -99999.99 -99999.99
5/30/2022 4:15:00 PM -99999.99 -179968 -99999.99 -99999.99 -99999.99 -99999.99
5/30/2022 4:30:00 PM -99999.99 -179968 -99999.99 -99999.99 -99999.99 -99999.99
5/30/2022 4:45:00 PM -99999.99 -179968 -99999.99 -99999.99 -99999.99 -99999.99
5/30/2022 5:00:00 PM -99999.99 -179968 -99999.99 -99999.99 -99999.99 -99999.99
5/30/2022 5:15:00 PM -99999.99 -179968 -99999.99 -99999.99 -99999.99 -99999.99
5/30/2022 5:30:00 PM -99999.99 -179968 -99999.99 -99999.99 -99999.99 -99999.99
5/30/2022 5:45:00 PM -99999.99 -179968 -99999.99 -99999.99 -99999.99 -99999.99
5/30/2022 6:00:00 PM -99999.99 -179968 -99999.99 -99999.99 -99999.99 -99999.99
5/30/2022 6:15:00 PM -99999.99 -179968 -99999.99 -99999.99 -99999.99 -99999.99
5/30/2022 6:30:00 PM -99999.99 -179968 -99999.99 -99999.99 -99999.99 -99999.99
5/30/2022 6:45:00 PM -99999.99 -179968 -99999.99 -99999.99 -99999.99 -99999.99
5/30/2022 7:00:00 PM -99999.99 -179968 -99999.99 -99999.99 -99999.99 -99999.99
5/30/2022 7:15:00 PM -99999.99 -179968 -99999.99 -99999.99 -99999.99 -99999.99
5/30/2022 7:30:00 PM -99999.99 -179968 -99999.99 -99999.99 -99999.99 -99999.99
5/30/2022 7:45:00 PM -99999.99 -179968 -99999.99 -99999.99 -99999.99 -99999.99
5/30/2022 8:00:00 PM -99999.99 -179968 -99999.99 -99999.99 -99999.99 -99999.99
5/30/2022 8:15:00 PM -99999.99 -179968 -99999.99 -99999.99 -99999.99 -99999.99
5/30/2022 8:30:00 PM -99999.99 -179968 -99999.99 -99999.99 -99999.99 -99999.99
5/30/2022 8:45:00 PM -99999.99 -179968 -99999.99 -99999.99 -99999.99 -99999.99
5/30/2022 9:00:00 PM -99999.99 -179968 -99999.99 -99999.99 -99999.99 -99999.99
5/30/2022 9:15:00 PM -99999.99 -179968 -99999.99 -99999.99 -99999.99 -99999.99
5/30/2022 9:30:00 PM -99999.99 -179968 -99999.99 -99999.99 -99999.99 -99999.99
5/30/2022 9:45:00 PM -99999.99 -179968 -99999.99 -99999.99 -99999.99 -99999.99
5/30/2022 10:00:00 PM -99999.99 -179968 -99999.99 -99999.99 -99999.99 -99999.99
5/30/2022 10:15:00 PM -99999.99 -179968 -99999.99 -99999.99 -99999.99 -99999.99
5/30/2022 10:30:00 PM -99999.99 -179968 -99999.99 -99999.99 -99999.99 -99999.99
5/30/2022 10:45:00 PM -99999.99 -179968 -99999.99 -99999.99 -99999.99 -99999.99
5/30/2022 11:00:00 PM -99999.99 -179968 -99999.99 -99999.99 -99999.99 -99999.99
5/30/2022 11:15:00 PM -99999.99 -179968 -99999.99 -99999.99 -99999.99 -99999.99
5/30/2022 11:30:00 PM -99999.99 -179968 -99999.99 -99999.99 -99999.99 -99999.99
5/30/2022 11:45:00 PM -99999.99 -179968 -99999.99 -99999.99 -99999.99 -99999.99
5/31/2022 12:00:00 AM -99999.99 -179968 -99999.99 -99999.99 -99999.99 -99999.99
5/31/2022 12:15:00 AM -99999.99 -179968 -99999.99 -99999.99 -99999.99 -99999.99
5/31/2022 12:30:00 AM -99999.99 -179968 -99999.99 -99999.99 -99999.99 -99999.99
5/31/2022 12:45:00 AM -99999.99 -179968 -99999.99 -99999.99 -99999.99 -99999.99
5/31/2022 1:00:00 AM -99999.99 -179968 -99999.99 -99999.99 -99999.99 -99999.99
5/31/2022 1:15:00 AM -99999.99 -179968 -99999.99 -99999.99 -99999.99 -99999.99
5/31/2022 1:30:00 AM -99999.99 -179968 -99999.99 -99999.99 -99999.99 -99999.99
5/31/2022 1:45:00 AM -99999.99 -179968 -99999.99 -99999.99 -99999.99 -99999.99
5/31/2022 2:00:00 AM -99999.99 -179968 -99999.99 -99999.99 -99999.99 -99999.99
5/31/2022 2:15:00 AM -99999.99 -179968 -99999.99 -99999.99 -99999.99 -99999.99
5/31/2022 2:30:00 AM -99999.99 -179968 -99999.99 -99999.99 -99999.99 -99999.99
5/31/2022 2:45:00 AM -99999.99 -179968 -99999.99 -99999.99 -99999.99 -99999.99
5/31/2022 3:00:00 AM -99999.99 -179968 -99999.99 -99999.99 -99999.99 -99999.99
5/31/2022 3:15:00 AM -99999.99 -179968 -99999.99 -99999.99 -99999.99 -99999.99
5/31/2022 3:30:00 AM -99999.99 -179968 -99999.99 -99999.99 -99999.99 -99999.99
5/31/2022 3:45:00 AM -99999.99 -179968 -99999.99 -99999.99 -99999.99 -99999.99
5/31/2022 4:00:00 AM -99999.99 -179968 -99999.99 -99999.99 -99999.99 -99999.99
5/31/2022 4:15:00 AM -99999.99 -179968 -99999.99 -99999.99 -99999.99 -99999.99
5/31/2022 4:30:00 AM -99999.99 -179968 -99999.99 -99999.99 -99999.99 -99999.99
5/31/2022 4:45:00 AM -99999.99 -179968 -99999.99 -99999.99 -99999.99 -99999.99
5/31/2022 5:00:00 AM -99999.99 -179968 -99999.99 -99999.99 -99999.99 -99999.99
5/31/2022 5:15:00 AM -99999.99 -179968 -99999.99 -99999.99 -99999.99 -99999.99
5/31/2022 5:30:00 AM -99999.99 -179968 -99999.99 -99999.99 -99999.99 -99999.99
5/31/2022 5:45:00 AM -99999.99 -179968 -99999.99 -99999.99 -99999.99 -99999.99
5/31/2022 6:00:00 AM -99999.99 -179968 -99999.99 -99999.99 -99999.99 -99999.99
5/31/2022 6:15:00 AM -99999.99 -179968 -99999.99 -99999.99 -99999.99 -99999.99
5/31/2022 6:30:00 AM -99999.99 -179968 -99999.99 -99999.99 -99999.99 -99999.99
5/31/2022 6:45:00 AM -99999.99 -179968 -99999.99 -99999.99 -99999.99 -99999.99
5/31/2022 7:00:00 AM -99999.99 -179968 -99999.99 -99999.99 -99999.99 -99999.99
5/31/2022 7:15:00 AM -99999.99 -179968 -99999.99 -99999.99 -99999.99 -99999.99
5/31/2022 7:30:00 AM -99999.99 -179968 -99999.99 -99999.99 -99999.99 -99999.99
5/31/2022 7:45:00 AM -99999.99 -179968 -99999.99 -99999.99 -99999.99 -99999.99
5/31/2022 8:00:00 AM -99999.99 -179968 -99999.99 -99999.99 -99999.99 -99999.99
5/31/2022 8:15:00 AM -99999.99 -179968 -99999.99 -99999.99 -99999.99 -99999.99
5/31/2022 8:30:00 AM -99999.99 -179968 -99999.99 -99999.99 -99999.99 -99999.99
5/31/2022 8:45:00 AM -99999.99 -179968 -99999.99 -99999.99 -99999.99 -99999.99
5/31/2022 9:00:00 AM -99999.99 -179968 -99999.99 -99999.99 -99999.99 -99999.99
5/31/2022 9:15:00 AM -99999.99 -179968 -99999.99 -99999.99 -99999.99 -99999.99
5/31/2022 9:30:00 AM -99999.99 -179968 -99999.99 -99999.99 -99999.99 -99999.99
5/31/2022 9:45:00 AM -99999.99 -179968 -99999.99 -99999.99 -99999.99 -99999.99
5/31/2022 10:00:00 AM -99999.99 -179968 -99999.99 -99999.99 -99999.99 -99999.99
5/31/2022 10:15:00 AM -99999.99 -179968 -99999.99 -99999.99 -99999.99 -99999.99
5/31/2022 10:30:00 AM -99999.99 -179968 -99999.99 -99999.99 -99999.99 -99999.99
5/31/2022 10:45:00 AM -99999.99 -179968 -99999.99 -99999.99 -99999.99 -99999.99
5/31/2022 11:00:00 AM -99999.99 -179968 -99999.99 -99999.99 -99999.99 -99999.99
5/31/2022 11:15:00 AM -99999.99 -179968 -99999.99 -99999.99 -99999.99 -99999.99
5/31/2022 11:30:00 AM -99999.99 -179968 -99999.99 -99999.99 -99999.99 -99999.99
5/31/2022 11:45:00 AM -99999.99 -179968 -99999.99 -99999.99 -99999.99 -99999.99
5/31/2022 12:00:00 PM -99999.99 -179968 -99999.99 -99999.99 -99999.99 -99999.99
5/31/2022 12:15:00 PM -99999.99 -179968 -99999.99 -99999.99 -99999.99 -99999.99
5/31/2022 12:30:00 PM -99999.99 -179968 -99999.99 -99999.99 -99999.99 -99999.99
5/31/2022 12:45:00 PM -99999.99 -179968 -99999.99 -99999.99 -99999.99 -99999.99
5/31/2022 1:00:00 PM -99999.99 -179968 -99999.99 -99999.99 -99999.99 -99999.99
5/31/2022 1:15:00 PM -99999.99 -179968 -99999.99 -99999.99 -99999.99 -99999.99
5/31/2022 1:30:00 PM -99999.99 -179968 -99999.99 -99999.99 -99999.99 -99999.99
5/31/2022 1:45:00 PM -99999.99 -179968 -99999.99 -99999.99 -99999.99 -99999.99
5/31/2022 2:00:00 PM -99999.99 -179968 -99999.99 -99999.99 -99999.99 -99999.99
5/31/2022 2:15:00 PM -99999.99 -179968 -99999.99 -99999.99 -99999.99 -99999.99
5/31/2022 2:30:00 PM -99999.99 -179968 -99999.99 -99999.99 -99999.99 -99999.99
5/31/2022 2:45:00 PM -99999.99 -179968 -99999.99 -99999.99 -99999.99 -99999.99
5/31/2022 3:00:00 PM -99999.99 -179968 -99999.99 -99999.99 -99999.99 -99999.99
5/31/2022 3:15:00 PM -99999.99 -179968 -99999.99 -99999.99 -99999.99 -99999.99
5/31/2022 3:30:00 PM -99999.99 -179968 -99999.99 -99999.99 -99999.99 -99999.99
5/31/2022 3:45:00 PM -99999.99 -179968 -99999.99 -99999.99 -99999.99 -99999.99
5/31/2022 4:00:00 PM -99999.99 -179968 -99999.99 -99999.99 -99999.99 -99999.99
5/31/2022 4:15:00 PM -99999.99 -179968 -99999.99 -99999.99 -99999.99 -99999.99
5/31/2022 4:30:00 PM -99999.99 -179968 -99999.99 -99999.99 -99999.99 -99999.99
5/31/2022 4:45:00 PM -99999.99 -179968 -99999.99 -99999.99 -99999.99 -99999.99
5/31/2022 5:00:00 PM -99999.99 -179968 -99999.99 -99999.99 -99999.99 -99999.99
5/31/2022 5:15:00 PM -99999.99 -179968 -99999.99 -99999.99 -99999.99 -99999.99
5/31/2022 5:30:00 PM -99999.99 -179968 -99999.99 -99999.99 -99999.99 -99999.99
5/31/2022 5:45:00 PM -99999.99 -179968 -99999.99 -99999.99 -99999.99 -99999.99
5/31/2022 6:00:00 PM -99999.99 -179968 -99999.99 -99999.99 -99999.99 -99999.99
5/31/2022 6:15:00 PM -99999.99 -179968 -99999.99 -99999.99 -99999.99 -99999.99
5/31/2022 6:30:00 PM -99999.99 -179968 -99999.99 -99999.99 -99999.99 -99999.99
5/31/2022 6:45:00 PM -99999.99 -179968 -99999.99 -99999.99 -99999.99 -99999.99
5/31/2022 7:00:00 PM -99999.99 -179968 -99999.99 -99999.99 -99999.99 -99999.99
5/31/2022 7:15:00 PM -99999.99 -179968 -99999.99 -99999.99 -99999.99 -99999.99
5/31/2022 7:30:00 PM -99999.99 -179968 -99999.99 -99999.99 -99999.99 -99999.99
5/31/2022 7:45:00 PM -99999.99 -179968 -99999.99 -99999.99 -99999.99 -99999.99
5/31/2022 8:00:00 PM -99999.99 -179968 -99999.99 -99999.99 -99999.99 -99999.99
5/31/2022 8:15:00 PM -99999.99 -179968 -99999.99 -99999.99 -99999.99 -99999.99
5/31/2022 8:30:00 PM -99999.99 -179968 -99999.99 -99999.99 -99999.99 -99999.99
5/31/2022 8:45:00 PM -99999.99 -179968 -99999.99 -99999.99 -99999.99 -99999.99
5/31/2022 9:00:00 PM -99999.99 -179968 -99999.99 -99999.99 -99999.99 -99999.99
5/31/2022 9:15:00 PM -99999.99 -179968 -99999.99 -99999.99 -99999.99 -99999.99
5/31/2022 9:30:00 PM -99999.99 -179968 -99999.99 -99999.99 -99999.99 -99999.99
5/31/2022 9:45:00 PM -99999.99 -179968 -99999.99 -99999.99 -99999.99 -99999.99
5/31/2022 10:00:00 PM -99999.99 -179968 -99999.99 -99999.99 -99999.99 -99999.99
5/31/2022 10:15:00 PM -99999.99 -179968 -99999.99 -99999.99 -99999.99 -99999.99
5/31/2022 10:30:00 PM -99999.99 -179968 -99999.99 -99999.99 -99999.99 -99999.99
5/31/2022 10:45:00 PM -99999.99 -179968 -99999.99 -99999.99 -99999.99 -99999.99
5/31/2022 11:00:00 PM -99999.99 -179968 -99999.99 -99999.99 -99999.99 -99999.99
5/31/2022 11:15:00 PM -99999.99 -179968 -99999.99 -99999.99 -99999.99 -99999.99
5/31/2022 11:30:00 PM -99999.99 -179968 -99999.99 -99999.99 -99999.99 -99999.99
5/31/2022 11:45:00 PM -99999.99 -179968 -99999.99 -99999.99 -99999.99 -99999.99
6/1/2022 12:00:00 AM -99999.99 -179968 -99999.99 -99999.99 -99999.99 -99999.99
6/1/2022 12:15:00 AM -99999.99 -179968 -99999.99 -99999.99 -99999.99 -99999.99
6/1/2022 12:30:00 AM -99999.99 -179968 -99999.99 -99999.99 -99999.99 -99999.99
6/1/2022 12:45:00 AM -99999.99 -179968 -99999.99 -99999.99 -99999.99 -99999.99
6/1/2022 1:00:00 AM -99999.99 -179968 -99999.99 -99999.99 -99999.99 -99999.99
6/1/2022 1:15:00 AM -99999.99 -179968 -99999.99 -99999.99 -99999.99 -99999.99
6/1/2022 1:30:00 AM -99999.99 -179968 -99999.99 -99999.99 -99999.99 -99999.99
6/1/2022 1:45:00 AM -99999.99 -179968 -99999.99 -99999.99 -99999.99 -99999.99
6/1/2022 2:00:00 AM -99999.99 -179968 -99999.99 -99999.99 -99999.99 -99999.99
6/1/2022 2:15:00 AM -99999.99 -179968 -99999.99 -99999.99 -99999.99 -99999.99
6/1/2022 2:30:00 AM -99999.99 -179968 -99999.99 -99999.99 -99999.99 -99999.99
6/1/2022 2:45:00 AM -99999.99 -179968 -99999.99 -99999.99 -99999.99 -99999.99
6/1/2022 3:00:00 AM -99999.99 -179968 -99999.99 -99999.99 -99999.99 -99999.99
6/1/2022 3:15:00 AM -99999.99 -179968 -99999.99 -99999.99 -99999.99 -99999.99
6/1/2022 3:30:00 AM -99999.99 -179968 -99999.99 -99999.99 -99999.99 -99999.99
6/1/2022 3:45:00 AM -99999.99 -179968 -99999.99 -99999.99 -99999.99 -99999.99
6/1/2022 4:00:00 AM -99999.99 -179968 -99999.99 -99999.99 -99999.99 -99999.99
6/1/2022 4:15:00 AM -99999.99 -179968 -99999.99 -99999.99 -99999.99 -99999.99
6/1/2022 4:30:00 AM -99999.99 -179968 -99999.99 -99999.99 -99999.99 -99999.99
6/1/2022 4:45:00 AM -99999.99 -179968 -99999.99 -99999.99 -99999.99 -99999.99
6/1/2022 5:00:00 AM -99999.99 -179968 -99999.99 -99999.99 -99999.99 -99999.99
6/1/2022 5:15:00 AM -99999.99 -179968 -99999.99 -99999.99 -99999.99 -99999.99
6/1/2022 5:30:00 AM -99999.99 -179968 -99999.99 -99999.99 -99999.99 -99999.99
6/1/2022 5:45:00 AM -99999.99 -179968 -99999.99 -99999.99 -99999.99 -99999.99
6/1/2022 6:00:00 AM -99999.99 -179968 -99999.99 -99999.99 -99999.99 -99999.99
6/1/2022 6:15:00 AM -99999.99 -179968 -99999.99 -99999.99 -99999.99 -99999.99
6/1/2022 6:30:00 AM -99999.99 -179968 -99999.99 -99999.99 -99999.99 -99999.99
6/1/2022 6:45:00 AM -99999.99 -179968 -99999.99 -99999.99 -99999.99 -99999.99
6/1/2022 7:00:00 AM -99999.99 -179968 -99999.99 -99999.99 -99999.99 -99999.99
6/1/2022 7:15:00 AM -99999.99 -179968 -99999.99 -99999.99 -99999.99 -99999.99
6/1/2022 7:30:00 AM -99999.99 -179968 -99999.99 -99999.99 -99999.99 -99999.99
6/1/2022 7:45:00 AM -99999.99 -179968 -99999.99 -99999.99 -99999.99 -99999.99
6/1/2022 8:00:00 AM -99999.99 -179968 -99999.99 -99999.99 -99999.99 -99999.99
6/1/2022 8:15:00 AM -99999.99 -179968 -99999.99 -99999.99 -99999.99 -99999.99
6/1/2022 8:30:00 AM -99999.99 -179968 -99999.99 -99999.99 -99999.99 -99999.99
6/1/2022 8:45:00 AM -99999.99 -179968 -99999.99 -99999.99 -99999.99 -99999.99
6/1/2022 9:00:00 AM -99999.99 -179968 -99999.99 -99999.99 -99999.99 -99999.99
6/1/2022 9:15:00 AM -99999.99 -179968 -99999.99 -99999.99 -99999.99 -99999.99
6/1/2022 9:30:00 AM -99999.99 -179968 -99999.99 -99999.99 -99999.99 -99999.99
6/1/2022 9:45:00 AM -99999.99 -179968 -99999.99 -99999.99 -99999.99 -99999.99
6/1/2022 10:00:00 AM -99999.99 -179968 -99999.99 -99999.99 -99999.99 -99999.99
6/1/2022 10:15:00 AM -99999.99 -179968 -99999.99 -99999.99 -99999.99 -99999.99
6/1/2022 10:30:00 AM -99999.99 -179968 -99999.99 -99999.99 -99999.99 -99999.99
6/1/2022 10:45:00 AM -99999.99 -179968 -99999.99 -99999.99 -99999.99 -99999.99
6/1/2022 11:00:00 AM -99999.99 -179968 -99999.99 -99999.99 -99999.99 -99999.99
6/1/2022 11:15:00 AM -99999.99 -179968 -99999.99 -99999.99 -99999.99 -99999.99
6/1/2022 11:30:00 AM -99999.99 -179968 -99999.99 -99999.99 -99999.99 -99999.99
6/1/2022 11:45:00 AM -99999.99 -179968 -99999.99 -99999.99 -99999.99 -99999.99
6/1/2022 12:00:00 PM -99999.99 -179968 -99999.99 -99999.99 -99999.99 -99999.99
6/1/2022 12:15:00 PM -99999.99 -179968 -99999.99 -99999.99 -99999.99 -99999.99
6/1/2022 12:30:00 PM -99999.99 -179968 -99999.99 -99999.99 -99999.99 -99999.99
6/1/2022 12:45:00 PM -99999.99 -179968 -99999.99 -99999.99 -99999.99 -99999.99
6/1/2022 1:00:00 PM -99999.99 -179968 -99999.99 -99999.99 -99999.99 -99999.99
6/1/2022 1:15:00 PM -99999.99 -179968 -99999.99 -99999.99 -99999.99 -99999.99
6/1/2022 1:30:00 PM -99999.99 -179968 -99999.99 -99999.99 -99999.99 -99999.99
6/1/2022 1:45:00 PM -99999.99 -179968 -99999.99 -99999.99 -99999.99 -99999.99
6/1/2022 2:00:00 PM -99999.99 -179968 -99999.99 -99999.99 -99999.99 -99999.99
6/1/2022 2:15:00 PM -99999.99 -179968 -99999.99 -99999.99 -99999.99 -99999.99
6/1/2022 2:30:00 PM -99999.99 -179968 -99999.99 -99999.99 -99999.99 -99999.99
6/1/2022 2:45:00 PM -99999.99 -179968 -99999.99 -99999.99 -99999.99 -99999.99
6/1/2022 3:00:00 PM -99999.99 -179968 -99999.99 -99999.99 -99999.99 -99999.99
6/1/2022 3:15:00 PM -99999.99 -179968 -99999.99 -99999.99 -99999.99 -99999.99
6/1/2022 3:30:00 PM -99999.99 -179968 -99999.99 -99999.99 -99999.99 -99999.99
6/1/2022 3:45:00 PM -99999.99 -179968 -99999.99 -99999.99 -99999.99 -99999.99
6/1/2022 4:00:00 PM -99999.99 -179968 -99999.99 -99999.99 -99999.99 -99999.99
6/1/2022 4:15:00 PM -99999.99 -179968 -99999.99 -99999.99 -99999.99 -99999.99
6/1/2022 4:30:00 PM -99999.99 -179968 -99999.99 -99999.99 -99999.99 -99999.99
6/1/2022 4:45:00 PM -99999.99 -179968 -99999.99 -99999.99 -99999.99 -99999.99
6/1/2022 5:00:00 PM -99999.99 -179968 -99999.99 -99999.99 -99999.99 -99999.99
6/1/2022 5:15:00 PM -99999.99 -179968 -99999.99 -99999.99 -99999.99 -99999.99
6/1/2022 5:30:00 PM -99999.99 -179968 -99999.99 -99999.99 -99999.99 -99999.99
6/1/2022 5:45:00 PM -99999.99 -179968 -99999.99 -99999.99 -99999.99 -99999.99
6/1/2022 6:00:00 PM -99999.99 -179968 -99999.99 -99999.99 -99999.99 -99999.99
6/1/2022 6:15:00 PM -99999.99 -179968 -99999.99 -99999.99 -99999.99 -99999.99
6/1/2022 6:30:00 PM -99999.99 -179968 -99999.99 -99999.99 -99999.99 -99999.99
6/1/2022 6:45:00 PM -99999.99 -179968 -99999.99 -99999.99 -99999.99 -99999.99
6/1/2022 7:00:00 PM -99999.99 -179968 -99999.99 -99999.99 -99999.99 -99999.99
6/1/2022 7:15:00 PM -99999.99 -179968 -99999.99 -99999.99 -99999.99 -99999.99
6/1/2022 7:30:00 PM -99999.99 -179968 -99999.99 -99999.99 -99999.99 -99999.99
6/1/2022 7:45:00 PM -99999.99 -179968 -99999.99 -99999.99 -99999.99 -99999.99
6/1/2022 8:00:00 PM -99999.99 -179968 -99999.99 -99999.99 -99999.99 -99999.99
6/1/2022 8:15:00 PM -99999.99 -179968 -99999.99 -99999.99 -99999.99 -99999.99
6/1/2022 8:30:00 PM -99999.99 -179968 -99999.99 -99999.99 -99999.99 -99999.99
6/1/2022 8:45:00 PM -99999.99 -179968 -99999.99 -99999.99 -99999.99 -99999.99
6/1/2022 9:00:00 PM -99999.99 -179968 -99999.99 -99999.99 -99999.99 -99999.99
6/1/2022 9:15:00 PM -99999.99 -179968 -99999.99 -99999.99 -99999.99 -99999.99
6/1/2022 9:30:00 PM -99999.99 -179968 -99999.99 -99999.99 -99999.99 -99999.99
6/1/2022 9:45:00 PM -99999.99 -179968 -99999.99 -99999.99 -99999.99 -99999.99
6/1/2022 10:00:00 PM -99999.99 -179968 -99999.99 -99999.99 -99999.99 -99999.99
6/1/2022 10:15:00 PM -99999.99 -179968 -99999.99 -99999.99 -99999.99 -99999.99
6/1/2022 10:30:00 PM -99999.99 -179968 -99999.99 -99999.99 -99999.99 -99999.99
6/1/2022 10:45:00 PM -99999.99 -179968 -99999.99 -99999.99 -99999.99 -99999.99
6/1/2022 11:00:00 PM -99999.99 -179968 -99999.99 -99999.99 -99999.99 -99999.99
6/1/2022 11:15:00 PM -99999.99 -179968 -99999.99 -99999.99 -99999.99 -99999.99
6/1/2022 11:30:00 PM -99999.99 -179968 -99999.99 -99999.99 -99999.99 -99999.99
6/1/2022 11:45:00 PM -99999.99 -179968 -99999.99 -99999.99 -99999.99 -99999.99
6/2/2022 12:00:00 AM -99999.99 -179968 -99999.99 -99999.99 -99999.99 -99999.99
6/2/2022 12:15:00 AM -99999.99 -179968 -99999.99 -99999.99 -99999.99 -99999.99
6/2/2022 12:30:00 AM -99999.99 -179968 -99999.99 -99999.99 -99999.99 -99999.99
6/2/2022 12:45:00 AM -99999.99 -179968 -99999.99 -99999.99 -99999.99 -99999.99
6/2/2022 1:00:00 AM -99999.99 -179968 -99999.99 -99999.99 -99999.99 -99999.99
6/2/2022 1:15:00 AM -99999.99 -179968 -99999.99 -99999.99 -99999.99 -99999.99
6/2/2022 1:30:00 AM -99999.99 -179968 -99999.99 -99999.99 -99999.99 -99999.99
6/2/2022 1:45:00 AM -99999.99 -179968 -99999.99 -99999.99 -99999.99 -99999.99
6/2/2022 2:00:00 AM -99999.99 -179968 -99999.99 -99999.99 -99999.99 -99999.99
6/2/2022 2:15:00 AM -99999.99 -179968 -99999.99 -99999.99 -99999.99 -99999.99
6/2/2022 2:30:00 AM -99999.99 -179968 -99999.99 -99999.99 -99999.99 -99999.99
6/2/2022 2:45:00 AM -99999.99 -179968 -99999.99 -99999.99 -99999.99 -99999.99
6/2/2022 3:00:00 AM -99999.99 -179968 -99999.99 -99999.99 -99999.99 -99999.99
6/2/2022 3:15:00 AM -99999.99 -179968 -99999.99 -99999.99 -99999.99 -99999.99
6/2/2022 3:30:00 AM -99999.99 -179968 -99999.99 -99999.99 -99999.99 -99999.99
6/2/2022 3:45:00 AM -99999.99 -179968 -99999.99 -99999.99 -99999.99 -99999.99
6/2/2022 4:00:00 AM -99999.99 -179968 -99999.99 -99999.99 -99999.99 -99999.99
6/2/2022 4:15:00 AM -99999.99 -179968 -99999.99 -99999.99 -99999.99 -99999.99
6/2/2022 4:30:00 AM -99999.99 -179968 -99999.99 -99999.99 -99999.99 -99999.99
6/2/2022 4:45:00 AM -99999.99 -179968 -99999.99 -99999.99 -99999.99 -99999.99
6/2/2022 5:00:00 AM -99999.99 -179968 -99999.99 -99999.99 -99999.99 -99999.99
6/2/2022 5:15:00 AM -99999.99 -179968 -99999.99 -99999.99 -99999.99 -99999.99
6/2/2022 5:30:00 AM -99999.99 -179968 -99999.99 -99999.99 -99999.99 -99999.99
6/2/2022 5:45:00 AM -99999.99 -179968 -99999.99 -99999.99 -99999.99 -99999.99
6/2/2022 6:00:00 AM -99999.99 -179968 -99999.99 -99999.99 -99999.99 -99999.99
6/2/2022 6:15:00 AM -99999.99 -179968 -99999.99 -99999.99 -99999.99 -99999.99
6/2/2022 6:30:00 AM -99999.99 -179968 -99999.99 -99999.99 -99999.99 -99999.99
6/2/2022 6:45:00 AM -99999.99 -179968 -99999.99 -99999.99 -99999.99 -99999.99
6/2/2022 7:00:00 AM -99999.99 -179968 -99999.99 -99999.99 -99999.99 -99999.99
6/2/2022 7:15:00 AM -99999.99 -179968 -99999.99 -99999.99 -99999.99 -99999.99
6/2/2022 7:30:00 AM -99999.99 -179968 -99999.99 -99999.99 -99999.99 -99999.99
6/2/2022 7:45:00 AM -99999.99 -179968 -99999.99 -99999.99 -99999.99 -99999.99
6/2/2022 8:00:00 AM -99999.99 -179968 -99999.99 -99999.99 -99999.99 -99999.99
6/2/2022 8:15:00 AM -99999.99 -179968 -99999.99 -99999.99 -99999.99 -99999.99
6/2/2022 8:30:00 AM -99999.99 -179968 -99999.99 -99999.99 -99999.99 -99999.99
6/2/2022 8:45:00 AM -99999.99 -179968 -99999.99 -99999.99 -99999.99 -99999.99
6/2/2022 9:00:00 AM -99999.99 -179968 -99999.99 -99999.99 -99999.99 -99999.99
6/2/2022 9:15:00 AM -99999.99 -179968 -99999.99 -99999.99 -99999.99 -99999.99
6/2/2022 9:30:00 AM -99999.99 -179968 -99999.99 -99999.99 -99999.99 -99999.99
6/2/2022 9:45:00 AM -99999.99 -179968 -99999.99 -99999.99 -99999.99 -99999.99
6/2/2022 10:00:00 AM -99999.99 -179968 -99999.99 -99999.99 -99999.99 -99999.99
6/2/2022 10:15:00 AM -99999.99 -179968 -99999.99 -99999.99 -99999.99 -99999.99
6/2/2022 10:30:00 AM -99999.99 -179968 -99999.99 -99999.99 -99999.99 -99999.99
6/2/2022 10:45:00 AM -99999.99 -179968 -99999.99 -99999.99 -99999.99 -99999.99
6/2/2022 11:00:00 AM -99999.99 -179968 -99999.99 -99999.99 -99999.99 -99999.99
6/2/2022 11:15:00 AM -99999.99 -179968 -99999.99 -99999.99 -99999.99 -99999.99
6/2/2022 11:30:00 AM -99999.99 -179968 -99999.99 -99999.99 -99999.99 -99999.99
6/2/2022 11:45:00 AM -99999.99 -179968 -99999.99 -99999.99 -99999.99 -99999.99
6/2/2022 12:00:00 PM -99999.99 -179968 -99999.99 -99999.99 -99999.99 -99999.99
6/2/2022 12:15:00 PM -99999.99 -179968 -99999.99 -99999.99 -99999.99 -99999.99
6/2/2022 12:30:00 PM -99999.99 -179968 -99999.99 -99999.99 -99999.99 -99999.99
6/2/2022 12:45:00 PM -99999.99 -179968 -99999.99 -99999.99 -99999.99 -99999.99
6/2/2022 1:00:00 PM -99999.99 -179968 -99999.99 -99999.99 -99999.99 -99999.99
6/2/2022 1:15:00 PM -99999.99 -179968 -99999.99 -99999.99 -99999.99 -99999.99
6/2/2022 1:30:00 PM -99999.99 -179968 -99999.99 -99999.99 -99999.99 -99999.99
6/2/2022 1:45:00 PM -99999.99 -179968 -99999.99 -99999.99 -99999.99 -99999.99
6/2/2022 2:00:00 PM -99999.99 -179968 -99999.99 -99999.99 -99999.99 -99999.99
6/2/2022 2:15:00 PM -99999.99 -179968 -99999.99 -99999.99 -99999.99 -99999.99
6/2/2022 2:30:00 PM -99999.99 -179968 -99999.99 -99999.99 -99999.99 -99999.99
6/2/2022 2:45:00 PM -99999.99 -179968 -99999.99 -99999.99 -99999.99 -99999.99
6/2/2022 3:00:00 PM -99999.99 -179968 -99999.99 -99999.99 -99999.99 -99999.99
6/2/2022 3:15:00 PM -99999.99 -179968 -99999.99 -99999.99 -99999.99 -99999.99
6/2/2022 3:30:00 PM -99999.99 -179968 -99999.99 -99999.99 -99999.99 -99999.99
6/2/2022 3:45:00 PM -99999.99 -179968 -99999.99 -99999.99 -99999.99 -99999.99
6/2/2022 4:00:00 PM -99999.99 -179968 -99999.99 -99999.99 -99999.99 -99999.99
6/2/2022 4:15:00 PM -99999.99 -179968 -99999.99 -99999.99 -99999.99 -99999.99
6/2/2022 4:30:00 PM -99999.99 -179968 -99999.99 -99999.99 -99999.99 -99999.99
6/2/2022 4:45:00 PM -99999.99 -179968 -99999.99 -99999.99 -99999.99 -99999.99
6/2/2022 5:00:00 PM -99999.99 -179968 -99999.99 -99999.99 -99999.99 -99999.99
6/2/2022 5:15:00 PM -99999.99 -179968 -99999.99 -99999.99 -99999.99 -99999.99
6/2/2022 5:30:00 PM -99999.99 -179968 -99999.99 -99999.99 -99999.99 -99999.99
6/2/2022 5:45:00 PM -99999.99 -179968 -99999.99 -99999.99 -99999.99 -99999.99
6/2/2022 6:00:00 PM -99999.99 -179968 -99999.99 -99999.99 -99999.99 -99999.99
6/2/2022 6:15:00 PM -99999.99 -179968 -99999.99 -99999.99 -99999.99 -99999.99
6/2/2022 6:30:00 PM -99999.99 -179968 -99999.99 -99999.99 -99999.99 -99999.99
6/2/2022 6:45:00 PM -99999.99 -179968 -99999.99 -99999.99 -99999.99 -99999.99
6/2/2022 7:00:00 PM -99999.99 -179968 -99999.99 -99999.99 -99999.99 -99999.99
6/2/2022 7:15:00 PM -99999.99 -179968 -99999.99 -99999.99 -99999.99 -99999.99
6/2/2022 7:30:00 PM -99999.99 -179968 -99999.99 -99999.99 -99999.99 -99999.99
6/2/2022 7:45:00 PM -99999.99 -179968 -99999.99 -99999.99 -99999.99 -99999.99
6/2/2022 8:00:00 PM -99999.99 -179968 -99999.99 -99999.99 -99999.99 -99999.99
6/2/2022 8:15:00 PM -99999.99 -179968 -99999.99 -99999.99 -99999.99 -99999.99
6/2/2022 8:30:00 PM -99999.99 -179968 -99999.99 -99999.99 -99999.99 -99999.99
6/2/2022 8:45:00 PM -99999.99 -179968 -99999.99 -99999.99 -99999.99 -99999.99
6/2/2022 9:00:00 PM -99999.99 -179968 -99999.99 -99999.99 -99999.99 -99999.99
6/2/2022 9:15:00 PM -99999.99 -179968 -99999.99 -99999.99 -99999.99 -99999.99
6/2/2022 9:30:00 PM -99999.99 -179968 -99999.99 -99999.99 -99999.99 -99999.99
6/2/2022 9:45:00 PM -99999.99 -179968 -99999.99 -99999.99 -99999.99 -99999.99
6/2/2022 10:00:00 PM -99999.99 -179968 -99999.99 -99999.99 -99999.99 -99999.99
6/2/2022 10:15:00 PM -99999.99 -179968 -99999.99 -99999.99 -99999.99 -99999.99
6/2/2022 10:30:00 PM -99999.99 -179968 -99999.99 -99999.99 -99999.99 -99999.99
6/2/2022 10:45:00 PM -99999.99 -179968 -99999.99 -99999.99 -99999.99 -99999.99
6/2/2022 11:00:00 PM -99999.99 -179968 -99999.99 -99999.99 -99999.99 -99999.99
6/2/2022 11:15:00 PM -99999.99 -179968 -99999.99 -99999.99 -99999.99 -99999.99
6/2/2022 11:30:00 PM -99999.99 -179968 -99999.99 -99999.99 -99999.99 -99999.99
6/2/2022 11:45:00 PM -99999.99 -179968 -99999.99 -99999.99 -99999.99 -99999.99
6/3/2022 12:00:00 AM -99999.99 -179968 -99999.99 -99999.99 -99999.99 -99999.99
6/3/2022 12:15:00 AM -99999.99 -179968 -99999.99 -99999.99 -99999.99 -99999.99
6/3/2022 12:30:00 AM -99999.99 -179968 -99999.99 -99999.99 -99999.99 -99999.99
6/3/2022 12:45:00 AM -99999.99 -179968 -99999.99 -99999.99 -99999.99 -99999.99
6/3/2022 1:00:00 AM -99999.99 -179968 -99999.99 -99999.99 -99999.99 -99999.99
6/3/2022 1:15:00 AM -99999.99 -179968 -99999.99 -99999.99 -99999.99 -99999.99
6/3/2022 1:30:00 AM -99999.99 -179968 -99999.99 -99999.99 -99999.99 -99999.99
6/3/2022 1:45:00 AM -99999.99 -179968 -99999.99 -99999.99 -99999.99 -99999.99
6/3/2022 2:00:00 AM -99999.99 -179968 -99999.99 -99999.99 -99999.99 -99999.99
6/3/2022 2:15:00 AM -99999.99 -179968 -99999.99 -99999.99 -99999.99 -99999.99
6/3/2022 2:30:00 AM -99999.99 -179968 -99999.99 -99999.99 -99999.99 -99999.99
6/3/2022 2:45:00 AM -99999.99 -179968 -99999.99 -99999.99 -99999.99 -99999.99
6/3/2022 3:00:00 AM -99999.99 -179968 -99999.99 -99999.99 -99999.99 -99999.99
6/3/2022 3:15:00 AM -99999.99 -179968 -99999.99 -99999.99 -99999.99 -99999.99
6/3/2022 3:30:00 AM -99999.99 -179968 -99999.99 -99999.99 -99999.99 -99999.99
6/3/2022 3:45:00 AM -99999.99 -179968 -99999.99 -99999.99 -99999.99 -99999.99
6/3/2022 4:00:00 AM -99999.99 -179968 -99999.99 -99999.99 -99999.99 -99999.99
6/3/2022 4:15:00 AM -99999.99 -179968 -99999.99 -99999.99 -99999.99 -99999.99
6/3/2022 4:30:00 AM -99999.99 -179968 -99999.99 -99999.99 -99999.99 -99999.99
6/3/2022 4:45:00 AM -99999.99 -179968 -99999.99 -99999.99 -99999.99 -99999.99
6/3/2022 5:00:00 AM -99999.99 -179968 -99999.99 -99999.99 -99999.99 -99999.99
6/3/2022 5:15:00 AM -99999.99 -179968 -99999.99 -99999.99 -99999.99 -99999.99
6/3/2022 5:30:00 AM -99999.99 -179968 -99999.99 -99999.99 -99999.99 -99999.99
6/3/2022 5:45:00 AM -99999.99 -179968 -99999.99 -99999.99 -99999.99 -99999.99
6/3/2022 6:00:00 AM -99999.99 -179968 -99999.99 -99999.99 -99999.99 -99999.99
6/3/2022 6:15:00 AM -99999.99 -179968 -99999.99 -99999.99 -99999.99 -99999.99
6/3/2022 6:30:00 AM -99999.99 -179968 -99999.99 -99999.99 -99999.99 -99999.99
6/3/2022 6:45:00 AM -99999.99 -179968 -99999.99 -99999.99 -99999.99 -99999.99
6/3/2022 7:00:00 AM -99999.99 -179968 -99999.99 -99999.99 -99999.99 -99999.99
6/3/2022 7:15:00 AM -99999.99 -179968 -99999.99 -99999.99 -99999.99 -99999.99
6/3/2022 7:30:00 AM -99999.99 -179968 -99999.99 -99999.99 -99999.99 -99999.99
6/3/2022 7:45:00 AM -99999.99 -179968 -99999.99 -99999.99 -99999.99 -99999.99
6/3/2022 8:00:00 AM -99999.99 -179968 -99999.99 -99999.99 -99999.99 -99999.99
6/3/2022 8:15:00 AM -99999.99 -179968 -99999.99 -99999.99 -99999.99 -99999.99
6/3/2022 8:30:00 AM -99999.99 -179968 -99999.99 -99999.99 -99999.99 -99999.99
6/3/2022 8:45:00 AM -99999.99 -179968 -99999.99 -99999.99 -99999.99 -99999.99
6/3/2022 9:00:00 AM -99999.99 -179968 -99999.99 -99999.99 -99999.99 -99999.99
6/3/2022 9:15:00 AM -99999.99 -179968 -99999.99 -99999.99 -99999.99 -99999.99
6/3/2022 9:30:00 AM -99999.99 -179968 -99999.99 -99999.99 -99999.99 -99999.99
6/3/2022 9:45:00 AM -99999.99 -179968 -99999.99 -99999.99 -99999.99 -99999.99
6/3/2022 10:00:00 AM -99999.99 -179968 -99999.99 -99999.99 -99999.99 -99999.99
6/3/2022 10:15:00 AM -99999.99 -179968 -99999.99 -99999.99 -99999.99 -99999.99
6/3/2022 10:30:00 AM -99999.99 -179968 -99999.99 -99999.99 -99999.99 -99999.99
6/3/2022 10:45:00 AM -99999.99 -179968 -99999.99 -99999.99 -99999.99 -99999.99
6/3/2022 11:00:00 AM -99999.99 -179968 -99999.99 -99999.99 -99999.99 -99999.99
6/3/2022 11:15:00 AM -99999.99 -179968 -99999.99 -99999.99 -99999.99 -99999.99
6/3/2022 11:30:00 AM -99999.99 -179968 -99999.99 -99999.99 -99999.99 -99999.99
6/3/2022 11:45:00 AM -99999.99 -179968 -99999.99 -99999.99 -99999.99 -99999.99
6/3/2022 12:00:00 PM -99999.99 -179968 -99999.99 -99999.99 -99999.99 -99999.99
6/3/2022 12:15:00 PM -99999.99 -179968 -99999.99 -99999.99 -99999.99 -99999.99
6/3/2022 12:30:00 PM -99999.99 -179968 -99999.99 -99999.99 -99999.99 -99999.99
6/3/2022 12:45:00 PM -99999.99 -179968 -99999.99 -99999.99 -99999.99 -99999.99
6/3/2022 1:00:00 PM -99999.99 -179968 -99999.99 -99999.99 -99999.99 -99999.99
6/3/2022 1:15:00 PM -99999.99 -179968 -99999.99 -99999.99 -99999.99 -99999.99
6/3/2022 1:30:00 PM -99999.99 -179968 -99999.99 -99999.99 -99999.99 -99999.99
6/3/2022 1:45:00 PM -99999.99 -179968 -99999.99 -99999.99 -99999.99 -99999.99
6/3/2022 2:00:00 PM -99999.99 -179968 -99999.99 -99999.99 -99999.99 -99999.99
6/3/2022 2:15:00 PM -99999.99 -179968 -99999.99 -99999.99 -99999.99 -99999.99
6/3/2022 2:30:00 PM -99999.99 -179968 -99999.99 -99999.99 -99999.99 -99999.99
6/3/2022 2:45:00 PM -99999.99 -179968 -99999.99 -99999.99 -99999.99 -99999.99
6/3/2022 3:00:00 PM -99999.99 -179968 -99999.99 -99999.99 -99999.99 -99999.99
6/3/2022 3:15:00 PM -99999.99 -179968 -99999.99 -99999.99 -99999.99 -99999.99
6/3/2022 3:30:00 PM -99999.99 -179968 -99999.99 -99999.99 -99999.99 -99999.99
6/3/2022 3:45:00 PM -99999.99 -179968 -99999.99 -99999.99 -99999.99 -99999.99
6/3/2022 4:00:00 PM -99999.99 -179968 -99999.99 -99999.99 -99999.99 -99999.99
6/3/2022 4:15:00 PM -99999.99 -179968 -99999.99 -99999.99 -99999.99 -99999.99
6/3/2022 4:30:00 PM -99999.99 -179968 -99999.99 -99999.99 -99999.99 -99999.99
6/3/2022 4:45:00 PM -99999.99 -179968 -99999.99 -99999.99 -99999.99 -99999.99
6/3/2022 5:00:00 PM -99999.99 -179968 -99999.99 -99999.99 -99999.99 -99999.99
6/3/2022 5:15:00 PM -99999.99 -179968 -99999.99 -99999.99 -99999.99 -99999.99
6/3/2022 5:30:00 PM -99999.99 -179968 -99999.99 -99999.99 -99999.99 -99999.99
6/3/2022 5:45:00 PM -99999.99 -179968 -99999.99 -99999.99 -99999.99 -99999.99
6/3/2022 6:00:00 PM -99999.99 -179968 -99999.99 -99999.99 -99999.99 -99999.99
6/3/2022 6:15:00 PM -99999.99 -179968 -99999.99 -99999.99 -99999.99 -99999.99
6/3/2022 6:30:00 PM -99999.99 -179968 -99999.99 -99999.99 -99999.99 -99999.99
6/3/2022 6:45:00 PM -99999.99 -179968 -99999.99 -99999.99 -99999.99 -99999.99
6/3/2022 7:00:00 PM -99999.99 -179968 -99999.99 -99999.99 -99999.99 -99999.99
6/3/2022 7:15:00 PM -99999.99 -179968 -99999.99 -99999.99 -99999.99 -99999.99
6/3/2022 7:30:00 PM -99999.99 -179968 -99999.99 -99999.99 -99999.99 -99999.99
6/3/2022 7:45:00 PM -99999.99 -179968 -99999.99 -99999.99 -99999.99 -99999.99
6/3/2022 8:00:00 PM -99999.99 -179968 -99999.99 -99999.99 -99999.99 -99999.99
6/3/2022 8:15:00 PM -99999.99 -179968 -99999.99 -99999.99 -99999.99 -99999.99
6/3/2022 8:30:00 PM -99999.99 -179968 -99999.99 -99999.99 -99999.99 -99999.99
6/3/2022 8:45:00 PM -99999.99 -179968 -99999.99 -99999.99 -99999.99 -99999.99
6/3/2022 9:00:00 PM -99999.99 -179968 -99999.99 -99999.99 -99999.99 -99999.99
6/3/2022 9:15:00 PM -99999.99 -179968 -99999.99 -99999.99 -99999.99 -99999.99
6/3/2022 9:30:00 PM -99999.99 -179968 -99999.99 -99999.99 -99999.99 -99999.99
6/3/2022 9:45:00 PM -99999.99 -179968 -99999.99 -99999.99 -99999.99 -99999.99
6/3/2022 10:00:00 PM -99999.99 -179968 -99999.99 -99999.99 -99999.99 -99999.99
6/3/2022 10:15:00 PM -99999.99 -179968 -99999.99 -99999.99 -99999.99 -99999.99
6/3/2022 10:30:00 PM -99999.99 -179968 -99999.99 -99999.99 -99999.99 -99999.99
6/3/2022 10:45:00 PM -99999.99 -179968 -99999.99 -99999.99 -99999.99 -99999.99
6/3/2022 11:00:00 PM -99999.99 -179968 -99999.99 -99999.99 -99999.99 -99999.99
6/3/2022 11:15:00 PM -99999.99 -179968 -99999.99 -99999.99 -99999.99 -99999.99
6/3/2022 11:30:00 PM -99999.99 -179968 -99999.99 -99999.99 -99999.99 -99999.99
6/3/2022 11:45:00 PM -99999.99 -179968 -99999.99 -99999.99 -99999.99 -99999.99
6/4/2022 12:00:00 AM -99999.99 -179968 -99999.99 -99999.99 -99999.99 -99999.99
6/4/2022 12:15:00 AM -99999.99 -179968 -99999.99 -99999.99 -99999.99 -99999.99
6/4/2022 12:30:00 AM -99999.99 -179968 -99999.99 -99999.99 -99999.99 -99999.99
6/4/2022 12:45:00 AM -99999.99 -179968 -99999.99 -99999.99 -99999.99 -99999.99
6/4/2022 1:00:00 AM -99999.99 -179968 -99999.99 -99999.99 -99999.99 -99999.99
6/4/2022 1:15:00 AM -99999.99 -179968 -99999.99 -99999.99 -99999.99 -99999.99
6/4/2022 1:30:00 AM -99999.99 -179968 -99999.99 -99999.99 -99999.99 -99999.99
6/4/2022 1:45:00 AM -99999.99 -179968 -99999.99 -99999.99 -99999.99 -99999.99
6/4/2022 2:00:00 AM -99999.99 -179968 -99999.99 -99999.99 -99999.99 -99999.99
6/4/2022 2:15:00 AM -99999.99 -179968 -99999.99 -99999.99 -99999.99 -99999.99
6/4/2022 2:30:00 AM -99999.99 -179968 -99999.99 -99999.99 -99999.99 -99999.99
6/4/2022 2:45:00 AM -99999.99 -179968 -99999.99 -99999.99 -99999.99 -99999.99
6/4/2022 3:00:00 AM -99999.99 -179968 -99999.99 -99999.99 -99999.99 -99999.99
6/4/2022 3:15:00 AM -99999.99 -179968 -99999.99 -99999.99 -99999.99 -99999.99
6/4/2022 3:30:00 AM -99999.99 -179968 -99999.99 -99999.99 -99999.99 -99999.99
6/4/2022 3:45:00 AM -99999.99 -179968 -99999.99 -99999.99 -99999.99 -99999.99
6/4/2022 4:00:00 AM -99999.99 -179968 -99999.99 -99999.99 -99999.99 -99999.99
6/4/2022 4:15:00 AM -99999.99 -179968 -99999.99 -99999.99 -99999.99 -99999.99
6/4/2022 4:30:00 AM -99999.99 -179968 -99999.99 -99999.99 -99999.99 -99999.99
6/4/2022 4:45:00 AM -99999.99 -179968 -99999.99 -99999.99 -99999.99 -99999.99
6/4/2022 5:00:00 AM -99999.99 -179968 -99999.99 -99999.99 -99999.99 -99999.99
6/4/2022 5:15:00 AM -99999.99 -179968 -99999.99 -99999.99 -99999.99 -99999.99
6/4/2022 5:30:00 AM -99999.99 -179968 -99999.99 -99999.99 -99999.99 -99999.99
6/4/2022 5:45:00 AM -99999.99 -179968 -99999.99 -99999.99 -99999.99 -99999.99
6/4/2022 6:00:00 AM -99999.99 -179968 -99999.99 -99999.99 -99999.99 -99999.99
6/4/2022 6:15:00 AM -99999.99 -179968 -99999.99 -99999.99 -99999.99 -99999.99
6/4/2022 6:30:00 AM -99999.99 -179968 -99999.99 -99999.99 -99999.99 -99999.99
6/4/2022 6:45:00 AM -99999.99 -179968 -99999.99 -99999.99 -99999.99 -99999.99
6/4/2022 7:00:00 AM -99999.99 -179968 -99999.99 -99999.99 -99999.99 -99999.99
6/4/2022 7:15:00 AM -99999.99 -179968 -99999.99 -99999.99 -99999.99 -99999.99
6/4/2022 7:30:00 AM -99999.99 -179968 -99999.99 -99999.99 -99999.99 -99999.99
6/4/2022 7:45:00 AM -99999.99 -179968 -99999.99 -99999.99 -99999.99 -99999.99
6/4/2022 8:00:00 AM -99999.99 -179968 -99999.99 -99999.99 -99999.99 -99999.99
6/4/2022 8:15:00 AM -99999.99 -179968 -99999.99 -99999.99 -99999.99 -99999.99
6/4/2022 8:30:00 AM -99999.99 -179968 -99999.99 -99999.99 -99999.99 -99999.99
6/4/2022 8:45:00 AM -99999.99 -179968 -99999.99 -99999.99 -99999.99 -99999.99
6/4/2022 9:00:00 AM -99999.99 -179968 -99999.99 -99999.99 -99999.99 -99999.99
6/4/2022 9:15:00 AM -99999.99 -179968 -99999.99 -99999.99 -99999.99 -99999.99
6/4/2022 9:30:00 AM -99999.99 -179968 -99999.99 -99999.99 -99999.99 -99999.99
6/4/2022 9:45:00 AM -99999.99 -179968 -99999.99 -99999.99 -99999.99 -99999.99
6/4/2022 10:00:00 AM -99999.99 -179968 -99999.99 -99999.99 -99999.99 -99999.99
6/4/2022 10:15:00 AM -99999.99 -179968 -99999.99 -99999.99 -99999.99 -99999.99
6/4/2022 10:30:00 AM -99999.99 -179968 -99999.99 -99999.99 -99999.99 -99999.99
6/4/2022 10:45:00 AM -99999.99 -179968 -99999.99 -99999.99 -99999.99 -99999.99
6/4/2022 11:00:00 AM -99999.99 -179968 -99999.99 -99999.99 -99999.99 -99999.99
6/4/2022 11:15:00 AM -99999.99 -179968 -99999.99 -99999.99 -99999.99 -99999.99
6/4/2022 11:30:00 AM -99999.99 -179968 -99999.99 -99999.99 -99999.99 -99999.99
6/4/2022 11:45:00 AM -99999.99 -179968 -99999.99 -99999.99 -99999.99 -99999.99
6/4/2022 12:00:00 PM -99999.99 -179968 -99999.99 -99999.99 -99999.99 -99999.99
6/4/2022 12:15:00 PM -99999.99 -179968 -99999.99 -99999.99 -99999.99 -99999.99
6/4/2022 12:30:00 PM -99999.99 -179968 -99999.99 -99999.99 -99999.99 -99999.99
6/4/2022 12:45:00 PM -99999.99 -179968 -99999.99 -99999.99 -99999.99 -99999.99
6/4/2022 1:00:00 PM -99999.99 -179968 -99999.99 -99999.99 -99999.99 -99999.99
6/4/2022 1:15:00 PM -99999.99 -179968 -99999.99 -99999.99 -99999.99 -99999.99
6/4/2022 1:30:00 PM -99999.99 -179968 -99999.99 -99999.99 -99999.99 -99999.99
6/4/2022 1:45:00 PM -99999.99 -179968 -99999.99 -99999.99 -99999.99 -99999.99
6/4/2022 2:00:00 PM -99999.99 -179968 -99999.99 -99999.99 -99999.99 -99999.99
6/4/2022 2:15:00 PM -99999.99 -179968 -99999.99 -99999.99 -99999.99 -99999.99
6/4/2022 2:30:00 PM -99999.99 -179968 -99999.99 -99999.99 -99999.99 -99999.99
6/4/2022 2:45:00 PM -99999.99 -179968 -99999.99 -99999.99 -99999.99 -99999.99
6/4/2022 3:00:00 PM -99999.99 -179968 -99999.99 -99999.99 -99999.99 -99999.99
6/4/2022 3:15:00 PM -99999.99 -179968 -99999.99 -99999.99 -99999.99 -99999.99
6/4/2022 3:30:00 PM -99999.99 -179968 -99999.99 -99999.99 -99999.99 -99999.99
6/4/2022 3:45:00 PM -99999.99 -179968 -99999.99 -99999.99 -99999.99 -99999.99
6/4/2022 4:00:00 PM -99999.99 -179968 -99999.99 -99999.99 -99999.99 -99999.99
6/4/2022 4:15:00 PM -99999.99 -179968 -99999.99 -99999.99 -99999.99 -99999.99
6/4/2022 4:30:00 PM -99999.99 -179968 -99999.99 -99999.99 -99999.99 -99999.99
6/4/2022 4:45:00 PM -99999.99 -179968 -99999.99 -99999.99 -99999.99 -99999.99
6/4/2022 5:00:00 PM -99999.99 -179968 -99999.99 -99999.99 -99999.99 -99999.99
6/4/2022 5:15:00 PM -99999.99 -179968 -99999.99 -99999.99 -99999.99 -99999.99
6/4/2022 5:30:00 PM -99999.99 -179968 -99999.99 -99999.99 -99999.99 -99999.99
6/4/2022 5:45:00 PM -99999.99 -179968 -99999.99 -99999.99 -99999.99 -99999.99
6/4/2022 6:00:00 PM -99999.99 -179968 -99999.99 -99999.99 -99999.99 -99999.99
6/4/2022 6:15:00 PM -99999.99 -179968 -99999.99 -99999.99 -99999.99 -99999.99
6/4/2022 6:30:00 PM -99999.99 -179968 -99999.99 -99999.99 -99999.99 -99999.99
6/4/2022 6:45:00 PM -99999.99 -179968 -99999.99 -99999.99 -99999.99 -99999.99
6/4/2022 7:00:00 PM -99999.99 -179968 -99999.99 -99999.99 -99999.99 -99999.99
6/4/2022 7:15:00 PM -99999.99 -179968 -99999.99 -99999.99 -99999.99 -99999.99
6/4/2022 7:30:00 PM -99999.99 -179968 -99999.99 -99999.99 -99999.99 -99999.99
6/4/2022 7:45:00 PM -99999.99 -179968 -99999.99 -99999.99 -99999.99 -99999.99
6/4/2022 8:00:00 PM -99999.99 -179968 -99999.99 -99999.99 -99999.99 -99999.99
6/4/2022 8:15:00 PM -99999.99 -179968 -99999.99 -99999.99 -99999.99 -99999.99
6/4/2022 8:30:00 PM -99999.99 -179968 -99999.99 -99999.99 -99999.99 -99999.99
6/4/2022 8:45:00 PM -99999.99 -179968 -99999.99 -99999.99 -99999.99 -99999.99
6/4/2022 9:00:00 PM -99999.99 -179968 -99999.99 -99999.99 -99999.99 -99999.99
6/4/2022 9:15:00 PM -99999.99 -179968 -99999.99 -99999.99 -99999.99 -99999.99
6/4/2022 9:30:00 PM -99999.99 -179968 -99999.99 -99999.99 -99999.99 -99999.99
6/4/2022 9:45:00 PM -99999.99 -179968 -99999.99 -99999.99 -99999.99 -99999.99
6/4/2022 10:00:00 PM -99999.99 -179968 -99999.99 -99999.99 -99999.99 -99999.99
6/4/2022 10:15:00 PM -99999.99 -179968 -99999.99 -99999.99 -99999.99 -99999.99
6/4/2022 10:30:00 PM -99999.99 -179968 -99999.99 -99999.99 -99999.99 -99999.99
6/4/2022 10:45:00 PM -99999.99 -179968 -99999.99 -99999.99 -99999.99 -99999.99
6/4/2022 11:00:00 PM -99999.99 -179968 -99999.99 -99999.99 -99999.99 -99999.99
6/4/2022 11:15:00 PM -99999.99 -179968 -99999.99 -99999.99 -99999.99 -99999.99
6/4/2022 11:30:00 PM -99999.99 -179968 -99999.99 -99999.99 -99999.99 -99999.99
6/4/2022 11:45:00 PM -99999.99 -179968 -99999.99 -99999.99 -99999.99 -99999.99
6/5/2022 12:00:00 AM -99999.99 -179968 -99999.99 -99999.99 -99999.99 -99999.99
6/5/2022 12:15:00 AM -99999.99 -179968 -99999.99 -99999.99 -99999.99 -99999.99
6/5/2022 12:30:00 AM -99999.99 -179968 -99999.99 -99999.99 -99999.99 -99999.99
6/5/2022 12:45:00 AM -99999.99 -179968 -99999.99 -99999.99 -99999.99 -99999.99
6/5/2022 1:00:00 AM -99999.99 -179968 -99999.99 -99999.99 -99999.99 -99999.99
6/5/2022 1:15:00 AM -99999.99 -179968 -99999.99 -99999.99 -99999.99 -99999.99
6/5/2022 1:30:00 AM -99999.99 -179968 -99999.99 -99999.99 -99999.99 -99999.99
6/5/2022 1:45:00 AM -99999.99 -179968 -99999.99 -99999.99 -99999.99 -99999.99
6/5/2022 2:00:00 AM -99999.99 -179968 -99999.99 -99999.99 -99999.99 -99999.99
6/5/2022 2:15:00 AM -99999.99 -179968 -99999.99 -99999.99 -99999.99 -99999.99
6/5/2022 2:30:00 AM -99999.99 -179968 -99999.99 -99999.99 -99999.99 -99999.99
6/5/2022 2:45:00 AM -99999.99 -179968 -99999.99 -99999.99 -99999.99 -99999.99
6/5/2022 3:00:00 AM -99999.99 -179968 -99999.99 -99999.99 -99999.99 -99999.99
6/5/2022 3:15:00 AM -99999.99 -179968 -99999.99 -99999.99 -99999.99 -99999.99
6/5/2022 3:30:00 AM -99999.99 -179968 -99999.99 -99999.99 -99999.99 -99999.99
6/5/2022 3:45:00 AM -99999.99 -179968 -99999.99 -99999.99 -99999.99 -99999.99
6/5/2022 4:00:00 AM -99999.99 -179968 -99999.99 -99999.99 -99999.99 -99999.99
6/5/2022 4:15:00 AM -99999.99 -179968 -99999.99 -99999.99 -99999.99 -99999.99
6/5/2022 4:30:00 AM -99999.99 -179968 -99999.99 -99999.99 -99999.99 -99999.99
6/5/2022 4:45:00 AM -99999.99 -179968 -99999.99 -99999.99 -99999.99 -99999.99
6/5/2022 5:00:00 AM -99999.99 -179968 -99999.99 -99999.99 -99999.99 -99999.99
6/5/2022 5:15:00 AM -99999.99 -179968 -99999.99 -99999.99 -99999.99 -99999.99
6/5/2022 5:30:00 AM -99999.99 -179968 -99999.99 -99999.99 -99999.99 -99999.99
6/5/2022 5:45:00 AM -99999.99 -179968 -99999.99 -99999.99 -99999.99 -99999.99
6/5/2022 6:00:00 AM -99999.99 -179968 -99999.99 -99999.99 -99999.99 -99999.99
6/5/2022 6:15:00 AM -99999.99 -179968 -99999.99 -99999.99 -99999.99 -99999.99
6/5/2022 6:30:00 AM -99999.99 -179968 -99999.99 -99999.99 -99999.99 -99999.99
6/5/2022 6:45:00 AM -99999.99 -179968 -99999.99 -99999.99 -99999.99 -99999.99
6/5/2022 7:00:00 AM -99999.99 -179968 -99999.99 -99999.99 -99999.99 -99999.99
6/5/2022 7:15:00 AM -99999.99 -179968 -99999.99 -99999.99 -99999.99 -99999.99
6/5/2022 7:30:00 AM -99999.99 -179968 -99999.99 -99999.99 -99999.99 -99999.99
6/5/2022 7:45:00 AM -99999.99 -179968 -99999.99 -99999.99 -99999.99 -99999.99
6/5/2022 8:00:00 AM -99999.99 -179968 -99999.99 -99999.99 -99999.99 -99999.99
6/5/2022 8:15:00 AM -99999.99 -179968 -99999.99 -99999.99 -99999.99 -99999.99
6/5/2022 8:30:00 AM -99999.99 -179968 -99999.99 -99999.99 -99999.99 -99999.99
6/5/2022 8:45:00 AM -99999.99 -179968 -99999.99 -99999.99 -99999.99 -99999.99
6/5/2022 9:00:00 AM -99999.99 -179968 -99999.99 -99999.99 -99999.99 -99999.99
6/5/2022 9:15:00 AM -99999.99 -179968 -99999.99 -99999.99 -99999.99 -99999.99
6/5/2022 9:30:00 AM -99999.99 -179968 -99999.99 -99999.99 -99999.99 -99999.99
6/5/2022 9:45:00 AM -99999.99 -179968 -99999.99 -99999.99 -99999.99 -99999.99
6/5/2022 10:00:00 AM -99999.99 -179968 -99999.99 -99999.99 -99999.99 -99999.99
6/5/2022 10:15:00 AM -99999.99 -179968 -99999.99 -99999.99 -99999.99 -99999.99
6/5/2022 10:30:00 AM -99999.99 -179968 -99999.99 -99999.99 -99999.99 -99999.99
6/5/2022 10:45:00 AM -99999.99 -179968 -99999.99 -99999.99 -99999.99 -99999.99
6/5/2022 11:00:00 AM -99999.99 -179968 -99999.99 -99999.99 -99999.99 -99999.99
6/5/2022 11:15:00 AM -99999.99 -179968 -99999.99 -99999.99 -99999.99 -99999.99
6/5/2022 11:30:00 AM -99999.99 -179968 -99999.99 -99999.99 -99999.99 -99999.99
6/5/2022 11:45:00 AM -99999.99 -179968 -99999.99 -99999.99 -99999.99 -99999.99
6/5/2022 12:00:00 PM -99999.99 -179968 -99999.99 -99999.99 -99999.99 -99999.99
6/5/2022 12:15:00 PM -99999.99 -179968 -99999.99 -99999.99 -99999.99 -99999.99
6/5/2022 12:30:00 PM -99999.99 -179968 -99999.99 -99999.99 -99999.99 -99999.99
6/5/2022 12:45:00 PM -99999.99 -179968 -99999.99 -99999.99 -99999.99 -99999.99
6/5/2022 1:00:00 PM -99999.99 -179968 -99999.99 -99999.99 -99999.99 -99999.99
6/5/2022 1:15:00 PM -99999.99 -179968 -99999.99 -99999.99 -99999.99 -99999.99
6/5/2022 1:30:00 PM -99999.99 -179968 -99999.99 -99999.99 -99999.99 -99999.99
6/5/2022 1:45:00 PM -99999.99 -179968 -99999.99 -99999.99 -99999.99 -99999.99
6/5/2022 2:00:00 PM -99999.99 -179968 -99999.99 -99999.99 -99999.99 -99999.99
6/5/2022 2:15:00 PM -99999.99 -179968 -99999.99 -99999.99 -99999.99 -99999.99
6/5/2022 2:30:00 PM -99999.99 -179968 -99999.99 -99999.99 -99999.99 -99999.99
6/5/2022 2:45:00 PM -99999.99 -179968 -99999.99 -99999.99 -99999.99 -99999.99
6/5/2022 3:00:00 PM -99999.99 -179968 -99999.99 -99999.99 -99999.99 -99999.99
6/5/2022 3:15:00 PM -99999.99 -179968 -99999.99 -99999.99 -99999.99 -99999.99
6/5/2022 3:30:00 PM -99999.99 -179968 -99999.99 -99999.99 -99999.99 -99999.99
6/5/2022 3:45:00 PM -99999.99 -179968 -99999.99 -99999.99 -99999.99 -99999.99
6/5/2022 4:00:00 PM -99999.99 -179968 -99999.99 -99999.99 -99999.99 -99999.99
6/5/2022 4:15:00 PM -99999.99 -179968 -99999.99 -99999.99 -99999.99 -99999.99
6/5/2022 4:30:00 PM -99999.99 -179968 -99999.99 -99999.99 -99999.99 -99999.99
6/5/2022 4:45:00 PM -99999.99 -179968 -99999.99 -99999.99 -99999.99 -99999.99
6/5/2022 5:00:00 PM -99999.99 -179968 -99999.99 -99999.99 -99999.99 -99999.99
6/5/2022 5:15:00 PM -99999.99 -179968 -99999.99 -99999.99 -99999.99 -99999.99
6/5/2022 5:30:00 PM -99999.99 -179968 -99999.99 -99999.99 -99999.99 -99999.99
6/5/2022 5:45:00 PM -99999.99 -179968 -99999.99 -99999.99 -99999.99 -99999.99
6/5/2022 6:00:00 PM -99999.99 -179968 -99999.99 -99999.99 -99999.99 -99999.99
6/5/2022 6:15:00 PM -99999.99 -179968 -99999.99 -99999.99 -99999.99 -99999.99
6/5/2022 6:30:00 PM -99999.99 -179968 -99999.99 -99999.99 -99999.99 -99999.99
6/5/2022 6:45:00 PM -99999.99 -179968 -99999.99 -99999.99 -99999.99 -99999.99
6/5/2022 7:00:00 PM -99999.99 -179968 -99999.99 -99999.99 -99999.99 -99999.99
6/5/2022 7:15:00 PM -99999.99 -179968 -99999.99 -99999.99 -99999.99 -99999.99
6/5/2022 7:30:00 PM -99999.99 -179968 -99999.99 -99999.99 -99999.99 -99999.99
6/5/2022 7:45:00 PM -99999.99 -179968 -99999.99 -99999.99 -99999.99 -99999.99
6/5/2022 8:00:00 PM -99999.99 -179968 -99999.99 -99999.99 -99999.99 -99999.99
6/5/2022 8:15:00 PM -99999.99 -179968 -99999.99 -99999.99 -99999.99 -99999.99
6/5/2022 8:30:00 PM -99999.99 -179968 -99999.99 -99999.99 -99999.99 -99999.99
6/5/2022 8:45:00 PM -99999.99 -179968 -99999.99 -99999.99 -99999.99 -99999.99
6/5/2022 9:00:00 PM -99999.99 -179968 -99999.99 -99999.99 -99999.99 -99999.99
6/5/2022 9:15:00 PM -99999.99 -179968 -99999.99 -99999.99 -99999.99 -99999.99
6/5/2022 9:30:00 PM -99999.99 -179968 -99999.99 -99999.99 -99999.99 -99999.99
6/5/2022 9:45:00 PM -99999.99 -179968 -99999.99 -99999.99 -99999.99 -99999.99
6/5/2022 10:00:00 PM -99999.99 -179968 -99999.99 -99999.99 -99999.99 -99999.99
6/5/2022 10:15:00 PM -99999.99 -179968 -99999.99 -99999.99 -99999.99 -99999.99
6/5/2022 10:30:00 PM -99999.99 -179968 -99999.99 -99999.99 -99999.99 -99999.99
6/5/2022 10:45:00 PM -99999.99 -179968 -99999.99 -99999.99 -99999.99 -99999.99
6/5/2022 11:00:00 PM -99999.99 -179968 -99999.99 -99999.99 -99999.99 -99999.99
6/5/2022 11:15:00 PM -99999.99 -179968 -99999.99 -99999.99 -99999.99 -99999.99
6/5/2022 11:30:00 PM -99999.99 -179968 -99999.99 -99999.99 -99999.99 -99999.99
6/5/2022 11:45:00 PM -99999.99 -179968 -99999.99 -99999.99 -99999.99 -99999.99
6/6/2022 12:00:00 AM -99999.99 -179968 -99999.99 -99999.99 -99999.99 -99999.99
6/6/2022 12:15:00 AM -99999.99 -179968 -99999.99 -99999.99 -99999.99 -99999.99
6/6/2022 12:30:00 AM -99999.99 -179968 -99999.99 -99999.99 -99999.99 -99999.99
6/6/2022 12:45:00 AM -99999.99 -179968 -99999.99 -99999.99 -99999.99 -99999.99
6/6/2022 1:00:00 AM -99999.99 -179968 -99999.99 -99999.99 -99999.99 -99999.99
6/6/2022 1:15:00 AM -99999.99 -179968 -99999.99 -99999.99 -99999.99 -99999.99
6/6/2022 1:30:00 AM -99999.99 -179968 -99999.99 -99999.99 -99999.99 -99999.99
6/6/2022 1:45:00 AM -99999.99 -179968 -99999.99 -99999.99 -99999.99 -99999.99
6/6/2022 2:00:00 AM -99999.99 -179968 -99999.99 -99999.99 -99999.99 -99999.99
6/6/2022 2:15:00 AM -99999.99 -179968 -99999.99 -99999.99 -99999.99 -99999.99
6/6/2022 2:30:00 AM -99999.99 -179968 -99999.99 -99999.99 -99999.99 -99999.99
6/6/2022 2:45:00 AM -99999.99 -179968 -99999.99 -99999.99 -99999.99 -99999.99
6/6/2022 3:00:00 AM -99999.99 -179968 -99999.99 -99999.99 -99999.99 -99999.99
6/6/2022 3:15:00 AM -99999.99 -179968 -99999.99 -99999.99 -99999.99 -99999.99
6/6/2022 3:30:00 AM -99999.99 -179968 -99999.99 -99999.99 -99999.99 -99999.99
6/6/2022 3:45:00 AM -99999.99 -179968 -99999.99 -99999.99 -99999.99 -99999.99
6/6/2022 4:00:00 AM -99999.99 -179968 -99999.99 -99999.99 -99999.99 -99999.99
6/6/2022 4:15:00 AM -99999.99 -179968 -99999.99 -99999.99 -99999.99 -99999.99
6/6/2022 4:30:00 AM -99999.99 -179968 -99999.99 -99999.99 -99999.99 -99999.99
6/6/2022 4:45:00 AM -99999.99 -179968 -99999.99 -99999.99 -99999.99 -99999.99
6/6/2022 5:00:00 AM -99999.99 -179968 -99999.99 -99999.99 -99999.99 -99999.99
6/6/2022 5:15:00 AM -99999.99 -179968 -99999.99 -99999.99 -99999.99 -99999.99
6/6/2022 5:30:00 AM -99999.99 -179968 -99999.99 -99999.99 -99999.99 -99999.99
6/6/2022 5:45:00 AM -99999.99 -179968 -99999.99 -99999.99 -99999.99 -99999.99
6/6/2022 6:00:00 AM -99999.99 -179968 -99999.99 -99999.99 -99999.99 -99999.99
6/6/2022 6:15:00 AM -99999.99 -179968 -99999.99 -99999.99 -99999.99 -99999.99
6/6/2022 6:30:00 AM -99999.99 -179968 -99999.99 -99999.99 -99999.99 -99999.99
6/6/2022 6:45:00 AM -99999.99 -179968 -99999.99 -99999.99 -99999.99 -99999.99
6/6/2022 7:00:00 AM -99999.99 -179968 -99999.99 -99999.99 -99999.99 -99999.99
6/6/2022 7:15:00 AM -99999.99 -179968 -99999.99 -99999.99 -99999.99 -99999.99
6/6/2022 7:30:00 AM -99999.99 -179968 -99999.99 -99999.99 -99999.99 -99999.99
6/6/2022 7:45:00 AM -99999.99 -179968 -99999.99 -99999.99 -99999.99 -99999.99
6/6/2022 8:00:00 AM -99999.99 -179968 -99999.99 -99999.99 -99999.99 -99999.99
6/6/2022 8:15:00 AM -99999.99 -179968 -99999.99 -99999.99 -99999.99 -99999.99
6/6/2022 8:30:00 AM -99999.99 -179968 -99999.99 -99999.99 -99999.99 -99999.99
6/6/2022 8:45:00 AM -99999.99 -179968 -99999.99 -99999.99 -99999.99 -99999.99
6/6/2022 9:00:00 AM -99999.99 -179968 -99999.99 -99999.99 -99999.99 -99999.99
6/6/2022 9:15:00 AM -99999.99 -179968 -99999.99 -99999.99 -99999.99 -99999.99
6/6/2022 9:30:00 AM -99999.99 -179968 -99999.99 -99999.99 -99999.99 -99999.99
6/6/2022 9:45:00 AM -99999.99 -179968 -99999.99 -99999.99 -99999.99 -99999.99
6/6/2022 10:00:00 AM -99999.99 -179968 -99999.99 -99999.99 -99999.99 -99999.99
6/6/2022 10:15:00 AM -99999.99 -179968 -99999.99 -99999.99 -99999.99 -99999.99
6/6/2022 10:30:00 AM -99999.99 -179968 -99999.99 -99999.99 -99999.99 -99999.99
6/6/2022 10:45:00 AM -99999.99 -179968 -99999.99 -99999.99 -99999.99 -99999.99
6/6/2022 11:00:00 AM -99999.99 -179968 -99999.99 -99999.99 -99999.99 -99999.99
6/6/2022 11:15:00 AM -99999.99 -179968 -99999.99 -99999.99 -99999.99 -99999.99
6/6/2022 11:30:00 AM -99999.99 -179968 -99999.99 -99999.99 -99999.99 -99999.99
6/6/2022 11:45:00 AM -99999.99 -179968 -99999.99 -99999.99 -99999.99 -99999.99
6/6/2022 12:00:00 PM -99999.99 -179968 -99999.99 -99999.99 -99999.99 -99999.99
6/6/2022 12:15:00 PM -99999.99 -179968 -99999.99 -99999.99 -99999.99 -99999.99
6/6/2022 12:30:00 PM -99999.99 -179968 -99999.99 -99999.99 -99999.99 -99999.99
6/6/2022 12:45:00 PM -99999.99 -179968 -99999.99 -99999.99 -99999.99 -99999.99
6/6/2022 1:00:00 PM -99999.99 -179968 -99999.99 -99999.99 -99999.99 -99999.99
6/6/2022 1:15:00 PM -99999.99 -179968 -99999.99 -99999.99 -99999.99 -99999.99
6/6/2022 1:30:00 PM -99999.99 -179968 -99999.99 -99999.99 -99999.99 -99999.99
6/6/2022 1:45:00 PM -99999.99 -179968 -99999.99 -99999.99 -99999.99 -99999.99
6/6/2022 2:00:00 PM -99999.99 -179968 -99999.99 -99999.99 -99999.99 -99999.99
6/6/2022 2:15:00 PM -99999.99 -179968 -99999.99 -99999.99 -99999.99 -99999.99
6/6/2022 2:30:00 PM -99999.99 -179968 -99999.99 -99999.99 -99999.99 -99999.99
6/6/2022 2:45:00 PM -99999.99 -179968 -99999.99 -99999.99 -99999.99 -99999.99
6/6/2022 3:00:00 PM -99999.99 -179968 -99999.99 -99999.99 -99999.99 -99999.99
6/6/2022 3:15:00 PM -99999.99 -179968 -99999.99 -99999.99 -99999.99 -99999.99
6/6/2022 3:30:00 PM -99999.99 -179968 -99999.99 -99999.99 -99999.99 -99999.99
6/6/2022 3:45:00 PM -99999.99 -179968 -99999.99 -99999.99 -99999.99 -99999.99
6/6/2022 4:00:00 PM -99999.99 -179968 -99999.99 -99999.99 -99999.99 -99999.99
6/6/2022 4:15:00 PM -99999.99 -179968 -99999.99 -99999.99 -99999.99 -99999.99
6/6/2022 4:30:00 PM -99999.99 -179968 -99999.99 -99999.99 -99999.99 -99999.99
6/6/2022 4:45:00 PM -99999.99 -179968 -99999.99 -99999.99 -99999.99 -99999.99
6/6/2022 5:00:00 PM -99999.99 -179968 -99999.99 -99999.99 -99999.99 -99999.99
6/6/2022 5:15:00 PM -99999.99 -179968 -99999.99 -99999.99 -99999.99 -99999.99
6/6/2022 5:30:00 PM -99999.99 -179968 -99999.99 -99999.99 -99999.99 -99999.99
6/6/2022 5:45:00 PM -99999.99 -179968 -99999.99 -99999.99 -99999.99 -99999.99
6/6/2022 6:00:00 PM -99999.99 -179968 -99999.99 -99999.99 -99999.99 -99999.99
6/6/2022 6:15:00 PM -99999.99 -179968 -99999.99 -99999.99 -99999.99 -99999.99
6/6/2022 6:30:00 PM -99999.99 -179968 -99999.99 -99999.99 -99999.99 -99999.99
6/6/2022 6:45:00 PM -99999.99 -179968 -99999.99 -99999.99 -99999.99 -99999.99
6/6/2022 7:00:00 PM -99999.99 -179968 -99999.99 -99999.99 -99999.99 -99999.99
6/6/2022 7:15:00 PM -99999.99 -179968 -99999.99 -99999.99 -99999.99 -99999.99
6/6/2022 7:30:00 PM -99999.99 -179968 -99999.99 -99999.99 -99999.99 -99999.99
6/6/2022 7:45:00 PM -99999.99 -179968 -99999.99 -99999.99 -99999.99 -99999.99
6/6/2022 8:00:00 PM -99999.99 -179968 -99999.99 -99999.99 -99999.99 -99999.99
6/6/2022 8:15:00 PM -99999.99 -179968 -99999.99 -99999.99 -99999.99 -99999.99
6/6/2022 8:30:00 PM -99999.99 -179968 -99999.99 -99999.99 -99999.99 -99999.99
6/6/2022 8:45:00 PM -99999.99 -179968 -99999.99 -99999.99 -99999.99 -99999.99
6/6/2022 9:00:00 PM -99999.99 -179968 -99999.99 -99999.99 -99999.99 -99999.99
6/6/2022 9:15:00 PM -99999.99 -179968 -99999.99 -99999.99 -99999.99 -99999.99
6/6/2022 9:30:00 PM -99999.99 -179968 -99999.99 -99999.99 -99999.99 -99999.99
6/6/2022 9:45:00 PM -99999.99 -179968 -99999.99 -99999.99 -99999.99 -99999.99
6/6/2022 10:00:00 PM -99999.99 -179968 -99999.99 -99999.99 -99999.99 -99999.99
6/6/2022 10:15:00 PM -99999.99 -179968 -99999.99 -99999.99 -99999.99 -99999.99
6/6/2022 10:30:00 PM -99999.99 -179968 -99999.99 -99999.99 -99999.99 -99999.99
6/6/2022 10:45:00 PM -99999.99 -179968 -99999.99 -99999.99 -99999.99 -99999.99
6/6/2022 11:00:00 PM -99999.99 -179968 -99999.99 -99999.99 -99999.99 -99999.99
6/6/2022 11:15:00 PM -99999.99 -179968 -99999.99 -99999.99 -99999.99 -99999.99
6/6/2022 11:30:00 PM -99999.99 -179968 -99999.99 -99999.99 -99999.99 -99999.99
6/6/2022 11:45:00 PM -99999.99 -179968 -99999.99 -99999.99 -99999.99 -99999.99
6/7/2022 12:00:00 AM -99999.99 -179968 -99999.99 -99999.99 -99999.99 -99999.99
6/7/2022 12:15:00 AM -99999.99 -179968 -99999.99 -99999.99 -99999.99 -99999.99
6/7/2022 12:30:00 AM -99999.99 -179968 -99999.99 -99999.99 -99999.99 -99999.99
6/7/2022 12:45:00 AM -99999.99 -179968 -99999.99 -99999.99 -99999.99 -99999.99
6/7/2022 1:00:00 AM -99999.99 -179968 -99999.99 -99999.99 -99999.99 -99999.99
6/7/2022 1:15:00 AM -99999.99 -179968 -99999.99 -99999.99 -99999.99 -99999.99
6/7/2022 1:30:00 AM -99999.99 -179968 -99999.99 -99999.99 -99999.99 -99999.99
6/7/2022 1:45:00 AM -99999.99 -179968 -99999.99 -99999.99 -99999.99 -99999.99
6/7/2022 2:00:00 AM -99999.99 -179968 -99999.99 -99999.99 -99999.99 -99999.99
6/7/2022 2:15:00 AM -99999.99 -179968 -99999.99 -99999.99 -99999.99 -99999.99
6/7/2022 2:30:00 AM -99999.99 -179968 -99999.99 -99999.99 -99999.99 -99999.99
6/7/2022 2:45:00 AM -99999.99 -179968 -99999.99 -99999.99 -99999.99 -99999.99
6/7/2022 3:00:00 AM -99999.99 -179968 -99999.99 -99999.99 -99999.99 -99999.99
6/7/2022 3:15:00 AM -99999.99 -179968 -99999.99 -99999.99 -99999.99 -99999.99
6/7/2022 3:30:00 AM -99999.99 -179968 -99999.99 -99999.99 -99999.99 -99999.99
6/7/2022 3:45:00 AM -99999.99 -179968 -99999.99 -99999.99 -99999.99 -99999.99
6/7/2022 4:00:00 AM -99999.99 -179968 -99999.99 -99999.99 -99999.99 -99999.99
6/7/2022 4:15:00 AM -99999.99 -179968 -99999.99 -99999.99 -99999.99 -99999.99
6/7/2022 4:30:00 AM -99999.99 -179968 -99999.99 -99999.99 -99999.99 -99999.99
6/7/2022 4:45:00 AM -99999.99 -179968 -99999.99 -99999.99 -99999.99 -99999.99
6/7/2022 5:00:00 AM -99999.99 -179968 -99999.99 -99999.99 -99999.99 -99999.99
6/7/2022 5:15:00 AM -99999.99 -179968 -99999.99 -99999.99 -99999.99 -99999.99
6/7/2022 5:30:00 AM -99999.99 -179968 -99999.99 -99999.99 -99999.99 -99999.99
6/7/2022 5:45:00 AM -99999.99 -179968 -99999.99 -99999.99 -99999.99 -99999.99
6/7/2022 6:00:00 AM -99999.99 -179968 -99999.99 -99999.99 -99999.99 -99999.99
6/7/2022 6:15:00 AM -99999.99 -179968 -99999.99 -99999.99 -99999.99 -99999.99
6/7/2022 6:30:00 AM -99999.99 -179968 -99999.99 -99999.99 -99999.99 -99999.99
6/7/2022 6:45:00 AM -99999.99 -179968 -99999.99 -99999.99 -99999.99 -99999.99
6/7/2022 7:00:00 AM -99999.99 -179968 -99999.99 -99999.99 -99999.99 -99999.99
6/7/2022 7:15:00 AM -99999.99 -179968 -99999.99 -99999.99 -99999.99 -99999.99
6/7/2022 7:30:00 AM -99999.99 -179968 -99999.99 -99999.99 -99999.99 -99999.99
6/7/2022 7:45:00 AM -99999.99 -179968 -99999.99 -99999.99 -99999.99 -99999.99
6/7/2022 8:00:00 AM -99999.99 -179968 -99999.99 -99999.99 -99999.99 -99999.99
6/7/2022 8:15:00 AM -99999.99 -179968 -99999.99 -99999.99 -99999.99 -99999.99
6/7/2022 8:30:00 AM -99999.99 -179968 -99999.99 -99999.99 -99999.99 -99999.99
6/7/2022 8:45:00 AM -99999.99 -179968 -99999.99 -99999.99 -99999.99 -99999.99
6/7/2022 9:00:00 AM -99999.99 -179968 -99999.99 -99999.99 -99999.99 -99999.99
6/7/2022 9:15:00 AM -99999.99 -179968 -99999.99 -99999.99 -99999.99 -99999.99
6/7/2022 9:30:00 AM -99999.99 -179968 -99999.99 -99999.99 -99999.99 -99999.99
6/7/2022 9:45:00 AM -99999.99 -179968 -99999.99 -99999.99 -99999.99 -99999.99
6/7/2022 10:00:00 AM -99999.99 -179968 -99999.99 -99999.99 -99999.99 -99999.99
6/7/2022 10:15:00 AM -99999.99 -179968 -99999.99 -99999.99 -99999.99 -99999.99
6/7/2022 10:30:00 AM -99999.99 -179968 -99999.99 -99999.99 -99999.99 -99999.99
6/7/2022 10:45:00 AM 19.13 66.434 0.209 7.59 11.08 9.34
6/7/2022 11:00:00 AM 19.19 66.542 0.209 7.66 6.93 9.44
6/7/2022 11:15:00 AM 19.25 66.65 0.208 7.69 5.35 9.34
6/7/2022 11:30:00 AM 19.28 66.704 0.208 7.74 4.19 9.42
6/7/2022 11:45:00 AM 19.3 66.74 0.208 7.83 2.6 9.51
6/7/2022 12:00:00 PM 19.33 66.794 0.208 7.81 10.78 9.5
6/7/2022 12:15:00 PM 19.36 66.848 0.208 7.82 3.07 9.4
6/7/2022 12:30:00 PM 19.38 66.884 0.208 7.83 3.09 9.42
6/7/2022 12:45:00 PM 19.41 66.938 0.209 7.81 10.02 9.39
6/7/2022 1:00:00 PM 19.41 66.938 0.209 7.83 2.96 9.38
6/7/2022 1:15:00 PM 19.41 66.938 0.209 7.82 3.44 9.31
6/7/2022 1:30:00 PM 19.41 66.938 0.209 7.83 3.3 9.3
6/7/2022 1:45:00 PM 19.41 66.938 0.209 7.81 3.52 9.26
6/7/2022 2:00:00 PM 19.41 66.938 0.209 7.79 3.51 9.2
6/7/2022 2:15:00 PM 19.42 66.956 0.209 7.79 3.35 9.12
6/7/2022 2:30:00 PM 19.43 66.974 0.209 7.79 3.14 9.14
6/7/2022 2:45:00 PM 19.45 67.01 0.209 7.77 3.01 9.06
6/7/2022 3:00:00 PM 19.48 67.064 0.209 7.79 3.99 9.19
6/7/2022 3:15:00 PM 19.51 67.118 0.208 7.79 4.77 9.2
6/7/2022 3:30:00 PM 19.51 67.118 0.208 7.78 2.95 9.18
6/7/2022 3:45:00 PM 19.51 67.118 0.208 7.77 4.79 9.18
6/7/2022 4:00:00 PM 19.51 67.118 0.208 7.76 4.06 9.14
6/7/2022 4:15:00 PM 19.49 67.082 0.208 7.75 4.61 9.07
6/7/2022 4:30:00 PM 19.49 67.082 0.208 7.72 3.44 9.01
6/7/2022 4:45:00 PM 19.48 67.064 0.208 7.7 3.47 8.93
6/7/2022 5:00:00 PM 19.48 67.064 0.208 7.68 4.18 8.88
6/7/2022 5:15:00 PM 19.48 67.064 0.208 7.66 3.43 8.78
6/7/2022 5:30:00 PM 19.47 67.046 0.208 7.64 3.6 8.7
6/7/2022 5:45:00 PM 19.45 67.01 0.208 7.61 3.36 8.53
6/7/2022 6:00:00 PM 19.45 67.01 0.208 7.57 3.5 8.54
6/7/2022 6:15:00 PM 19.45 67.01 0.208 7.56 4.79 8.49
6/7/2022 6:30:00 PM 19.44 66.992 0.208 7.55 4.37 8.47
6/7/2022 6:45:00 PM 19.43 66.974 0.208 7.54 3.29 8.44
6/7/2022 7:00:00 PM 19.42 66.956 0.208 7.53 4.15 8.43
6/7/2022 7:15:00 PM 19.42 66.956 0.209 7.52 4.05 8.4
6/7/2022 7:30:00 PM 19.4 66.92 0.209 7.52 3.53 8.36
6/7/2022 7:45:00 PM 19.38 66.884 0.209 7.51 5.45 8.35
6/7/2022 8:00:00 PM 19.37 66.866 0.209 7.49 3.93 8.31
6/7/2022 8:15:00 PM 19.35 66.83 0.209 7.49 3.19 8.24
6/7/2022 8:30:00 PM 19.32 66.776 0.209 7.48 3.71 8.2
6/7/2022 8:45:00 PM 19.29 66.722 0.21 7.46 3.14 8.12
6/7/2022 9:00:00 PM 19.27 66.686 0.21 7.44 3.21 8.05
6/7/2022 9:15:00 PM 19.23 66.614 0.21 7.42 3.5 7.97
6/7/2022 9:30:00 PM 19.2 66.56 0.21 7.4 3.6 7.9
6/7/2022 9:45:00 PM 19.16 66.488 0.21 7.39 3.37 7.84
6/7/2022 10:00:00 PM 19.13 66.434 0.211 7.38 3.89 7.77
6/7/2022 10:15:00 PM 19.09 66.362 0.211 7.35 3.82 7.71
6/7/2022 10:30:00 PM 19.06 66.308 0.211 7.34 3.76 7.65
6/7/2022 10:45:00 PM 19.02 66.236 0.211 7.33 4.07 7.6
6/7/2022 11:00:00 PM 18.99 66.182 0.211 7.31 4.29 7.57
6/7/2022 11:15:00 PM 18.94 66.092 0.211 7.31 4.19 7.55
6/7/2022 11:30:00 PM 18.91 66.038 0.211 7.31 4.46 7.53
6/7/2022 11:45:00 PM 18.88 65.984 0.211 7.3 3.96 7.5
6/8/2022 12:00:00 AM 18.85 65.93 0.211 7.28 4.18 7.5
6/8/2022 12:15:00 AM 18.82 65.876 0.211 7.29 4.08 7.5
6/8/2022 12:30:00 AM 18.8 65.84 0.211 7.27 3.82 7.48
6/8/2022 12:45:00 AM 18.77 65.786 0.211 7.27 3.8 7.49
6/8/2022 1:00:00 AM 18.74 65.732 0.211 7.28 4.29 7.5
6/8/2022 1:15:00 AM 18.72 65.696 0.211 7.28 4.22 7.49
6/8/2022 1:30:00 AM 18.68 65.624 0.211 7.28 4.19 7.52
6/8/2022 1:45:00 AM 18.65 65.57 0.211 7.28 4.44 7.54
6/8/2022 2:00:00 AM 18.62 65.516 0.211 7.27 4.83 7.52
6/8/2022 2:15:00 AM 18.58 65.444 0.211 7.27 4.42 7.55
6/8/2022 2:30:00 AM 18.53 65.354 0.211 7.28 4.28 7.56
6/8/2022 2:45:00 AM 18.48 65.264 0.211 7.27 4.64 7.55
6/8/2022 3:00:00 AM 18.43 65.174 0.211 7.25 4.4 7.55
6/8/2022 3:15:00 AM 18.37 65.066 0.211 7.27 4.48 7.57
6/8/2022 3:30:00 AM 18.3 64.94 0.21 7.28 4.17 7.57
6/8/2022 3:45:00 AM 18.23 64.814 0.211 7.25 4.7 7.56
6/8/2022 4:00:00 AM 18.15 64.67 0.211 7.27 5.05 7.59
6/8/2022 4:15:00 AM 18.08 64.544 0.211 7.27 4.61 7.59
6/8/2022 4:30:00 AM 18 64.4 0.211 7.26 5.81 7.61
6/8/2022 4:45:00 AM 17.91 64.238 0.211 7.27 4.62 7.63
6/8/2022 5:00:00 AM 17.82 64.076 0.211 7.26 6.43 7.65
6/8/2022 5:15:00 AM 17.73 63.914 0.211 7.28 4.65 7.68
6/8/2022 5:30:00 AM 17.63 63.734 0.211 7.28 5.02 7.71
6/8/2022 5:45:00 AM 17.53 63.554 0.211 7.27 3.88 7.75
6/8/2022 6:00:00 AM 17.42 63.356 0.211 7.29 4.65 7.8
6/8/2022 6:15:00 AM 17.35 63.23 0.165 7.29 4.54 7.81
6/8/2022 6:30:00 AM 17.28 63.104 0.196 7.29 3.73 7.89
6/8/2022 6:45:00 AM 17.22 62.996 0.211 7.29 4.26 7.95
6/8/2022 7:00:00 AM 17.16 62.888 0.21 7.3 3.44 8.03
6/8/2022 7:15:00 AM 17.12 62.816 0.211 7.32 4.52 8.13
6/8/2022 7:30:00 AM 17.08 62.744 0.211 7.34 3.54 8.24
6/8/2022 7:45:00 AM 17.08 62.744 0.211 7.36 3.2 8.33
6/8/2022 8:00:00 AM 17.1 62.78 0.211 7.37 2.97 8.45
6/8/2022 8:15:00 AM 17.15 62.87 0.211 7.4 3.76 8.57
6/8/2022 8:30:00 AM 17.24 63.032 0.211 7.41 3.33 8.68
6/8/2022 8:45:00 AM 17.34 63.212 0.211 7.44 2.83 8.81
6/8/2022 9:00:00 AM 17.45 63.41 0.211 7.46 2.88 8.93
6/8/2022 9:15:00 AM 17.55 63.59 0.211 7.48 3.1 9.02
6/8/2022 9:30:00 AM 17.68 63.824 0.211 7.5 3.4 9.1
6/8/2022 9:45:00 AM 17.78 64.004 0.211 7.51 4.14 9.17
6/8/2022 10:00:00 AM 17.86 64.148 0.211 7.55 3.6 9.27
6/8/2022 10:15:00 AM 17.93 64.274 0.211 7.55 4.18 9.32
6/8/2022 10:30:00 AM 18.1 64.58 0.211 7.6 3.75 9.42
6/8/2022 10:45:00 AM 18.4 65.12 0.211 7.63 3.09 9.5
6/8/2022 11:00:00 AM 18.6 65.48 0.211 7.66 3.38 9.56
6/8/2022 11:15:00 AM 18.93 66.074 0.21 7.7 5.53 9.65
6/8/2022 11:30:00 AM 19.22 66.596 0.21 7.73 2.93 9.72
6/8/2022 11:45:00 AM 19.59 67.262 0.21 7.78 3.17 9.78
6/8/2022 12:00:00 PM 19.86 67.748 0.21 7.81 3.78 9.83
6/8/2022 12:15:00 PM 20.25 68.45 0.21 7.85 3.48 9.88
6/8/2022 12:30:00 PM 20.62 69.116 0.21 7.91 3.95 9.93
6/8/2022 12:45:00 PM 21.06 69.908 0.21 7.97 3.14 9.98
6/8/2022 1:00:00 PM 21.45 70.61 0.21 8.03 2.39 9.96
6/8/2022 1:15:00 PM 21.61 70.898 0.21 8.07 2.45 9.96
6/8/2022 1:30:00 PM 21.82 71.276 0.21 8.1 2.59 9.95
6/8/2022 1:45:00 PM 22.1 71.78 0.21 8.14 3.11 9.94
6/8/2022 2:00:00 PM 22.38 72.284 0.21 8.17 2.64 9.92
6/8/2022 2:15:00 PM 22.69 72.842 0.21 8.21 2.85 9.86
6/8/2022 2:30:00 PM 22.97 73.346 0.21 8.26 2.42 9.82
6/8/2022 2:45:00 PM 23.24 73.832 0.211 8.27 3.01 9.75
6/8/2022 3:00:00 PM 23.42 74.156 0.211 8.28 2.73 9.69
6/8/2022 3:15:00 PM 23.61 74.498 0.21 8.3 3.44 9.64
6/8/2022 3:30:00 PM 23.67 74.606 0.211 8.3 2.76 9.56
6/8/2022 3:45:00 PM 23.78 74.804 0.211 8.31 2.64 9.48
6/8/2022 4:00:00 PM 23.78 74.804 0.211 8.29 2.98 9.4
6/8/2022 4:15:00 PM 23.79 74.82201 0.211 8.26 3.13 9.28
6/8/2022 4:30:00 PM 23.79 74.82201 0.148 8.25 3.94 9.19
6/8/2022 4:45:00 PM 23.72 74.696 0.212 8.23 3.05 9.08
6/8/2022 5:00:00 PM 23.65 74.57 0.212 8.19 3.08 9.05
6/8/2022 5:15:00 PM 23.52 74.336 0.212 8.13 3.38 8.93
6/8/2022 5:30:00 PM 23.31 73.958 0.212 8.09 2.81 8.85
6/8/2022 5:45:00 PM 23.1 73.58 0.213 8.03 3.17 8.76
6/8/2022 6:00:00 PM 22.92 73.256 0.213 7.97 20.75 8.68
6/8/2022 6:15:00 PM 22.73 72.914 0.213 7.93 2.88 8.6
6/8/2022 6:30:00 PM 22.55 72.59 0.213 7.87 2.69 8.52
6/8/2022 6:45:00 PM 22.39 72.302 0.213 7.85 4.32 8.48
6/8/2022 7:00:00 PM 22.2 71.96 0.213 7.82 3.62 8.45
6/8/2022 7:15:00 PM 22.04 71.672 0.213 7.79 3.77 8.43
6/8/2022 7:30:00 PM 21.9 71.42 0.213 7.76 3.32 8.38
6/8/2022 7:45:00 PM 21.75 71.15 0.213 7.72 3.67 8.32
6/8/2022 8:00:00 PM 21.59 70.862 0.213 7.67 3.64 8.27
6/8/2022 8:15:00 PM 21.43 70.574 0.214 7.66 3.49 8.2
6/8/2022 8:30:00 PM 21.27 70.286 0.214 7.63 3.55 8.13
6/8/2022 8:45:00 PM 21.12 70.016 0.214 7.6 3.48 8.05
6/8/2022 9:00:00 PM 20.99 69.782 0.214 7.55 4.88 7.94
6/8/2022 9:15:00 PM 20.86 69.548 0.214 7.53 4.84 7.84
6/8/2022 9:30:00 PM 20.73 69.314 0.214 7.5 4.18 7.74
6/8/2022 9:45:00 PM 20.61 69.098 0.214 7.47 4.13 7.64
6/8/2022 10:00:00 PM 20.51 68.918 0.214 7.44 3.92 7.54
6/8/2022 10:15:00 PM 20.4 68.72 0.214 7.42 4.3 7.46
6/8/2022 10:30:00 PM 20.3 68.54 0.214 7.38 4.4 7.38
6/8/2022 10:45:00 PM 20.21 68.378 0.214 7.36 4.49 7.31
6/8/2022 11:00:00 PM 20.13 68.234 0.214 7.36 4.28 7.26
6/8/2022 11:15:00 PM 20.04 68.07201 0.214 7.33 4.53 7.21
6/8/2022 11:30:00 PM 19.97 67.946 0.214 7.32 4.75 7.17
6/8/2022 11:45:00 PM 19.89 67.802 0.215 7.32 4.95 7.16
6/9/2022 12:00:00 AM 19.82 67.676 0.215 7.3 4.6 7.15
6/9/2022 12:15:00 AM 19.75 67.55 0.215 7.3 4.51 7.13
6/9/2022 12:30:00 AM 19.68 67.424 0.215 7.28 4.75 7.13
6/9/2022 12:45:00 AM 19.61 67.298 0.214 7.29 4.44 7.16
6/9/2022 1:00:00 AM 19.54 67.172 0.214 7.28 4.85 7.16
6/9/2022 1:15:00 AM 19.47 67.046 0.214 7.28 4.97 7.2
6/9/2022 1:30:00 AM 19.38 66.884 0.213 7.29 4.9 7.28
6/9/2022 1:45:00 AM 19.3 66.74 0.212 7.28 5.02 7.33
6/9/2022 2:00:00 AM 19.18 66.524 0.209 7.31 5.6 7.45
6/9/2022 2:15:00 AM 19.06 66.308 0.207 7.31 6.21 7.56
6/9/2022 2:30:00 AM 18.96 66.128 0.205 7.33 6.9 7.6
6/9/2022 2:45:00 AM 18.84 65.912 0.202 7.34 7.48 7.69
6/9/2022 3:00:00 AM 18.74 65.732 0.199 7.34 7.76 7.75
6/9/2022 3:15:00 AM 18.61 65.498 0.194 7.33 7.21 7.83
6/9/2022 3:30:00 AM 18.49 65.282 0.19 7.34 9.05 7.85
6/9/2022 3:45:00 AM 18.33 64.994 0.183 7.32 16.85 7.87
6/9/2022 4:00:00 AM 18.09 64.562 0.181 7.34 24.67 7.97
6/9/2022 4:15:00 AM 17.93 64.274 0.18 7.33 27.83 7.99
6/9/2022 4:30:00 AM 17.77 63.986 0.174 7.32 34.85 8.02
6/9/2022 4:45:00 AM 17.69 63.842 0.17 7.3 37.64 8.04
6/9/2022 5:00:00 AM 17.68 63.824 0.171 7.27 35.22 8.02
6/9/2022 5:15:00 AM 17.67 63.806 0.172 7.28 33.48 8.02
6/9/2022 5:30:00 AM 17.71 63.878 0.174 7.29 33.73 8.01
6/9/2022 5:45:00 AM 17.78 64.004 0.178 7.28 29 8.02
6/9/2022 6:00:00 AM 17.84 64.112 0.182 7.31 24.34 8.02
6/9/2022 6:15:00 AM 17.9 64.22 0.182 7.32 22.7 8.04
6/9/2022 6:30:00 AM 17.93 64.274 0.181 7.29 24.02 8.09
6/9/2022 6:45:00 AM 17.99 64.382 0.182 7.31 22.13 8.15
6/9/2022 7:00:00 AM 18.05 64.49 0.184 7.31 23.31 8.19
6/9/2022 7:15:00 AM 18.12 64.616 0.192 7.3 80.87 8.2
6/9/2022 7:30:00 AM 17.98 64.364 0.199 7.27 85.96 8.26
6/9/2022 7:45:00 AM 17.68 63.824 0.205 7.28 103.55 8.4
6/9/2022 8:00:00 AM 17.38 63.284 0.207 7.28 110.19 8.5
6/9/2022 8:15:00 AM 17.18 62.924 0.205 7.3 118.42 8.57
6/9/2022 8:30:00 AM 17.1 62.78 0.196 7.28 125.9 8.6
6/9/2022 8:45:00 AM 17.12 62.816 0.191 7.28 122.74 8.61
6/9/2022 9:00:00 AM 17.14 62.852 0.186 7.29 98.33 8.63
6/9/2022 9:15:00 AM 17.12 62.816 0.183 7.29 112.79 8.64
6/9/2022 9:30:00 AM 17.09 62.762 0.18 7.29 106.08 8.66
6/9/2022 9:45:00 AM 17.01 62.618 0.179 7.29 105.28 8.69
6/9/2022 10:00:00 AM 16.95 62.51 0.178 7.29 94.07 8.72
6/9/2022 10:15:00 AM 16.89 62.402 0.177 7.28 83.83 8.74
6/9/2022 10:30:00 AM 16.85 62.33 0.174 7.28 75.88 8.75
6/9/2022 10:45:00 AM 16.79 62.222 0.17 7.27 73.85 8.78
6/9/2022 11:00:00 AM 16.8 62.24 0.166 7.28 66.71 8.8
6/9/2022 11:15:00 AM 16.84 62.312 0.161 7.28 66.15 8.83
6/9/2022 11:30:00 AM 16.85 62.33 0.157 7.28 66.5 8.84
6/9/2022 11:45:00 AM 16.87 62.366 0.154 7.25 68.59 8.86
6/9/2022 12:00:00 PM 16.82 62.276 0.151 7.27 70.59 8.85
6/9/2022 12:15:00 PM 16.83 62.294 0.149 7.25 64.82 8.85
6/9/2022 12:30:00 PM 16.81 62.258 0.147 7.25 60.14 8.86
6/9/2022 12:45:00 PM 16.81 62.258 0.146 7.26 63.62 8.86
6/9/2022 1:00:00 PM 16.85 62.33 0.145 7.27 59.54 8.87
6/9/2022 1:15:00 PM 16.98 62.564 0.145 7.27 54.18 8.89
6/9/2022 1:30:00 PM 17.22 62.996 0.146 7.28 49.55 8.94
6/9/2022 1:45:00 PM 17.39 63.302 0.147 7.3 43.71 8.96
6/9/2022 2:00:00 PM 17.59 63.662 0.148 7.31 43.81 8.97
6/9/2022 2:15:00 PM 17.73 63.914 0.148 7.33 36.09 8.96
6/9/2022 2:30:00 PM 17.77 63.986 0.149 7.35 39.09 8.93
6/9/2022 2:45:00 PM 17.86 64.148 0.151 7.33 35.11 8.86
6/9/2022 3:00:00 PM 18.03 64.454 0.152 7.34 33.16 8.89
6/9/2022 3:15:00 PM 18.04 64.472 0.153 7.36 33.85 8.87
6/9/2022 3:30:00 PM 18.07 64.526 0.154 7.36 31.96 8.84
6/9/2022 3:45:00 PM 18.13 64.634 0.155 7.36 30.17 8.82
6/9/2022 4:00:00 PM 18.22 64.796 0.156 7.37 29.58 8.82
6/9/2022 4:15:00 PM 18.19 64.742 0.157 7.38 26.16 8.81
6/9/2022 4:30:00 PM 18.13 64.634 0.158 7.38 26.85 8.77
6/9/2022 4:45:00 PM 18.17 64.706 0.159 7.37 24.32 8.76
6/9/2022 5:00:00 PM 18.13 64.634 0.16 7.37 23.48 8.76
6/9/2022 5:15:00 PM 18.07 64.526 0.16 7.37 27.4 8.71
6/9/2022 5:30:00 PM 18 64.4 0.161 7.37 21.34 8.7
6/9/2022 5:45:00 PM 17.97 64.346 0.161 7.38 21.39 8.73
6/9/2022 6:00:00 PM 17.94 64.292 0.162 7.37 20.95 8.76
6/9/2022 6:15:00 PM 17.91 64.238 0.162 7.38 19.97 8.77
6/9/2022 6:30:00 PM 17.87 64.166 0.162 7.39 19.78 8.78
6/9/2022 6:45:00 PM 17.85 64.13 0.162 7.4 18.65 8.77
6/9/2022 7:00:00 PM 17.82 64.076 0.163 7.39 17.38 8.77
6/9/2022 7:15:00 PM 17.78 64.004 0.163 7.39 17.42 8.74
6/9/2022 7:30:00 PM 17.75 63.95 0.163 7.38 16.64 8.73
6/9/2022 7:45:00 PM 17.7 63.86 0.163 7.36 17.05 8.72
6/9/2022 8:00:00 PM 17.64 63.752 0.164 7.36 17.46 8.7
6/9/2022 8:15:00 PM 17.58 63.644 0.164 7.36 17.73 8.68
6/9/2022 8:30:00 PM 17.52 63.536 0.164 7.35 16.08 8.67
6/9/2022 8:45:00 PM 17.46 63.428 0.164 7.36 15.52 8.66
6/9/2022 9:00:00 PM 17.4 63.32 0.164 7.34 16.74 8.65
6/9/2022 9:15:00 PM 17.35 63.23 0.164 7.34 16.75 8.64
6/9/2022 9:30:00 PM 17.3 63.14 0.165 7.34 16.37 8.63
6/9/2022 9:45:00 PM 17.25 63.05 0.165 7.34 17.5 8.64
6/9/2022 10:00:00 PM 17.19 62.942 0.165 7.33 16.68 8.64
6/9/2022 10:15:00 PM 17.12 62.816 0.165 7.34 15.84 8.64
6/9/2022 10:30:00 PM 17.07 62.726 0.165 7.33 16.25 8.65
6/9/2022 10:45:00 PM 17.02 62.636 0.165 7.32 16.63 8.66
6/9/2022 11:00:00 PM 16.97 62.546 0.165 7.33 15.48 8.67
6/9/2022 11:15:00 PM 16.91 62.438 0.165 7.33 15.66 8.67
6/9/2022 11:30:00 PM 16.87 62.366 0.165 7.33 14.87